<?xml version="1.0" encoding="UTF-8" standalone="no" ?>
<gpx xmlns="http://www.topografix.com/GPX/1/1" xmlns:xsi="http://www.w3.org/2001/XMLSchema-instance" xsi:schemaLocation="http://www.topografix.com/GPX/1/1 http://www.topografix.com/GPX/1/1/gpx.xsd" version="1.1" creator="VisuGPX - https://www.visugpx.com">
  <metadata>
    <name>forêt de brain sur longuené</name>
    <desc><![CDATA[super parcours en sous bois ]]></desc>
  </metadata>
  <trk>
    <name><![CDATA[FORET BRAINLN37]]></name>
    <trkseg>
      <trkpt lat="47.53873" lon="-0.62027">
        <ele>-45.53</ele>
        <time>2011-11-13T07:28:53Z</time>
      </trkpt>
      <trkpt lat="47.53874" lon="-0.62028">
        <ele>-45.53</ele>
        <time>2011-11-13T07:28:54Z</time>
      </trkpt>
      <trkpt lat="47.53876" lon="-0.62027">
        <ele>-39.28</ele>
        <time>2011-11-13T07:29:00Z</time>
      </trkpt>
      <trkpt lat="47.53876" lon="-0.62027">
        <ele>-35.91</ele>
        <time>2011-11-13T07:29:01Z</time>
      </trkpt>
      <trkpt lat="47.53875" lon="-0.62027">
        <ele>-31.11</ele>
        <time>2011-11-13T07:29:03Z</time>
      </trkpt>
      <trkpt lat="47.53874" lon="-0.62029">
        <ele>-26.3</ele>
        <time>2011-11-13T07:29:05Z</time>
      </trkpt>
      <trkpt lat="47.53873" lon="-0.62032">
        <ele>-21.01</ele>
        <time>2011-11-13T07:29:07Z</time>
      </trkpt>
      <trkpt lat="47.53873" lon="-0.62034">
        <ele>-16.21</ele>
        <time>2011-11-13T07:29:09Z</time>
      </trkpt>
      <trkpt lat="47.53873" lon="-0.62034">
        <ele>-12.36</ele>
        <time>2011-11-13T07:29:11Z</time>
      </trkpt>
      <trkpt lat="47.53872" lon="-0.62035">
        <ele>-7.55</ele>
        <time>2011-11-13T07:29:13Z</time>
      </trkpt>
      <trkpt lat="47.53872" lon="-0.62035">
        <ele>-3.71</ele>
        <time>2011-11-13T07:29:15Z</time>
      </trkpt>
      <trkpt lat="47.53872" lon="-0.62035">
        <ele>-0.34</ele>
        <time>2011-11-13T07:29:17Z</time>
      </trkpt>
      <trkpt lat="47.53872" lon="-0.62035">
        <ele>3.02</ele>
        <time>2011-11-13T07:29:19Z</time>
      </trkpt>
      <trkpt lat="47.53872" lon="-0.62035">
        <ele>6.39</ele>
        <time>2011-11-13T07:29:21Z</time>
      </trkpt>
      <trkpt lat="47.53872" lon="-0.62035">
        <ele>10.23</ele>
        <time>2011-11-13T07:29:23Z</time>
      </trkpt>
      <trkpt lat="47.53872" lon="-0.62034">
        <ele>14.08</ele>
        <time>2011-11-13T07:29:26Z</time>
      </trkpt>
      <trkpt lat="47.53872" lon="-0.62033">
        <ele>16.96</ele>
        <time>2011-11-13T07:29:28Z</time>
      </trkpt>
      <trkpt lat="47.53872" lon="-0.62033">
        <ele>20.32</ele>
        <time>2011-11-13T07:29:31Z</time>
      </trkpt>
      <trkpt lat="47.53872" lon="-0.62033">
        <ele>23.69</ele>
        <time>2011-11-13T07:29:34Z</time>
      </trkpt>
      <trkpt lat="47.53873" lon="-0.62033">
        <ele>27.05</ele>
        <time>2011-11-13T07:29:37Z</time>
      </trkpt>
      <trkpt lat="47.53873" lon="-0.62033">
        <ele>26.57</ele>
        <time>2011-11-13T07:29:38Z</time>
      </trkpt>
      <trkpt lat="47.53874" lon="-0.62033">
        <ele>29.94</ele>
        <time>2011-11-13T07:29:41Z</time>
      </trkpt>
      <trkpt lat="47.53874" lon="-0.62033">
        <ele>30.9</ele>
        <time>2011-11-13T07:29:43Z</time>
      </trkpt>
      <trkpt lat="47.53875" lon="-0.62033">
        <ele>33.78</ele>
        <time>2011-11-13T07:29:47Z</time>
      </trkpt>
      <trkpt lat="47.53875" lon="-0.62032">
        <ele>35.71</ele>
        <time>2011-11-13T07:29:51Z</time>
      </trkpt>
      <trkpt lat="47.53874" lon="-0.6203">
        <ele>37.63</ele>
        <time>2011-11-13T07:29:55Z</time>
      </trkpt>
      <trkpt lat="47.53874" lon="-0.62031">
        <ele>40.99</ele>
        <time>2011-11-13T07:30:02Z</time>
      </trkpt>
      <trkpt lat="47.53873" lon="-0.6203">
        <ele>41.95</ele>
        <time>2011-11-13T07:30:04Z</time>
      </trkpt>
      <trkpt lat="47.53872" lon="-0.62028">
        <ele>43.4</ele>
        <time>2011-11-13T07:30:08Z</time>
      </trkpt>
      <trkpt lat="47.53871" lon="-0.62027">
        <ele>43.88</ele>
        <time>2011-11-13T07:30:15Z</time>
      </trkpt>
      <trkpt lat="47.53871" lon="-0.62028">
        <ele>44.36</ele>
        <time>2011-11-13T07:30:16Z</time>
      </trkpt>
      <trkpt lat="47.53874" lon="-0.62037">
        <ele>44.36</ele>
        <time>2011-11-13T07:30:23Z</time>
      </trkpt>
      <trkpt lat="47.53875" lon="-0.62038">
        <ele>44.36</ele>
        <time>2011-11-13T07:30:26Z</time>
      </trkpt>
      <trkpt lat="47.53879" lon="-0.62049">
        <ele>46.76</ele>
        <time>2011-11-13T07:30:30Z</time>
      </trkpt>
      <trkpt lat="47.53882" lon="-0.6206">
        <ele>35.23</ele>
        <time>2011-11-13T07:30:33Z</time>
      </trkpt>
      <trkpt lat="47.53867" lon="-0.62082">
        <ele>44.36</ele>
        <time>2011-11-13T07:30:39Z</time>
      </trkpt>
      <trkpt lat="47.53861" lon="-0.62089">
        <ele>44.36</ele>
        <time>2011-11-13T07:30:41Z</time>
      </trkpt>
      <trkpt lat="47.53833" lon="-0.62114">
        <ele>44.84</ele>
        <time>2011-11-13T07:30:50Z</time>
      </trkpt>
      <trkpt lat="47.53813" lon="-0.6212">
        <ele>45.8</ele>
        <time>2011-11-13T07:30:56Z</time>
      </trkpt>
      <trkpt lat="47.53803" lon="-0.62134">
        <ele>46.28</ele>
        <time>2011-11-13T07:31:00Z</time>
      </trkpt>
      <trkpt lat="47.5379" lon="-0.62161">
        <ele>46.28</ele>
        <time>2011-11-13T07:31:06Z</time>
      </trkpt>
      <trkpt lat="47.53796" lon="-0.62178">
        <ele>45.32</ele>
        <time>2011-11-13T07:31:10Z</time>
      </trkpt>
      <trkpt lat="47.53806" lon="-0.62183">
        <ele>44.36</ele>
        <time>2011-11-13T07:31:12Z</time>
      </trkpt>
      <trkpt lat="47.53831" lon="-0.62179">
        <ele>43.4</ele>
        <time>2011-11-13T07:31:17Z</time>
      </trkpt>
      <trkpt lat="47.53872" lon="-0.62135">
        <ele>42.92</ele>
        <time>2011-11-13T07:31:26Z</time>
      </trkpt>
      <trkpt lat="47.53899" lon="-0.62106">
        <ele>42.92</ele>
        <time>2011-11-13T07:31:32Z</time>
      </trkpt>
      <trkpt lat="47.53932" lon="-0.62079">
        <ele>41.95</ele>
        <time>2011-11-13T07:31:39Z</time>
      </trkpt>
      <trkpt lat="47.53981" lon="-0.62069">
        <ele>40.03</ele>
        <time>2011-11-13T07:31:47Z</time>
      </trkpt>
      <trkpt lat="47.53987" lon="-0.62069">
        <ele>39.55</ele>
        <time>2011-11-13T07:31:48Z</time>
      </trkpt>
      <trkpt lat="47.54016" lon="-0.62086">
        <ele>37.63</ele>
        <time>2011-11-13T07:31:53Z</time>
      </trkpt>
      <trkpt lat="47.54026" lon="-0.62103">
        <ele>35.71</ele>
        <time>2011-11-13T07:31:55Z</time>
      </trkpt>
      <trkpt lat="47.54064" lon="-0.62181">
        <ele>32.82</ele>
        <time>2011-11-13T07:32:03Z</time>
      </trkpt>
      <trkpt lat="47.54068" lon="-0.62189">
        <ele>33.3</ele>
        <time>2011-11-13T07:32:04Z</time>
      </trkpt>
      <trkpt lat="47.5409" lon="-0.62212">
        <ele>33.3</ele>
        <time>2011-11-13T07:32:08Z</time>
      </trkpt>
      <trkpt lat="47.54117" lon="-0.62223">
        <ele>31.86</ele>
        <time>2011-11-13T07:32:12Z</time>
      </trkpt>
      <trkpt lat="47.54133" lon="-0.62229">
        <ele>30.42</ele>
        <time>2011-11-13T07:32:14Z</time>
      </trkpt>
      <trkpt lat="47.5418" lon="-0.6225">
        <ele>27.53</ele>
        <time>2011-11-13T07:32:20Z</time>
      </trkpt>
      <trkpt lat="47.54234" lon="-0.6228">
        <ele>24.65</ele>
        <time>2011-11-13T07:32:27Z</time>
      </trkpt>
      <trkpt lat="47.5428" lon="-0.62292">
        <ele>23.69</ele>
        <time>2011-11-13T07:32:33Z</time>
      </trkpt>
      <trkpt lat="47.54324" lon="-0.62295">
        <ele>23.69</ele>
        <time>2011-11-13T07:32:39Z</time>
      </trkpt>
      <trkpt lat="47.54338" lon="-0.62296">
        <ele>23.69</ele>
        <time>2011-11-13T07:32:41Z</time>
      </trkpt>
      <trkpt lat="47.54355" lon="-0.6229">
        <ele>22.73</ele>
        <time>2011-11-13T07:32:45Z</time>
      </trkpt>
      <trkpt lat="47.54356" lon="-0.62284">
        <ele>22.73</ele>
        <time>2011-11-13T07:32:46Z</time>
      </trkpt>
      <trkpt lat="47.54355" lon="-0.62262">
        <ele>23.21</ele>
        <time>2011-11-13T07:32:49Z</time>
      </trkpt>
      <trkpt lat="47.54352" lon="-0.62205">
        <ele>22.25</ele>
        <time>2011-11-13T07:32:56Z</time>
      </trkpt>
      <trkpt lat="47.54351" lon="-0.62187">
        <ele>22.25</ele>
        <time>2011-11-13T07:32:58Z</time>
      </trkpt>
      <trkpt lat="47.54352" lon="-0.62125">
        <ele>21.29</ele>
        <time>2011-11-13T07:33:05Z</time>
      </trkpt>
      <trkpt lat="47.54356" lon="-0.62051">
        <ele>20.81</ele>
        <time>2011-11-13T07:33:13Z</time>
      </trkpt>
      <trkpt lat="47.54359" lon="-0.62025">
        <ele>20.81</ele>
        <time>2011-11-13T07:33:16Z</time>
      </trkpt>
      <trkpt lat="47.54371" lon="-0.61961">
        <ele>19.84</ele>
        <time>2011-11-13T07:33:23Z</time>
      </trkpt>
      <trkpt lat="47.54372" lon="-0.61919">
        <ele>19.36</ele>
        <time>2011-11-13T07:33:27Z</time>
      </trkpt>
      <trkpt lat="47.54376" lon="-0.61873">
        <ele>18.4</ele>
        <time>2011-11-13T07:33:32Z</time>
      </trkpt>
      <trkpt lat="47.54381" lon="-0.61856">
        <ele>18.88</ele>
        <time>2011-11-13T07:33:34Z</time>
      </trkpt>
      <trkpt lat="47.54399" lon="-0.61843">
        <ele>18.4</ele>
        <time>2011-11-13T07:33:38Z</time>
      </trkpt>
      <trkpt lat="47.54404" lon="-0.61846">
        <ele>17.92</ele>
        <time>2011-11-13T07:33:39Z</time>
      </trkpt>
      <trkpt lat="47.54446" lon="-0.61885">
        <ele>18.4</ele>
        <time>2011-11-13T07:33:47Z</time>
      </trkpt>
      <trkpt lat="47.54493" lon="-0.61922">
        <ele>18.4</ele>
        <time>2011-11-13T07:33:55Z</time>
      </trkpt>
      <trkpt lat="47.54535" lon="-0.61951">
        <ele>18.4</ele>
        <time>2011-11-13T07:34:02Z</time>
      </trkpt>
      <trkpt lat="47.54581" lon="-0.61986">
        <ele>19.36</ele>
        <time>2011-11-13T07:34:10Z</time>
      </trkpt>
      <trkpt lat="47.54629" lon="-0.62018">
        <ele>19.36</ele>
        <time>2011-11-13T07:34:18Z</time>
      </trkpt>
      <trkpt lat="47.54689" lon="-0.62058">
        <ele>19.84</ele>
        <time>2011-11-13T07:34:28Z</time>
      </trkpt>
      <trkpt lat="47.54738" lon="-0.62084">
        <ele>20.81</ele>
        <time>2011-11-13T07:34:36Z</time>
      </trkpt>
      <trkpt lat="47.54794" lon="-0.62121">
        <ele>20.32</ele>
        <time>2011-11-13T07:34:45Z</time>
      </trkpt>
      <trkpt lat="47.54863" lon="-0.62177">
        <ele>20.32</ele>
        <time>2011-11-13T07:34:57Z</time>
      </trkpt>
      <trkpt lat="47.54879" lon="-0.62194">
        <ele>20.32</ele>
        <time>2011-11-13T07:35:00Z</time>
      </trkpt>
      <trkpt lat="47.54925" lon="-0.62261">
        <ele>20.81</ele>
        <time>2011-11-13T07:35:10Z</time>
      </trkpt>
      <trkpt lat="47.54938" lon="-0.62281">
        <ele>21.77</ele>
        <time>2011-11-13T07:35:13Z</time>
      </trkpt>
      <trkpt lat="47.54979" lon="-0.62314">
        <ele>21.77</ele>
        <time>2011-11-13T07:35:20Z</time>
      </trkpt>
      <trkpt lat="47.55047" lon="-0.6235">
        <ele>21.29</ele>
        <time>2011-11-13T07:35:31Z</time>
      </trkpt>
      <trkpt lat="47.55111" lon="-0.62375">
        <ele>22.25</ele>
        <time>2011-11-13T07:35:41Z</time>
      </trkpt>
      <trkpt lat="47.55169" lon="-0.62397">
        <ele>21.77</ele>
        <time>2011-11-13T07:35:50Z</time>
      </trkpt>
      <trkpt lat="47.55229" lon="-0.62436">
        <ele>22.25</ele>
        <time>2011-11-13T07:36:00Z</time>
      </trkpt>
      <trkpt lat="47.55281" lon="-0.6245">
        <ele>21.77</ele>
        <time>2011-11-13T07:36:08Z</time>
      </trkpt>
      <trkpt lat="47.55349" lon="-0.62459">
        <ele>20.81</ele>
        <time>2011-11-13T07:36:18Z</time>
      </trkpt>
      <trkpt lat="47.55398" lon="-0.62489">
        <ele>21.29</ele>
        <time>2011-11-13T07:36:26Z</time>
      </trkpt>
      <trkpt lat="47.55422" lon="-0.62504">
        <ele>21.29</ele>
        <time>2011-11-13T07:36:30Z</time>
      </trkpt>
      <trkpt lat="47.55478" lon="-0.62517">
        <ele>22.73</ele>
        <time>2011-11-13T07:36:39Z</time>
      </trkpt>
      <trkpt lat="47.55548" lon="-0.62518">
        <ele>23.21</ele>
        <time>2011-11-13T07:36:50Z</time>
      </trkpt>
      <trkpt lat="47.55568" lon="-0.6252">
        <ele>22.73</ele>
        <time>2011-11-13T07:36:53Z</time>
      </trkpt>
      <trkpt lat="47.55617" lon="-0.62542">
        <ele>23.21</ele>
        <time>2011-11-13T07:37:01Z</time>
      </trkpt>
      <trkpt lat="47.55674" lon="-0.62568">
        <ele>23.69</ele>
        <time>2011-11-13T07:37:11Z</time>
      </trkpt>
      <trkpt lat="47.55738" lon="-0.62597">
        <ele>25.13</ele>
        <time>2011-11-13T07:37:22Z</time>
      </trkpt>
      <trkpt lat="47.55791" lon="-0.62626">
        <ele>25.61</ele>
        <time>2011-11-13T07:37:31Z</time>
      </trkpt>
      <trkpt lat="47.55859" lon="-0.62674">
        <ele>25.61</ele>
        <time>2011-11-13T07:37:43Z</time>
      </trkpt>
      <trkpt lat="47.55899" lon="-0.62701">
        <ele>26.09</ele>
        <time>2011-11-13T07:37:50Z</time>
      </trkpt>
      <trkpt lat="47.55966" lon="-0.62749">
        <ele>27.05</ele>
        <time>2011-11-13T07:38:02Z</time>
      </trkpt>
      <trkpt lat="47.5604" lon="-0.62802">
        <ele>27.53</ele>
        <time>2011-11-13T07:38:15Z</time>
      </trkpt>
      <trkpt lat="47.56083" lon="-0.62844">
        <ele>27.53</ele>
        <time>2011-11-13T07:38:23Z</time>
      </trkpt>
      <trkpt lat="47.5613" lon="-0.62893">
        <ele>27.53</ele>
        <time>2011-11-13T07:38:32Z</time>
      </trkpt>
      <trkpt lat="47.56167" lon="-0.62948">
        <ele>27.05</ele>
        <time>2011-11-13T07:38:40Z</time>
      </trkpt>
      <trkpt lat="47.56223" lon="-0.63034">
        <ele>26.57</ele>
        <time>2011-11-13T07:38:52Z</time>
      </trkpt>
      <trkpt lat="47.56256" lon="-0.63081">
        <ele>26.57</ele>
        <time>2011-11-13T07:38:59Z</time>
      </trkpt>
      <trkpt lat="47.56304" lon="-0.63149">
        <ele>27.05</ele>
        <time>2011-11-13T07:39:09Z</time>
      </trkpt>
      <trkpt lat="47.56361" lon="-0.63213">
        <ele>28.02</ele>
        <time>2011-11-13T07:39:20Z</time>
      </trkpt>
      <trkpt lat="47.56401" lon="-0.63246">
        <ele>28.5</ele>
        <time>2011-11-13T07:39:26Z</time>
      </trkpt>
      <trkpt lat="47.56421" lon="-0.6326">
        <ele>28.98</ele>
        <time>2011-11-13T07:39:29Z</time>
      </trkpt>
      <trkpt lat="47.5644" lon="-0.63269">
        <ele>28.98</ele>
        <time>2011-11-13T07:39:32Z</time>
      </trkpt>
      <trkpt lat="47.56488" lon="-0.63287">
        <ele>28.98</ele>
        <time>2011-11-13T07:39:41Z</time>
      </trkpt>
      <trkpt lat="47.5654" lon="-0.63312">
        <ele>28.98</ele>
        <time>2011-11-13T07:39:50Z</time>
      </trkpt>
      <trkpt lat="47.56593" lon="-0.63361">
        <ele>28.98</ele>
        <time>2011-11-13T07:40:00Z</time>
      </trkpt>
      <trkpt lat="47.56635" lon="-0.63406">
        <ele>29.46</ele>
        <time>2011-11-13T07:40:08Z</time>
      </trkpt>
      <trkpt lat="47.56678" lon="-0.6345">
        <ele>29.46</ele>
        <time>2011-11-13T07:40:16Z</time>
      </trkpt>
      <trkpt lat="47.56716" lon="-0.63505">
        <ele>29.94</ele>
        <time>2011-11-13T07:40:24Z</time>
      </trkpt>
      <trkpt lat="47.56737" lon="-0.63566">
        <ele>28.98</ele>
        <time>2011-11-13T07:40:31Z</time>
      </trkpt>
      <trkpt lat="47.56751" lon="-0.63602">
        <ele>28.98</ele>
        <time>2011-11-13T07:40:35Z</time>
      </trkpt>
      <trkpt lat="47.56796" lon="-0.63673">
        <ele>27.05</ele>
        <time>2011-11-13T07:40:44Z</time>
      </trkpt>
      <trkpt lat="47.5684" lon="-0.63737">
        <ele>28.5</ele>
        <time>2011-11-13T07:40:53Z</time>
      </trkpt>
      <trkpt lat="47.56878" lon="-0.63791">
        <ele>28.98</ele>
        <time>2011-11-13T07:41:01Z</time>
      </trkpt>
      <trkpt lat="47.56935" lon="-0.63875">
        <ele>29.46</ele>
        <time>2011-11-13T07:41:13Z</time>
      </trkpt>
      <trkpt lat="47.56974" lon="-0.63934">
        <ele>29.46</ele>
        <time>2011-11-13T07:41:21Z</time>
      </trkpt>
      <trkpt lat="47.56977" lon="-0.63942">
        <ele>29.46</ele>
        <time>2011-11-13T07:41:22Z</time>
      </trkpt>
      <trkpt lat="47.56998" lon="-0.64027">
        <ele>29.46</ele>
        <time>2011-11-13T07:41:31Z</time>
      </trkpt>
      <trkpt lat="47.57015" lon="-0.641">
        <ele>28.98</ele>
        <time>2011-11-13T07:41:39Z</time>
      </trkpt>
      <trkpt lat="47.57031" lon="-0.64175">
        <ele>30.9</ele>
        <time>2011-11-13T07:41:48Z</time>
      </trkpt>
      <trkpt lat="47.57042" lon="-0.64223">
        <ele>32.34</ele>
        <time>2011-11-13T07:41:54Z</time>
      </trkpt>
      <trkpt lat="47.5705" lon="-0.6426">
        <ele>33.3</ele>
        <time>2011-11-13T07:41:59Z</time>
      </trkpt>
      <trkpt lat="47.57057" lon="-0.6429">
        <ele>35.23</ele>
        <time>2011-11-13T07:42:03Z</time>
      </trkpt>
      <trkpt lat="47.5706" lon="-0.64304">
        <ele>36.19</ele>
        <time>2011-11-13T07:42:05Z</time>
      </trkpt>
      <trkpt lat="47.57072" lon="-0.64354">
        <ele>39.55</ele>
        <time>2011-11-13T07:42:12Z</time>
      </trkpt>
      <trkpt lat="47.57083" lon="-0.6438">
        <ele>40.51</ele>
        <time>2011-11-13T07:42:16Z</time>
      </trkpt>
      <trkpt lat="47.57108" lon="-0.64434">
        <ele>41.95</ele>
        <time>2011-11-13T07:42:25Z</time>
      </trkpt>
      <trkpt lat="47.57136" lon="-0.64497">
        <ele>42.92</ele>
        <time>2011-11-13T07:42:35Z</time>
      </trkpt>
      <trkpt lat="47.57164" lon="-0.64549">
        <ele>42.44</ele>
        <time>2011-11-13T07:42:43Z</time>
      </trkpt>
      <trkpt lat="47.5718" lon="-0.64586">
        <ele>41.95</ele>
        <time>2011-11-13T07:42:48Z</time>
      </trkpt>
      <trkpt lat="47.57186" lon="-0.64602">
        <ele>41.95</ele>
        <time>2011-11-13T07:42:50Z</time>
      </trkpt>
      <trkpt lat="47.57189" lon="-0.64664">
        <ele>41.95</ele>
        <time>2011-11-13T07:42:57Z</time>
      </trkpt>
      <trkpt lat="47.57185" lon="-0.64701">
        <ele>41.95</ele>
        <time>2011-11-13T07:43:01Z</time>
      </trkpt>
      <trkpt lat="47.57183" lon="-0.64731">
        <ele>40.51</ele>
        <time>2011-11-13T07:43:04Z</time>
      </trkpt>
      <trkpt lat="47.57182" lon="-0.64766">
        <ele>39.07</ele>
        <time>2011-11-13T07:43:07Z</time>
      </trkpt>
      <trkpt lat="47.57198" lon="-0.64829">
        <ele>35.71</ele>
        <time>2011-11-13T07:43:12Z</time>
      </trkpt>
      <trkpt lat="47.57204" lon="-0.6484">
        <ele>34.74</ele>
        <time>2011-11-13T07:43:13Z</time>
      </trkpt>
      <trkpt lat="47.5724" lon="-0.64894">
        <ele>31.38</ele>
        <time>2011-11-13T07:43:19Z</time>
      </trkpt>
      <trkpt lat="47.57245" lon="-0.64906">
        <ele>30.42</ele>
        <time>2011-11-13T07:43:21Z</time>
      </trkpt>
      <trkpt lat="47.57238" lon="-0.64937">
        <ele>29.94</ele>
        <time>2011-11-13T07:43:26Z</time>
      </trkpt>
      <trkpt lat="47.5723" lon="-0.64948">
        <ele>31.38</ele>
        <time>2011-11-13T07:43:28Z</time>
      </trkpt>
      <trkpt lat="47.5722" lon="-0.64965">
        <ele>32.82</ele>
        <time>2011-11-13T07:43:31Z</time>
      </trkpt>
      <trkpt lat="47.5721" lon="-0.6498">
        <ele>34.26</ele>
        <time>2011-11-13T07:43:34Z</time>
      </trkpt>
      <trkpt lat="47.57208" lon="-0.64984">
        <ele>33.78</ele>
        <time>2011-11-13T07:43:35Z</time>
      </trkpt>
      <trkpt lat="47.5719" lon="-0.65005">
        <ele>36.19</ele>
        <time>2011-11-13T07:43:40Z</time>
      </trkpt>
      <trkpt lat="47.57183" lon="-0.65012">
        <ele>36.19</ele>
        <time>2011-11-13T07:43:42Z</time>
      </trkpt>
      <trkpt lat="47.57147" lon="-0.65057">
        <ele>37.63</ele>
        <time>2011-11-13T07:43:52Z</time>
      </trkpt>
      <trkpt lat="47.57126" lon="-0.65077">
        <ele>38.59</ele>
        <time>2011-11-13T07:43:57Z</time>
      </trkpt>
      <trkpt lat="47.57105" lon="-0.65094">
        <ele>39.07</ele>
        <time>2011-11-13T07:44:02Z</time>
      </trkpt>
      <trkpt lat="47.57079" lon="-0.6512">
        <ele>40.99</ele>
        <time>2011-11-13T07:44:09Z</time>
      </trkpt>
      <trkpt lat="47.57056" lon="-0.65152">
        <ele>42.92</ele>
        <time>2011-11-13T07:44:16Z</time>
      </trkpt>
      <trkpt lat="47.57046" lon="-0.65164">
        <ele>43.4</ele>
        <time>2011-11-13T07:44:19Z</time>
      </trkpt>
      <trkpt lat="47.57025" lon="-0.65201">
        <ele>45.8</ele>
        <time>2011-11-13T07:44:27Z</time>
      </trkpt>
      <trkpt lat="47.5701" lon="-0.65229">
        <ele>46.28</ele>
        <time>2011-11-13T07:44:34Z</time>
      </trkpt>
      <trkpt lat="47.56999" lon="-0.65254">
        <ele>47.24</ele>
        <time>2011-11-13T07:44:40Z</time>
      </trkpt>
      <trkpt lat="47.56978" lon="-0.65294">
        <ele>48.68</ele>
        <time>2011-11-13T07:44:49Z</time>
      </trkpt>
      <trkpt lat="47.56955" lon="-0.65336">
        <ele>49.65</ele>
        <time>2011-11-13T07:44:58Z</time>
      </trkpt>
      <trkpt lat="47.56927" lon="-0.65384">
        <ele>51.09</ele>
        <time>2011-11-13T07:45:08Z</time>
      </trkpt>
      <trkpt lat="47.569" lon="-0.65435">
        <ele>52.05</ele>
        <time>2011-11-13T07:45:18Z</time>
      </trkpt>
      <trkpt lat="47.56884" lon="-0.65467">
        <ele>53.01</ele>
        <time>2011-11-13T07:45:24Z</time>
      </trkpt>
      <trkpt lat="47.56865" lon="-0.65515">
        <ele>55.41</ele>
        <time>2011-11-13T07:45:33Z</time>
      </trkpt>
      <trkpt lat="47.56845" lon="-0.65565">
        <ele>57.34</ele>
        <time>2011-11-13T07:45:42Z</time>
      </trkpt>
      <trkpt lat="47.56826" lon="-0.65602">
        <ele>58.78</ele>
        <time>2011-11-13T07:45:50Z</time>
      </trkpt>
      <trkpt lat="47.56823" lon="-0.65606">
        <ele>59.26</ele>
        <time>2011-11-13T07:45:51Z</time>
      </trkpt>
      <trkpt lat="47.56785" lon="-0.6564">
        <ele>60.7</ele>
        <time>2011-11-13T07:46:02Z</time>
      </trkpt>
      <trkpt lat="47.56778" lon="-0.65646">
        <ele>61.66</ele>
        <time>2011-11-13T07:46:04Z</time>
      </trkpt>
      <trkpt lat="47.5676" lon="-0.65649">
        <ele>62.14</ele>
        <time>2011-11-13T07:46:08Z</time>
      </trkpt>
      <trkpt lat="47.56752" lon="-0.65647">
        <ele>62.14</ele>
        <time>2011-11-13T07:46:10Z</time>
      </trkpt>
      <trkpt lat="47.56716" lon="-0.65643">
        <ele>63.58</ele>
        <time>2011-11-13T07:46:18Z</time>
      </trkpt>
      <trkpt lat="47.56687" lon="-0.65641">
        <ele>66.47</ele>
        <time>2011-11-13T07:46:25Z</time>
      </trkpt>
      <trkpt lat="47.56661" lon="-0.65639">
        <ele>67.91</ele>
        <time>2011-11-13T07:46:32Z</time>
      </trkpt>
      <trkpt lat="47.56645" lon="-0.65637">
        <ele>69.83</ele>
        <time>2011-11-13T07:46:36Z</time>
      </trkpt>
      <trkpt lat="47.56612" lon="-0.65628">
        <ele>72.24</ele>
        <time>2011-11-13T07:46:45Z</time>
      </trkpt>
      <trkpt lat="47.5659" lon="-0.65619">
        <ele>72.24</ele>
        <time>2011-11-13T07:46:52Z</time>
      </trkpt>
      <trkpt lat="47.56575" lon="-0.65616">
        <ele>72.72</ele>
        <time>2011-11-13T07:46:57Z</time>
      </trkpt>
      <trkpt lat="47.56549" lon="-0.65616">
        <ele>72.72</ele>
        <time>2011-11-13T07:47:05Z</time>
      </trkpt>
      <trkpt lat="47.56524" lon="-0.65614">
        <ele>72.24</ele>
        <time>2011-11-13T07:47:12Z</time>
      </trkpt>
      <trkpt lat="47.56516" lon="-0.65609">
        <ele>71.76</ele>
        <time>2011-11-13T07:47:14Z</time>
      </trkpt>
      <trkpt lat="47.56505" lon="-0.65601">
        <ele>71.27</ele>
        <time>2011-11-13T07:47:17Z</time>
      </trkpt>
      <trkpt lat="47.56477" lon="-0.65578">
        <ele>69.35</ele>
        <time>2011-11-13T07:47:23Z</time>
      </trkpt>
      <trkpt lat="47.56442" lon="-0.6555">
        <ele>67.91</ele>
        <time>2011-11-13T07:47:30Z</time>
      </trkpt>
      <trkpt lat="47.56407" lon="-0.65516">
        <ele>65.99</ele>
        <time>2011-11-13T07:47:38Z</time>
      </trkpt>
      <trkpt lat="47.56403" lon="-0.65512">
        <ele>66.47</ele>
        <time>2011-11-13T07:47:39Z</time>
      </trkpt>
      <trkpt lat="47.5639" lon="-0.65524">
        <ele>65.51</ele>
        <time>2011-11-13T07:47:44Z</time>
      </trkpt>
      <trkpt lat="47.56373" lon="-0.65557">
        <ele>65.03</ele>
        <time>2011-11-13T07:47:52Z</time>
      </trkpt>
      <trkpt lat="47.56353" lon="-0.65582">
        <ele>65.03</ele>
        <time>2011-11-13T07:47:59Z</time>
      </trkpt>
      <trkpt lat="47.56335" lon="-0.65603">
        <ele>64.55</ele>
        <time>2011-11-13T07:48:05Z</time>
      </trkpt>
      <trkpt lat="47.563" lon="-0.65638">
        <ele>65.51</ele>
        <time>2011-11-13T07:48:13Z</time>
      </trkpt>
      <trkpt lat="47.56266" lon="-0.65678">
        <ele>65.99</ele>
        <time>2011-11-13T07:48:21Z</time>
      </trkpt>
      <trkpt lat="47.56257" lon="-0.65687">
        <ele>66.95</ele>
        <time>2011-11-13T07:48:23Z</time>
      </trkpt>
      <trkpt lat="47.56235" lon="-0.65709">
        <ele>65.99</ele>
        <time>2011-11-13T07:48:29Z</time>
      </trkpt>
      <trkpt lat="47.56228" lon="-0.65718">
        <ele>66.47</ele>
        <time>2011-11-13T07:48:31Z</time>
      </trkpt>
      <trkpt lat="47.56199" lon="-0.65747">
        <ele>67.91</ele>
        <time>2011-11-13T07:48:38Z</time>
      </trkpt>
      <trkpt lat="47.5617" lon="-0.65771">
        <ele>68.87</ele>
        <time>2011-11-13T07:48:45Z</time>
      </trkpt>
      <trkpt lat="47.56162" lon="-0.65777">
        <ele>68.87</ele>
        <time>2011-11-13T07:48:47Z</time>
      </trkpt>
      <trkpt lat="47.56153" lon="-0.6578">
        <ele>69.35</ele>
        <time>2011-11-13T07:48:49Z</time>
      </trkpt>
      <trkpt lat="47.56143" lon="-0.6578">
        <ele>69.83</ele>
        <time>2011-11-13T07:48:51Z</time>
      </trkpt>
      <trkpt lat="47.56115" lon="-0.65778">
        <ele>72.24</ele>
        <time>2011-11-13T07:48:58Z</time>
      </trkpt>
      <trkpt lat="47.56096" lon="-0.65777">
        <ele>73.2</ele>
        <time>2011-11-13T07:49:03Z</time>
      </trkpt>
      <trkpt lat="47.56076" lon="-0.65778">
        <ele>73.68</ele>
        <time>2011-11-13T07:49:09Z</time>
      </trkpt>
      <trkpt lat="47.56054" lon="-0.65778">
        <ele>75.12</ele>
        <time>2011-11-13T07:49:15Z</time>
      </trkpt>
      <trkpt lat="47.5603" lon="-0.65781">
        <ele>75.12</ele>
        <time>2011-11-13T07:49:22Z</time>
      </trkpt>
      <trkpt lat="47.55996" lon="-0.65785">
        <ele>75.6</ele>
        <time>2011-11-13T07:49:30Z</time>
      </trkpt>
      <trkpt lat="47.55989" lon="-0.6581">
        <ele>74.64</ele>
        <time>2011-11-13T07:49:35Z</time>
      </trkpt>
      <trkpt lat="47.55989" lon="-0.65822">
        <ele>74.64</ele>
        <time>2011-11-13T07:49:37Z</time>
      </trkpt>
      <trkpt lat="47.55991" lon="-0.65844">
        <ele>74.64</ele>
        <time>2011-11-13T07:49:40Z</time>
      </trkpt>
      <trkpt lat="47.55995" lon="-0.65917">
        <ele>72.72</ele>
        <time>2011-11-13T07:49:49Z</time>
      </trkpt>
      <trkpt lat="47.55994" lon="-0.65963">
        <ele>70.79</ele>
        <time>2011-11-13T07:49:54Z</time>
      </trkpt>
      <trkpt lat="47.55996" lon="-0.66013">
        <ele>69.35</ele>
        <time>2011-11-13T07:49:59Z</time>
      </trkpt>
      <trkpt lat="47.56021" lon="-0.6609">
        <ele>66.95</ele>
        <time>2011-11-13T07:50:07Z</time>
      </trkpt>
      <trkpt lat="47.56024" lon="-0.661">
        <ele>66.95</ele>
        <time>2011-11-13T07:50:08Z</time>
      </trkpt>
      <trkpt lat="47.56048" lon="-0.66187">
        <ele>64.07</ele>
        <time>2011-11-13T07:50:16Z</time>
      </trkpt>
      <trkpt lat="47.56067" lon="-0.6627">
        <ele>61.18</ele>
        <time>2011-11-13T07:50:23Z</time>
      </trkpt>
      <trkpt lat="47.56078" lon="-0.66322">
        <ele>59.26</ele>
        <time>2011-11-13T07:50:27Z</time>
      </trkpt>
      <trkpt lat="47.56084" lon="-0.6635">
        <ele>57.82</ele>
        <time>2011-11-13T07:50:29Z</time>
      </trkpt>
      <trkpt lat="47.56105" lon="-0.66394">
        <ele>54.93</ele>
        <time>2011-11-13T07:50:33Z</time>
      </trkpt>
      <trkpt lat="47.5612" lon="-0.6643">
        <ele>54.45</ele>
        <time>2011-11-13T07:50:37Z</time>
      </trkpt>
      <trkpt lat="47.56121" lon="-0.6644">
        <ele>54.45</ele>
        <time>2011-11-13T07:50:38Z</time>
      </trkpt>
      <trkpt lat="47.56118" lon="-0.6652">
        <ele>53.97</ele>
        <time>2011-11-13T07:50:47Z</time>
      </trkpt>
      <trkpt lat="47.56111" lon="-0.66592">
        <ele>53.97</ele>
        <time>2011-11-13T07:50:56Z</time>
      </trkpt>
      <trkpt lat="47.5611" lon="-0.66599">
        <ele>53.97</ele>
        <time>2011-11-13T07:50:57Z</time>
      </trkpt>
      <trkpt lat="47.56109" lon="-0.66612">
        <ele>53.97</ele>
        <time>2011-11-13T07:50:59Z</time>
      </trkpt>
      <trkpt lat="47.56114" lon="-0.66643">
        <ele>54.45</ele>
        <time>2011-11-13T07:51:06Z</time>
      </trkpt>
      <trkpt lat="47.56118" lon="-0.66651">
        <ele>54.93</ele>
        <time>2011-11-13T07:51:11Z</time>
      </trkpt>
      <trkpt lat="47.56134" lon="-0.66665">
        <ele>54.45</ele>
        <time>2011-11-13T07:51:18Z</time>
      </trkpt>
      <trkpt lat="47.56163" lon="-0.66691">
        <ele>53.49</ele>
        <time>2011-11-13T07:51:27Z</time>
      </trkpt>
      <trkpt lat="47.56184" lon="-0.66712">
        <ele>53.01</ele>
        <time>2011-11-13T07:51:34Z</time>
      </trkpt>
      <trkpt lat="47.56212" lon="-0.66743">
        <ele>52.53</ele>
        <time>2011-11-13T07:51:42Z</time>
      </trkpt>
      <trkpt lat="47.56245" lon="-0.66781">
        <ele>50.13</ele>
        <time>2011-11-13T07:51:51Z</time>
      </trkpt>
      <trkpt lat="47.56273" lon="-0.66816">
        <ele>47.24</ele>
        <time>2011-11-13T07:51:58Z</time>
      </trkpt>
      <trkpt lat="47.56293" lon="-0.66843">
        <ele>44.36</ele>
        <time>2011-11-13T07:52:03Z</time>
      </trkpt>
      <trkpt lat="47.56306" lon="-0.66857">
        <ele>40.51</ele>
        <time>2011-11-13T07:52:07Z</time>
      </trkpt>
      <trkpt lat="47.56308" lon="-0.66861">
        <ele>40.03</ele>
        <time>2011-11-13T07:52:08Z</time>
      </trkpt>
      <trkpt lat="47.56309" lon="-0.66877">
        <ele>39.07</ele>
        <time>2011-11-13T07:52:11Z</time>
      </trkpt>
      <trkpt lat="47.56297" lon="-0.66913">
        <ele>39.07</ele>
        <time>2011-11-13T07:52:18Z</time>
      </trkpt>
      <trkpt lat="47.56286" lon="-0.66944">
        <ele>39.55</ele>
        <time>2011-11-13T07:52:23Z</time>
      </trkpt>
      <trkpt lat="47.56286" lon="-0.66967">
        <ele>40.51</ele>
        <time>2011-11-13T07:52:27Z</time>
      </trkpt>
      <trkpt lat="47.56289" lon="-0.66969">
        <ele>40.99</ele>
        <time>2011-11-13T07:52:28Z</time>
      </trkpt>
      <trkpt lat="47.56292" lon="-0.66969">
        <ele>40.99</ele>
        <time>2011-11-13T07:52:29Z</time>
      </trkpt>
      <trkpt lat="47.56296" lon="-0.66969">
        <ele>40.99</ele>
        <time>2011-11-13T07:52:30Z</time>
      </trkpt>
      <trkpt lat="47.563" lon="-0.66968">
        <ele>41.47</ele>
        <time>2011-11-13T07:52:31Z</time>
      </trkpt>
      <trkpt lat="47.56304" lon="-0.66968">
        <ele>41.47</ele>
        <time>2011-11-13T07:52:32Z</time>
      </trkpt>
      <trkpt lat="47.56308" lon="-0.66969">
        <ele>41.47</ele>
        <time>2011-11-13T07:52:33Z</time>
      </trkpt>
      <trkpt lat="47.56313" lon="-0.66972">
        <ele>40.99</ele>
        <time>2011-11-13T07:52:34Z</time>
      </trkpt>
      <trkpt lat="47.56317" lon="-0.66976">
        <ele>40.99</ele>
        <time>2011-11-13T07:52:35Z</time>
      </trkpt>
      <trkpt lat="47.5632" lon="-0.66981">
        <ele>40.51</ele>
        <time>2011-11-13T07:52:36Z</time>
      </trkpt>
      <trkpt lat="47.56324" lon="-0.66987">
        <ele>40.99</ele>
        <time>2011-11-13T07:52:37Z</time>
      </trkpt>
      <trkpt lat="47.5635" lon="-0.67034">
        <ele>40.03</ele>
        <time>2011-11-13T07:52:45Z</time>
      </trkpt>
      <trkpt lat="47.56354" lon="-0.6704">
        <ele>40.03</ele>
        <time>2011-11-13T07:52:46Z</time>
      </trkpt>
      <trkpt lat="47.56357" lon="-0.67045">
        <ele>40.51</ele>
        <time>2011-11-13T07:52:47Z</time>
      </trkpt>
      <trkpt lat="47.56361" lon="-0.67052">
        <ele>40.03</ele>
        <time>2011-11-13T07:52:48Z</time>
      </trkpt>
      <trkpt lat="47.56385" lon="-0.67103">
        <ele>40.03</ele>
        <time>2011-11-13T07:52:56Z</time>
      </trkpt>
      <trkpt lat="47.56403" lon="-0.67139">
        <ele>40.51</ele>
        <time>2011-11-13T07:53:02Z</time>
      </trkpt>
      <trkpt lat="47.56424" lon="-0.67171">
        <ele>41.47</ele>
        <time>2011-11-13T07:53:09Z</time>
      </trkpt>
      <trkpt lat="47.56429" lon="-0.67179">
        <ele>41.95</ele>
        <time>2011-11-13T07:53:11Z</time>
      </trkpt>
      <trkpt lat="47.56432" lon="-0.67184">
        <ele>41.95</ele>
        <time>2011-11-13T07:53:12Z</time>
      </trkpt>
      <trkpt lat="47.56436" lon="-0.67195">
        <ele>42.44</ele>
        <time>2011-11-13T07:53:14Z</time>
      </trkpt>
      <trkpt lat="47.56437" lon="-0.67201">
        <ele>41.47</ele>
        <time>2011-11-13T07:53:15Z</time>
      </trkpt>
      <trkpt lat="47.56439" lon="-0.67207">
        <ele>42.44</ele>
        <time>2011-11-13T07:53:16Z</time>
      </trkpt>
      <trkpt lat="47.56451" lon="-0.67245">
        <ele>42.44</ele>
        <time>2011-11-13T07:53:22Z</time>
      </trkpt>
      <trkpt lat="47.56447" lon="-0.67265">
        <ele>41.95</ele>
        <time>2011-11-13T07:53:25Z</time>
      </trkpt>
      <trkpt lat="47.56437" lon="-0.67286">
        <ele>41.95</ele>
        <time>2011-11-13T07:53:28Z</time>
      </trkpt>
      <trkpt lat="47.56427" lon="-0.67302">
        <ele>41.95</ele>
        <time>2011-11-13T07:53:31Z</time>
      </trkpt>
      <trkpt lat="47.56413" lon="-0.67319">
        <ele>42.44</ele>
        <time>2011-11-13T07:53:35Z</time>
      </trkpt>
      <trkpt lat="47.56367" lon="-0.67361">
        <ele>43.88</ele>
        <time>2011-11-13T07:53:46Z</time>
      </trkpt>
      <trkpt lat="47.56363" lon="-0.67364">
        <ele>44.36</ele>
        <time>2011-11-13T07:53:47Z</time>
      </trkpt>
      <trkpt lat="47.56329" lon="-0.67392">
        <ele>45.8</ele>
        <time>2011-11-13T07:53:56Z</time>
      </trkpt>
      <trkpt lat="47.56308" lon="-0.67408">
        <ele>47.24</ele>
        <time>2011-11-13T07:54:02Z</time>
      </trkpt>
      <trkpt lat="47.56283" lon="-0.67427">
        <ele>46.28</ele>
        <time>2011-11-13T07:54:08Z</time>
      </trkpt>
      <trkpt lat="47.56255" lon="-0.67436">
        <ele>43.88</ele>
        <time>2011-11-13T07:54:13Z</time>
      </trkpt>
      <trkpt lat="47.5623" lon="-0.67447">
        <ele>43.4</ele>
        <time>2011-11-13T07:54:18Z</time>
      </trkpt>
      <trkpt lat="47.56229" lon="-0.67466">
        <ele>44.84</ele>
        <time>2011-11-13T07:54:22Z</time>
      </trkpt>
      <trkpt lat="47.56262" lon="-0.67503">
        <ele>45.8</ele>
        <time>2011-11-13T07:54:31Z</time>
      </trkpt>
      <trkpt lat="47.56288" lon="-0.67538">
        <ele>47.24</ele>
        <time>2011-11-13T07:54:39Z</time>
      </trkpt>
      <trkpt lat="47.56307" lon="-0.67561">
        <ele>47.72</ele>
        <time>2011-11-13T07:54:46Z</time>
      </trkpt>
      <trkpt lat="47.56331" lon="-0.67589">
        <ele>49.65</ele>
        <time>2011-11-13T07:54:54Z</time>
      </trkpt>
      <trkpt lat="47.5636" lon="-0.67622">
        <ele>51.09</ele>
        <time>2011-11-13T07:55:03Z</time>
      </trkpt>
      <trkpt lat="47.56374" lon="-0.6764">
        <ele>52.05</ele>
        <time>2011-11-13T07:55:08Z</time>
      </trkpt>
      <trkpt lat="47.56386" lon="-0.67655">
        <ele>52.53</ele>
        <time>2011-11-13T07:55:12Z</time>
      </trkpt>
      <trkpt lat="47.56408" lon="-0.67678">
        <ele>53.49</ele>
        <time>2011-11-13T07:55:19Z</time>
      </trkpt>
      <trkpt lat="47.56416" lon="-0.67697">
        <ele>54.45</ele>
        <time>2011-11-13T07:55:23Z</time>
      </trkpt>
      <trkpt lat="47.5643" lon="-0.67733">
        <ele>57.34</ele>
        <time>2011-11-13T07:55:30Z</time>
      </trkpt>
      <trkpt lat="47.56447" lon="-0.67761">
        <ele>58.78</ele>
        <time>2011-11-13T07:55:37Z</time>
      </trkpt>
      <trkpt lat="47.56467" lon="-0.67794">
        <ele>59.74</ele>
        <time>2011-11-13T07:55:45Z</time>
      </trkpt>
      <trkpt lat="47.56486" lon="-0.67824">
        <ele>60.22</ele>
        <time>2011-11-13T07:55:52Z</time>
      </trkpt>
      <trkpt lat="47.56496" lon="-0.6784">
        <ele>60.7</ele>
        <time>2011-11-13T07:55:56Z</time>
      </trkpt>
      <trkpt lat="47.56507" lon="-0.67859">
        <ele>60.7</ele>
        <time>2011-11-13T07:56:00Z</time>
      </trkpt>
      <trkpt lat="47.56529" lon="-0.67897">
        <ele>60.7</ele>
        <time>2011-11-13T07:56:08Z</time>
      </trkpt>
      <trkpt lat="47.56544" lon="-0.67921">
        <ele>61.18</ele>
        <time>2011-11-13T07:56:14Z</time>
      </trkpt>
      <trkpt lat="47.56557" lon="-0.67941">
        <ele>61.66</ele>
        <time>2011-11-13T07:56:19Z</time>
      </trkpt>
      <trkpt lat="47.56588" lon="-0.67981">
        <ele>62.62</ele>
        <time>2011-11-13T07:56:28Z</time>
      </trkpt>
      <trkpt lat="47.56622" lon="-0.68026">
        <ele>63.1</ele>
        <time>2011-11-13T07:56:38Z</time>
      </trkpt>
      <trkpt lat="47.56647" lon="-0.68071">
        <ele>64.07</ele>
        <time>2011-11-13T07:56:47Z</time>
      </trkpt>
      <trkpt lat="47.56658" lon="-0.68092">
        <ele>64.55</ele>
        <time>2011-11-13T07:56:51Z</time>
      </trkpt>
      <trkpt lat="47.56682" lon="-0.68143">
        <ele>65.51</ele>
        <time>2011-11-13T07:57:00Z</time>
      </trkpt>
      <trkpt lat="47.56693" lon="-0.68165">
        <ele>65.51</ele>
        <time>2011-11-13T07:57:04Z</time>
      </trkpt>
      <trkpt lat="47.56727" lon="-0.68238">
        <ele>67.43</ele>
        <time>2011-11-13T07:57:17Z</time>
      </trkpt>
      <trkpt lat="47.56741" lon="-0.68264">
        <ele>67.43</ele>
        <time>2011-11-13T07:57:22Z</time>
      </trkpt>
      <trkpt lat="47.56765" lon="-0.68311">
        <ele>68.87</ele>
        <time>2011-11-13T07:57:31Z</time>
      </trkpt>
      <trkpt lat="47.56785" lon="-0.68343">
        <ele>69.35</ele>
        <time>2011-11-13T07:57:38Z</time>
      </trkpt>
      <trkpt lat="47.56811" lon="-0.68379">
        <ele>69.83</ele>
        <time>2011-11-13T07:57:46Z</time>
      </trkpt>
      <trkpt lat="47.56833" lon="-0.68411">
        <ele>70.79</ele>
        <time>2011-11-13T07:57:53Z</time>
      </trkpt>
      <trkpt lat="47.56859" lon="-0.68449">
        <ele>71.27</ele>
        <time>2011-11-13T07:58:01Z</time>
      </trkpt>
      <trkpt lat="47.56862" lon="-0.68453">
        <ele>71.27</ele>
        <time>2011-11-13T07:58:02Z</time>
      </trkpt>
      <trkpt lat="47.56888" lon="-0.68491">
        <ele>72.24</ele>
        <time>2011-11-13T07:58:10Z</time>
      </trkpt>
      <trkpt lat="47.56905" lon="-0.68511">
        <ele>72.72</ele>
        <time>2011-11-13T07:58:15Z</time>
      </trkpt>
      <trkpt lat="47.56939" lon="-0.68539">
        <ele>73.68</ele>
        <time>2011-11-13T07:58:24Z</time>
      </trkpt>
      <trkpt lat="47.5695" lon="-0.68549">
        <ele>73.68</ele>
        <time>2011-11-13T07:58:27Z</time>
      </trkpt>
      <trkpt lat="47.56979" lon="-0.68584">
        <ele>74.16</ele>
        <time>2011-11-13T07:58:35Z</time>
      </trkpt>
      <trkpt lat="47.5701" lon="-0.68619">
        <ele>75.6</ele>
        <time>2011-11-13T07:58:44Z</time>
      </trkpt>
      <trkpt lat="47.5702" lon="-0.68632">
        <ele>75.6</ele>
        <time>2011-11-13T07:58:47Z</time>
      </trkpt>
      <trkpt lat="47.57045" lon="-0.68666">
        <ele>76.56</ele>
        <time>2011-11-13T07:58:55Z</time>
      </trkpt>
      <trkpt lat="47.57069" lon="-0.68697">
        <ele>77.52</ele>
        <time>2011-11-13T07:59:03Z</time>
      </trkpt>
      <trkpt lat="47.57092" lon="-0.68721">
        <ele>78.48</ele>
        <time>2011-11-13T07:59:10Z</time>
      </trkpt>
      <trkpt lat="47.57125" lon="-0.68754">
        <ele>78.97</ele>
        <time>2011-11-13T07:59:20Z</time>
      </trkpt>
      <trkpt lat="47.57138" lon="-0.68765">
        <ele>78.97</ele>
        <time>2011-11-13T07:59:24Z</time>
      </trkpt>
      <trkpt lat="47.57156" lon="-0.68781">
        <ele>79.45</ele>
        <time>2011-11-13T07:59:29Z</time>
      </trkpt>
      <trkpt lat="47.57176" lon="-0.68797">
        <ele>79.93</ele>
        <time>2011-11-13T07:59:35Z</time>
      </trkpt>
      <trkpt lat="47.57187" lon="-0.68808">
        <ele>79.93</ele>
        <time>2011-11-13T07:59:38Z</time>
      </trkpt>
      <trkpt lat="47.57195" lon="-0.68814">
        <ele>79.93</ele>
        <time>2011-11-13T07:59:40Z</time>
      </trkpt>
      <trkpt lat="47.57208" lon="-0.68822">
        <ele>80.41</ele>
        <time>2011-11-13T07:59:43Z</time>
      </trkpt>
      <trkpt lat="47.5722" lon="-0.6883">
        <ele>80.41</ele>
        <time>2011-11-13T07:59:46Z</time>
      </trkpt>
      <trkpt lat="47.57252" lon="-0.68855">
        <ele>80.41</ele>
        <time>2011-11-13T07:59:54Z</time>
      </trkpt>
      <trkpt lat="47.57271" lon="-0.68868">
        <ele>80.89</ele>
        <time>2011-11-13T07:59:58Z</time>
      </trkpt>
      <trkpt lat="47.57284" lon="-0.68878">
        <ele>80.41</ele>
        <time>2011-11-13T08:00:01Z</time>
      </trkpt>
      <trkpt lat="47.57296" lon="-0.68901">
        <ele>80.41</ele>
        <time>2011-11-13T08:00:06Z</time>
      </trkpt>
      <trkpt lat="47.57289" lon="-0.68918">
        <ele>80.41</ele>
        <time>2011-11-13T08:00:10Z</time>
      </trkpt>
      <trkpt lat="47.57266" lon="-0.68965">
        <ele>80.41</ele>
        <time>2011-11-13T08:00:19Z</time>
      </trkpt>
      <trkpt lat="47.57244" lon="-0.69011">
        <ele>80.41</ele>
        <time>2011-11-13T08:00:27Z</time>
      </trkpt>
      <trkpt lat="47.57225" lon="-0.69054">
        <ele>80.41</ele>
        <time>2011-11-13T08:00:34Z</time>
      </trkpt>
      <trkpt lat="47.57205" lon="-0.69091">
        <ele>80.41</ele>
        <time>2011-11-13T08:00:40Z</time>
      </trkpt>
      <trkpt lat="47.57194" lon="-0.69111">
        <ele>80.41</ele>
        <time>2011-11-13T08:00:43Z</time>
      </trkpt>
      <trkpt lat="47.57185" lon="-0.6913">
        <ele>79.93</ele>
        <time>2011-11-13T08:00:46Z</time>
      </trkpt>
      <trkpt lat="47.57166" lon="-0.6915">
        <ele>80.41</ele>
        <time>2011-11-13T08:00:52Z</time>
      </trkpt>
      <trkpt lat="47.57135" lon="-0.691">
        <ele>79.93</ele>
        <time>2011-11-13T08:01:01Z</time>
      </trkpt>
      <trkpt lat="47.57121" lon="-0.69105">
        <ele>79.45</ele>
        <time>2011-11-13T08:01:05Z</time>
      </trkpt>
      <trkpt lat="47.57112" lon="-0.69149">
        <ele>78.97</ele>
        <time>2011-11-13T08:01:11Z</time>
      </trkpt>
      <trkpt lat="47.57107" lon="-0.69165">
        <ele>78.97</ele>
        <time>2011-11-13T08:01:13Z</time>
      </trkpt>
      <trkpt lat="47.57087" lon="-0.6923">
        <ele>78.48</ele>
        <time>2011-11-13T08:01:21Z</time>
      </trkpt>
      <trkpt lat="47.57074" lon="-0.6927">
        <ele>78</ele>
        <time>2011-11-13T08:01:26Z</time>
      </trkpt>
      <trkpt lat="47.57053" lon="-0.69327">
        <ele>77.52</ele>
        <time>2011-11-13T08:01:33Z</time>
      </trkpt>
      <trkpt lat="47.57034" lon="-0.69374">
        <ele>77.04</ele>
        <time>2011-11-13T08:01:39Z</time>
      </trkpt>
      <trkpt lat="47.57011" lon="-0.69431">
        <ele>76.56</ele>
        <time>2011-11-13T08:01:47Z</time>
      </trkpt>
      <trkpt lat="47.56993" lon="-0.69474">
        <ele>76.08</ele>
        <time>2011-11-13T08:01:54Z</time>
      </trkpt>
      <trkpt lat="47.56978" lon="-0.69506">
        <ele>76.08</ele>
        <time>2011-11-13T08:02:01Z</time>
      </trkpt>
      <trkpt lat="47.56966" lon="-0.69526">
        <ele>75.6</ele>
        <time>2011-11-13T08:02:06Z</time>
      </trkpt>
      <trkpt lat="47.56938" lon="-0.69566">
        <ele>75.12</ele>
        <time>2011-11-13T08:02:15Z</time>
      </trkpt>
      <trkpt lat="47.56924" lon="-0.69586">
        <ele>75.12</ele>
        <time>2011-11-13T08:02:19Z</time>
      </trkpt>
      <trkpt lat="47.56894" lon="-0.69624">
        <ele>75.12</ele>
        <time>2011-11-13T08:02:27Z</time>
      </trkpt>
      <trkpt lat="47.56886" lon="-0.69633">
        <ele>75.12</ele>
        <time>2011-11-13T08:02:29Z</time>
      </trkpt>
      <trkpt lat="47.56854" lon="-0.69661">
        <ele>74.64</ele>
        <time>2011-11-13T08:02:36Z</time>
      </trkpt>
      <trkpt lat="47.56815" lon="-0.69678">
        <ele>74.16</ele>
        <time>2011-11-13T08:02:43Z</time>
      </trkpt>
      <trkpt lat="47.56794" lon="-0.69689">
        <ele>73.68</ele>
        <time>2011-11-13T08:02:47Z</time>
      </trkpt>
      <trkpt lat="47.56757" lon="-0.69707">
        <ele>73.68</ele>
        <time>2011-11-13T08:02:54Z</time>
      </trkpt>
      <trkpt lat="47.56717" lon="-0.69734">
        <ele>72.72</ele>
        <time>2011-11-13T08:03:02Z</time>
      </trkpt>
      <trkpt lat="47.5667" lon="-0.69765">
        <ele>72.24</ele>
        <time>2011-11-13T08:03:11Z</time>
      </trkpt>
      <trkpt lat="47.56651" lon="-0.69779">
        <ele>73.2</ele>
        <time>2011-11-13T08:03:15Z</time>
      </trkpt>
      <trkpt lat="47.5661" lon="-0.6981">
        <ele>73.2</ele>
        <time>2011-11-13T08:03:23Z</time>
      </trkpt>
      <trkpt lat="47.56574" lon="-0.69834">
        <ele>73.68</ele>
        <time>2011-11-13T08:03:30Z</time>
      </trkpt>
      <trkpt lat="47.56527" lon="-0.69851">
        <ele>73.68</ele>
        <time>2011-11-13T08:03:39Z</time>
      </trkpt>
      <trkpt lat="47.56516" lon="-0.69854">
        <ele>74.16</ele>
        <time>2011-11-13T08:03:41Z</time>
      </trkpt>
      <trkpt lat="47.56485" lon="-0.69864">
        <ele>74.64</ele>
        <time>2011-11-13T08:03:47Z</time>
      </trkpt>
      <trkpt lat="47.56444" lon="-0.69874">
        <ele>75.12</ele>
        <time>2011-11-13T08:03:55Z</time>
      </trkpt>
      <trkpt lat="47.56403" lon="-0.69887">
        <ele>76.56</ele>
        <time>2011-11-13T08:04:03Z</time>
      </trkpt>
      <trkpt lat="47.56365" lon="-0.69903">
        <ele>77.52</ele>
        <time>2011-11-13T08:04:11Z</time>
      </trkpt>
      <trkpt lat="47.56334" lon="-0.69921">
        <ele>78</ele>
        <time>2011-11-13T08:04:18Z</time>
      </trkpt>
      <trkpt lat="47.56326" lon="-0.69924">
        <ele>77.52</ele>
        <time>2011-11-13T08:04:20Z</time>
      </trkpt>
      <trkpt lat="47.56316" lon="-0.69933">
        <ele>78</ele>
        <time>2011-11-13T08:04:25Z</time>
      </trkpt>
      <trkpt lat="47.56315" lon="-0.69931">
        <ele>78</ele>
        <time>2011-11-13T08:04:27Z</time>
      </trkpt>
      <trkpt lat="47.56313" lon="-0.69923">
        <ele>78</ele>
        <time>2011-11-13T08:04:31Z</time>
      </trkpt>
      <trkpt lat="47.56297" lon="-0.6989">
        <ele>77.52</ele>
        <time>2011-11-13T08:04:38Z</time>
      </trkpt>
      <trkpt lat="47.56286" lon="-0.69866">
        <ele>77.04</ele>
        <time>2011-11-13T08:04:42Z</time>
      </trkpt>
      <trkpt lat="47.56261" lon="-0.69803">
        <ele>77.04</ele>
        <time>2011-11-13T08:04:51Z</time>
      </trkpt>
      <trkpt lat="47.56233" lon="-0.69742">
        <ele>77.04</ele>
        <time>2011-11-13T08:05:00Z</time>
      </trkpt>
      <trkpt lat="47.56208" lon="-0.69693">
        <ele>78.48</ele>
        <time>2011-11-13T08:05:08Z</time>
      </trkpt>
      <trkpt lat="47.56172" lon="-0.69624">
        <ele>78</ele>
        <time>2011-11-13T08:05:19Z</time>
      </trkpt>
      <trkpt lat="47.56145" lon="-0.69577">
        <ele>78</ele>
        <time>2011-11-13T08:05:27Z</time>
      </trkpt>
      <trkpt lat="47.56133" lon="-0.69571">
        <ele>77.04</ele>
        <time>2011-11-13T08:05:31Z</time>
      </trkpt>
      <trkpt lat="47.56124" lon="-0.69594">
        <ele>77.52</ele>
        <time>2011-11-13T08:05:36Z</time>
      </trkpt>
      <trkpt lat="47.56106" lon="-0.6965">
        <ele>78</ele>
        <time>2011-11-13T08:05:44Z</time>
      </trkpt>
      <trkpt lat="47.56087" lon="-0.69699">
        <ele>78</ele>
        <time>2011-11-13T08:05:52Z</time>
      </trkpt>
      <trkpt lat="47.56071" lon="-0.69742">
        <ele>78.48</ele>
        <time>2011-11-13T08:05:59Z</time>
      </trkpt>
      <trkpt lat="47.56061" lon="-0.69769">
        <ele>78.97</ele>
        <time>2011-11-13T08:06:03Z</time>
      </trkpt>
      <trkpt lat="47.56039" lon="-0.69826">
        <ele>79.93</ele>
        <time>2011-11-13T08:06:12Z</time>
      </trkpt>
      <trkpt lat="47.56018" lon="-0.69884">
        <ele>80.41</ele>
        <time>2011-11-13T08:06:21Z</time>
      </trkpt>
      <trkpt lat="47.55993" lon="-0.69949">
        <ele>81.37</ele>
        <time>2011-11-13T08:06:31Z</time>
      </trkpt>
      <trkpt lat="47.55972" lon="-0.70002">
        <ele>81.37</ele>
        <time>2011-11-13T08:06:39Z</time>
      </trkpt>
      <trkpt lat="47.5597" lon="-0.70008">
        <ele>81.85</ele>
        <time>2011-11-13T08:06:40Z</time>
      </trkpt>
      <trkpt lat="47.55952" lon="-0.70047">
        <ele>81.85</ele>
        <time>2011-11-13T08:06:46Z</time>
      </trkpt>
      <trkpt lat="47.55949" lon="-0.70053">
        <ele>81.85</ele>
        <time>2011-11-13T08:06:47Z</time>
      </trkpt>
      <trkpt lat="47.55937" lon="-0.70089">
        <ele>82.81</ele>
        <time>2011-11-13T08:06:53Z</time>
      </trkpt>
      <trkpt lat="47.55922" lon="-0.70166">
        <ele>83.29</ele>
        <time>2011-11-13T08:07:03Z</time>
      </trkpt>
      <trkpt lat="47.55911" lon="-0.70231">
        <ele>83.77</ele>
        <time>2011-11-13T08:07:12Z</time>
      </trkpt>
      <trkpt lat="47.55905" lon="-0.70263">
        <ele>85.21</ele>
        <time>2011-11-13T08:07:17Z</time>
      </trkpt>
      <trkpt lat="47.55902" lon="-0.70268">
        <ele>84.73</ele>
        <time>2011-11-13T08:07:18Z</time>
      </trkpt>
      <trkpt lat="47.55895" lon="-0.70278">
        <ele>85.21</ele>
        <time>2011-11-13T08:07:20Z</time>
      </trkpt>
      <trkpt lat="47.55874" lon="-0.70319">
        <ele>85.69</ele>
        <time>2011-11-13T08:07:27Z</time>
      </trkpt>
      <trkpt lat="47.55852" lon="-0.70359">
        <ele>86.18</ele>
        <time>2011-11-13T08:07:34Z</time>
      </trkpt>
      <trkpt lat="47.55828" lon="-0.70393">
        <ele>86.66</ele>
        <time>2011-11-13T08:07:41Z</time>
      </trkpt>
      <trkpt lat="47.55821" lon="-0.704">
        <ele>86.18</ele>
        <time>2011-11-13T08:07:43Z</time>
      </trkpt>
      <trkpt lat="47.55811" lon="-0.70413">
        <ele>86.66</ele>
        <time>2011-11-13T08:07:46Z</time>
      </trkpt>
      <trkpt lat="47.55778" lon="-0.70448">
        <ele>87.62</ele>
        <time>2011-11-13T08:07:54Z</time>
      </trkpt>
      <trkpt lat="47.55755" lon="-0.70472">
        <ele>87.62</ele>
        <time>2011-11-13T08:08:00Z</time>
      </trkpt>
      <trkpt lat="47.55741" lon="-0.70488">
        <ele>87.62</ele>
        <time>2011-11-13T08:08:04Z</time>
      </trkpt>
      <trkpt lat="47.55719" lon="-0.70522">
        <ele>87.62</ele>
        <time>2011-11-13T08:08:11Z</time>
      </trkpt>
      <trkpt lat="47.55697" lon="-0.70559">
        <ele>88.58</ele>
        <time>2011-11-13T08:08:18Z</time>
      </trkpt>
      <trkpt lat="47.55677" lon="-0.70586">
        <ele>88.1</ele>
        <time>2011-11-13T08:08:24Z</time>
      </trkpt>
      <trkpt lat="47.55656" lon="-0.70618">
        <ele>87.62</ele>
        <time>2011-11-13T08:08:32Z</time>
      </trkpt>
      <trkpt lat="47.55653" lon="-0.70627">
        <ele>87.62</ele>
        <time>2011-11-13T08:08:34Z</time>
      </trkpt>
      <trkpt lat="47.55657" lon="-0.70637">
        <ele>88.1</ele>
        <time>2011-11-13T08:08:38Z</time>
      </trkpt>
      <trkpt lat="47.55658" lon="-0.70637">
        <ele>88.1</ele>
        <time>2011-11-13T08:08:45Z</time>
      </trkpt>
      <trkpt lat="47.55658" lon="-0.70637">
        <ele>87.14</ele>
        <time>2011-11-13T08:08:51Z</time>
      </trkpt>
      <trkpt lat="47.55658" lon="-0.70637">
        <ele>87.14</ele>
        <time>2011-11-13T08:09:11Z</time>
      </trkpt>
      <trkpt lat="47.55659" lon="-0.70637">
        <ele>87.14</ele>
        <time>2011-11-13T08:09:31Z</time>
      </trkpt>
      <trkpt lat="47.55659" lon="-0.70637">
        <ele>87.14</ele>
        <time>2011-11-13T08:09:57Z</time>
      </trkpt>
      <trkpt lat="47.55659" lon="-0.70637">
        <ele>87.14</ele>
        <time>2011-11-13T08:10:15Z</time>
      </trkpt>
      <trkpt lat="47.55659" lon="-0.70637">
        <ele>87.14</ele>
        <time>2011-11-13T08:10:38Z</time>
      </trkpt>
      <trkpt lat="47.55659" lon="-0.70636">
        <ele>87.14</ele>
        <time>2011-11-13T08:10:58Z</time>
      </trkpt>
      <trkpt lat="47.55659" lon="-0.70636">
        <ele>87.14</ele>
        <time>2011-11-13T08:11:19Z</time>
      </trkpt>
      <trkpt lat="47.5566" lon="-0.70636">
        <ele>86.66</ele>
        <time>2011-11-13T08:11:38Z</time>
      </trkpt>
      <trkpt lat="47.5566" lon="-0.70636">
        <ele>87.14</ele>
        <time>2011-11-13T08:11:58Z</time>
      </trkpt>
      <trkpt lat="47.55659" lon="-0.70636">
        <ele>87.14</ele>
        <time>2011-11-13T08:12:20Z</time>
      </trkpt>
      <trkpt lat="47.55659" lon="-0.70636">
        <ele>87.62</ele>
        <time>2011-11-13T08:12:40Z</time>
      </trkpt>
      <trkpt lat="47.55659" lon="-0.70635">
        <ele>87.14</ele>
        <time>2011-11-13T08:13:00Z</time>
      </trkpt>
      <trkpt lat="47.55659" lon="-0.70635">
        <ele>87.62</ele>
        <time>2011-11-13T08:13:17Z</time>
      </trkpt>
      <trkpt lat="47.55659" lon="-0.70637">
        <ele>88.1</ele>
        <time>2011-11-13T08:13:23Z</time>
      </trkpt>
      <trkpt lat="47.55659" lon="-0.70637">
        <ele>88.1</ele>
        <time>2011-11-13T08:13:33Z</time>
      </trkpt>
      <trkpt lat="47.55659" lon="-0.70637">
        <ele>88.1</ele>
        <time>2011-11-13T08:13:44Z</time>
      </trkpt>
      <trkpt lat="47.55673" lon="-0.70648">
        <ele>87.62</ele>
        <time>2011-11-13T08:13:51Z</time>
      </trkpt>
      <trkpt lat="47.55688" lon="-0.70658">
        <ele>87.14</ele>
        <time>2011-11-13T08:13:55Z</time>
      </trkpt>
      <trkpt lat="47.55696" lon="-0.70662">
        <ele>87.14</ele>
        <time>2011-11-13T08:13:57Z</time>
      </trkpt>
      <trkpt lat="47.5573" lon="-0.7068">
        <ele>86.66</ele>
        <time>2011-11-13T08:14:04Z</time>
      </trkpt>
      <trkpt lat="47.55736" lon="-0.70684">
        <ele>87.14</ele>
        <time>2011-11-13T08:14:05Z</time>
      </trkpt>
      <trkpt lat="47.55744" lon="-0.70695">
        <ele>86.66</ele>
        <time>2011-11-13T08:14:07Z</time>
      </trkpt>
      <trkpt lat="47.55748" lon="-0.70723">
        <ele>86.66</ele>
        <time>2011-11-13T08:14:11Z</time>
      </trkpt>
      <trkpt lat="47.55747" lon="-0.70731">
        <ele>86.18</ele>
        <time>2011-11-13T08:14:12Z</time>
      </trkpt>
      <trkpt lat="47.55761" lon="-0.7076">
        <ele>86.66</ele>
        <time>2011-11-13T08:14:17Z</time>
      </trkpt>
      <trkpt lat="47.55787" lon="-0.70796">
        <ele>86.66</ele>
        <time>2011-11-13T08:14:22Z</time>
      </trkpt>
      <trkpt lat="47.5582" lon="-0.70865">
        <ele>84.73</ele>
        <time>2011-11-13T08:14:30Z</time>
      </trkpt>
      <trkpt lat="47.55824" lon="-0.70874">
        <ele>84.73</ele>
        <time>2011-11-13T08:14:31Z</time>
      </trkpt>
      <trkpt lat="47.55854" lon="-0.70946">
        <ele>84.25</ele>
        <time>2011-11-13T08:14:39Z</time>
      </trkpt>
      <trkpt lat="47.55862" lon="-0.70973">
        <ele>83.29</ele>
        <time>2011-11-13T08:14:42Z</time>
      </trkpt>
      <trkpt lat="47.55863" lon="-0.71001">
        <ele>83.77</ele>
        <time>2011-11-13T08:14:46Z</time>
      </trkpt>
      <trkpt lat="47.55854" lon="-0.71029">
        <ele>84.73</ele>
        <time>2011-11-13T08:14:50Z</time>
      </trkpt>
      <trkpt lat="47.55849" lon="-0.71061">
        <ele>85.21</ele>
        <time>2011-11-13T08:14:55Z</time>
      </trkpt>
      <trkpt lat="47.55845" lon="-0.71087">
        <ele>86.18</ele>
        <time>2011-11-13T08:15:00Z</time>
      </trkpt>
      <trkpt lat="47.5584" lon="-0.71105">
        <ele>86.66</ele>
        <time>2011-11-13T08:15:03Z</time>
      </trkpt>
      <trkpt lat="47.55832" lon="-0.71135">
        <ele>86.66</ele>
        <time>2011-11-13T08:15:08Z</time>
      </trkpt>
      <trkpt lat="47.55832" lon="-0.7115">
        <ele>87.14</ele>
        <time>2011-11-13T08:15:11Z</time>
      </trkpt>
      <trkpt lat="47.55832" lon="-0.71159">
        <ele>87.62</ele>
        <time>2011-11-13T08:15:14Z</time>
      </trkpt>
      <trkpt lat="47.55826" lon="-0.71173">
        <ele>88.1</ele>
        <time>2011-11-13T08:15:18Z</time>
      </trkpt>
      <trkpt lat="47.55819" lon="-0.71199">
        <ele>89.06</ele>
        <time>2011-11-13T08:15:23Z</time>
      </trkpt>
      <trkpt lat="47.55815" lon="-0.71225">
        <ele>89.54</ele>
        <time>2011-11-13T08:15:28Z</time>
      </trkpt>
      <trkpt lat="47.55812" lon="-0.71254">
        <ele>90.5</ele>
        <time>2011-11-13T08:15:33Z</time>
      </trkpt>
      <trkpt lat="47.5581" lon="-0.71277">
        <ele>90.98</ele>
        <time>2011-11-13T08:15:38Z</time>
      </trkpt>
      <trkpt lat="47.5581" lon="-0.7128">
        <ele>91.46</ele>
        <time>2011-11-13T08:15:39Z</time>
      </trkpt>
      <trkpt lat="47.55808" lon="-0.713">
        <ele>91.94</ele>
        <time>2011-11-13T08:15:45Z</time>
      </trkpt>
      <trkpt lat="47.55808" lon="-0.71303">
        <ele>91.46</ele>
        <time>2011-11-13T08:15:46Z</time>
      </trkpt>
      <trkpt lat="47.55812" lon="-0.71335">
        <ele>91.94</ele>
        <time>2011-11-13T08:15:51Z</time>
      </trkpt>
      <trkpt lat="47.55814" lon="-0.7135">
        <ele>91.94</ele>
        <time>2011-11-13T08:15:53Z</time>
      </trkpt>
      <trkpt lat="47.55815" lon="-0.7139">
        <ele>92.42</ele>
        <time>2011-11-13T08:15:59Z</time>
      </trkpt>
      <trkpt lat="47.55818" lon="-0.7142">
        <ele>92.9</ele>
        <time>2011-11-13T08:16:04Z</time>
      </trkpt>
      <trkpt lat="47.55818" lon="-0.71453">
        <ele>93.87</ele>
        <time>2011-11-13T08:16:09Z</time>
      </trkpt>
      <trkpt lat="47.55819" lon="-0.7148">
        <ele>94.35</ele>
        <time>2011-11-13T08:16:14Z</time>
      </trkpt>
      <trkpt lat="47.55823" lon="-0.71509">
        <ele>93.87</ele>
        <time>2011-11-13T08:16:19Z</time>
      </trkpt>
      <trkpt lat="47.55823" lon="-0.71537">
        <ele>94.35</ele>
        <time>2011-11-13T08:16:23Z</time>
      </trkpt>
      <trkpt lat="47.55826" lon="-0.71589">
        <ele>94.83</ele>
        <time>2011-11-13T08:16:31Z</time>
      </trkpt>
      <trkpt lat="47.55827" lon="-0.71605">
        <ele>94.83</ele>
        <time>2011-11-13T08:16:34Z</time>
      </trkpt>
      <trkpt lat="47.55825" lon="-0.71631">
        <ele>95.31</ele>
        <time>2011-11-13T08:16:38Z</time>
      </trkpt>
      <trkpt lat="47.55823" lon="-0.71647">
        <ele>95.31</ele>
        <time>2011-11-13T08:16:40Z</time>
      </trkpt>
      <trkpt lat="47.5582" lon="-0.71689">
        <ele>95.31</ele>
        <time>2011-11-13T08:16:46Z</time>
      </trkpt>
      <trkpt lat="47.55815" lon="-0.71719">
        <ele>95.79</ele>
        <time>2011-11-13T08:16:51Z</time>
      </trkpt>
      <trkpt lat="47.55802" lon="-0.71731">
        <ele>96.75</ele>
        <time>2011-11-13T08:16:55Z</time>
      </trkpt>
      <trkpt lat="47.55788" lon="-0.71749">
        <ele>97.23</ele>
        <time>2011-11-13T08:17:00Z</time>
      </trkpt>
      <trkpt lat="47.55794" lon="-0.7177">
        <ele>97.23</ele>
        <time>2011-11-13T08:17:04Z</time>
      </trkpt>
      <trkpt lat="47.55796" lon="-0.71776">
        <ele>97.71</ele>
        <time>2011-11-13T08:17:05Z</time>
      </trkpt>
      <trkpt lat="47.55803" lon="-0.71806">
        <ele>97.23</ele>
        <time>2011-11-13T08:17:09Z</time>
      </trkpt>
      <trkpt lat="47.55807" lon="-0.71842">
        <ele>97.71</ele>
        <time>2011-11-13T08:17:14Z</time>
      </trkpt>
      <trkpt lat="47.55812" lon="-0.71855">
        <ele>97.71</ele>
        <time>2011-11-13T08:17:16Z</time>
      </trkpt>
      <trkpt lat="47.5582" lon="-0.71884">
        <ele>97.71</ele>
        <time>2011-11-13T08:17:20Z</time>
      </trkpt>
      <trkpt lat="47.55831" lon="-0.7192">
        <ele>97.23</ele>
        <time>2011-11-13T08:17:25Z</time>
      </trkpt>
      <trkpt lat="47.55835" lon="-0.71933">
        <ele>97.71</ele>
        <time>2011-11-13T08:17:27Z</time>
      </trkpt>
      <trkpt lat="47.55843" lon="-0.7195">
        <ele>97.71</ele>
        <time>2011-11-13T08:17:30Z</time>
      </trkpt>
      <trkpt lat="47.55854" lon="-0.71977">
        <ele>97.23</ele>
        <time>2011-11-13T08:17:35Z</time>
      </trkpt>
      <trkpt lat="47.55861" lon="-0.72002">
        <ele>97.23</ele>
        <time>2011-11-13T08:17:39Z</time>
      </trkpt>
      <trkpt lat="47.55871" lon="-0.72023">
        <ele>96.75</ele>
        <time>2011-11-13T08:17:43Z</time>
      </trkpt>
      <trkpt lat="47.55878" lon="-0.72029">
        <ele>96.75</ele>
        <time>2011-11-13T08:17:45Z</time>
      </trkpt>
      <trkpt lat="47.55887" lon="-0.72052">
        <ele>96.27</ele>
        <time>2011-11-13T08:17:50Z</time>
      </trkpt>
      <trkpt lat="47.55887" lon="-0.72074">
        <ele>96.75</ele>
        <time>2011-11-13T08:17:55Z</time>
      </trkpt>
      <trkpt lat="47.5589" lon="-0.72101">
        <ele>97.23</ele>
        <time>2011-11-13T08:18:00Z</time>
      </trkpt>
      <trkpt lat="47.55894" lon="-0.72108">
        <ele>97.23</ele>
        <time>2011-11-13T08:18:02Z</time>
      </trkpt>
      <trkpt lat="47.55904" lon="-0.72131">
        <ele>97.71</ele>
        <time>2011-11-13T08:18:07Z</time>
      </trkpt>
      <trkpt lat="47.55908" lon="-0.72143">
        <ele>97.23</ele>
        <time>2011-11-13T08:18:09Z</time>
      </trkpt>
      <trkpt lat="47.55916" lon="-0.72187">
        <ele>97.71</ele>
        <time>2011-11-13T08:18:15Z</time>
      </trkpt>
      <trkpt lat="47.55917" lon="-0.72195">
        <ele>97.71</ele>
        <time>2011-11-13T08:18:16Z</time>
      </trkpt>
      <trkpt lat="47.55923" lon="-0.72226">
        <ele>97.71</ele>
        <time>2011-11-13T08:18:20Z</time>
      </trkpt>
      <trkpt lat="47.5593" lon="-0.72256">
        <ele>98.19</ele>
        <time>2011-11-13T08:18:24Z</time>
      </trkpt>
      <trkpt lat="47.55943" lon="-0.72303">
        <ele>97.71</ele>
        <time>2011-11-13T08:18:31Z</time>
      </trkpt>
      <trkpt lat="47.55949" lon="-0.72329">
        <ele>98.19</ele>
        <time>2011-11-13T08:18:35Z</time>
      </trkpt>
      <trkpt lat="47.55962" lon="-0.72361">
        <ele>98.19</ele>
        <time>2011-11-13T08:18:40Z</time>
      </trkpt>
      <trkpt lat="47.55975" lon="-0.7239">
        <ele>97.23</ele>
        <time>2011-11-13T08:18:45Z</time>
      </trkpt>
      <trkpt lat="47.55983" lon="-0.72408">
        <ele>97.23</ele>
        <time>2011-11-13T08:18:49Z</time>
      </trkpt>
      <trkpt lat="47.55996" lon="-0.72442">
        <ele>98.19</ele>
        <time>2011-11-13T08:18:55Z</time>
      </trkpt>
      <trkpt lat="47.56006" lon="-0.72476">
        <ele>97.71</ele>
        <time>2011-11-13T08:18:59Z</time>
      </trkpt>
      <trkpt lat="47.56012" lon="-0.72494">
        <ele>98.19</ele>
        <time>2011-11-13T08:19:01Z</time>
      </trkpt>
      <trkpt lat="47.5602" lon="-0.72537">
        <ele>98.67</ele>
        <time>2011-11-13T08:19:07Z</time>
      </trkpt>
      <trkpt lat="47.5603" lon="-0.72575">
        <ele>99.15</ele>
        <time>2011-11-13T08:19:12Z</time>
      </trkpt>
      <trkpt lat="47.56036" lon="-0.72601">
        <ele>98.67</ele>
        <time>2011-11-13T08:19:15Z</time>
      </trkpt>
      <trkpt lat="47.56045" lon="-0.72639">
        <ele>98.67</ele>
        <time>2011-11-13T08:19:20Z</time>
      </trkpt>
      <trkpt lat="47.56051" lon="-0.72671">
        <ele>98.67</ele>
        <time>2011-11-13T08:19:24Z</time>
      </trkpt>
      <trkpt lat="47.5606" lon="-0.72704">
        <ele>98.67</ele>
        <time>2011-11-13T08:19:28Z</time>
      </trkpt>
      <trkpt lat="47.56068" lon="-0.72726">
        <ele>98.67</ele>
        <time>2011-11-13T08:19:31Z</time>
      </trkpt>
      <trkpt lat="47.56077" lon="-0.72758">
        <ele>98.67</ele>
        <time>2011-11-13T08:19:36Z</time>
      </trkpt>
      <trkpt lat="47.56086" lon="-0.72792">
        <ele>98.67</ele>
        <time>2011-11-13T08:19:41Z</time>
      </trkpt>
      <trkpt lat="47.56092" lon="-0.72812">
        <ele>99.15</ele>
        <time>2011-11-13T08:19:44Z</time>
      </trkpt>
      <trkpt lat="47.56099" lon="-0.72844">
        <ele>98.67</ele>
        <time>2011-11-13T08:19:47Z</time>
      </trkpt>
      <trkpt lat="47.56114" lon="-0.72866">
        <ele>99.15</ele>
        <time>2011-11-13T08:19:51Z</time>
      </trkpt>
      <trkpt lat="47.56125" lon="-0.72863">
        <ele>98.67</ele>
        <time>2011-11-13T08:19:53Z</time>
      </trkpt>
      <trkpt lat="47.56167" lon="-0.72849">
        <ele>97.71</ele>
        <time>2011-11-13T08:20:00Z</time>
      </trkpt>
      <trkpt lat="47.56192" lon="-0.72839">
        <ele>96.75</ele>
        <time>2011-11-13T08:20:04Z</time>
      </trkpt>
      <trkpt lat="47.56213" lon="-0.72841">
        <ele>94.83</ele>
        <time>2011-11-13T08:20:08Z</time>
      </trkpt>
      <trkpt lat="47.5622" lon="-0.72853">
        <ele>95.79</ele>
        <time>2011-11-13T08:20:10Z</time>
      </trkpt>
      <trkpt lat="47.56242" lon="-0.72878">
        <ele>94.83</ele>
        <time>2011-11-13T08:20:15Z</time>
      </trkpt>
      <trkpt lat="47.56252" lon="-0.72888">
        <ele>94.35</ele>
        <time>2011-11-13T08:20:17Z</time>
      </trkpt>
      <trkpt lat="47.56274" lon="-0.7291">
        <ele>93.87</ele>
        <time>2011-11-13T08:20:22Z</time>
      </trkpt>
      <trkpt lat="47.56284" lon="-0.72919">
        <ele>93.87</ele>
        <time>2011-11-13T08:20:24Z</time>
      </trkpt>
      <trkpt lat="47.56292" lon="-0.7293">
        <ele>92.9</ele>
        <time>2011-11-13T08:20:26Z</time>
      </trkpt>
      <trkpt lat="47.563" lon="-0.72947">
        <ele>93.87</ele>
        <time>2011-11-13T08:20:29Z</time>
      </trkpt>
      <trkpt lat="47.56306" lon="-0.72961">
        <ele>93.87</ele>
        <time>2011-11-13T08:20:31Z</time>
      </trkpt>
      <trkpt lat="47.56317" lon="-0.72983">
        <ele>93.39</ele>
        <time>2011-11-13T08:20:34Z</time>
      </trkpt>
      <trkpt lat="47.56342" lon="-0.73022">
        <ele>93.87</ele>
        <time>2011-11-13T08:20:40Z</time>
      </trkpt>
      <trkpt lat="47.56348" lon="-0.73035">
        <ele>92.9</ele>
        <time>2011-11-13T08:20:42Z</time>
      </trkpt>
      <trkpt lat="47.56356" lon="-0.73064">
        <ele>92.9</ele>
        <time>2011-11-13T08:20:46Z</time>
      </trkpt>
      <trkpt lat="47.56359" lon="-0.73078">
        <ele>93.39</ele>
        <time>2011-11-13T08:20:48Z</time>
      </trkpt>
      <trkpt lat="47.56367" lon="-0.73116">
        <ele>92.9</ele>
        <time>2011-11-13T08:20:54Z</time>
      </trkpt>
      <trkpt lat="47.56369" lon="-0.73122">
        <ele>92.9</ele>
        <time>2011-11-13T08:20:55Z</time>
      </trkpt>
      <trkpt lat="47.56375" lon="-0.73134">
        <ele>92.42</ele>
        <time>2011-11-13T08:20:57Z</time>
      </trkpt>
      <trkpt lat="47.56393" lon="-0.73168">
        <ele>91.94</ele>
        <time>2011-11-13T08:21:01Z</time>
      </trkpt>
      <trkpt lat="47.56403" lon="-0.73183">
        <ele>91.46</ele>
        <time>2011-11-13T08:21:03Z</time>
      </trkpt>
      <trkpt lat="47.56422" lon="-0.73211">
        <ele>90.98</ele>
        <time>2011-11-13T08:21:07Z</time>
      </trkpt>
      <trkpt lat="47.56434" lon="-0.7324">
        <ele>89.54</ele>
        <time>2011-11-13T08:21:11Z</time>
      </trkpt>
      <trkpt lat="47.56445" lon="-0.73257">
        <ele>89.54</ele>
        <time>2011-11-13T08:21:14Z</time>
      </trkpt>
      <trkpt lat="47.56472" lon="-0.733">
        <ele>89.54</ele>
        <time>2011-11-13T08:21:20Z</time>
      </trkpt>
      <trkpt lat="47.5648" lon="-0.73322">
        <ele>89.06</ele>
        <time>2011-11-13T08:21:23Z</time>
      </trkpt>
      <trkpt lat="47.56483" lon="-0.73355">
        <ele>89.54</ele>
        <time>2011-11-13T08:21:27Z</time>
      </trkpt>
      <trkpt lat="47.56485" lon="-0.7338">
        <ele>90.02</ele>
        <time>2011-11-13T08:21:30Z</time>
      </trkpt>
      <trkpt lat="47.56493" lon="-0.73408">
        <ele>90.02</ele>
        <time>2011-11-13T08:21:34Z</time>
      </trkpt>
      <trkpt lat="47.56504" lon="-0.73443">
        <ele>90.02</ele>
        <time>2011-11-13T08:21:39Z</time>
      </trkpt>
      <trkpt lat="47.5651" lon="-0.7346">
        <ele>90.02</ele>
        <time>2011-11-13T08:21:42Z</time>
      </trkpt>
      <trkpt lat="47.56525" lon="-0.73471">
        <ele>89.06</ele>
        <time>2011-11-13T08:21:45Z</time>
      </trkpt>
      <trkpt lat="47.56539" lon="-0.73484">
        <ele>89.06</ele>
        <time>2011-11-13T08:21:48Z</time>
      </trkpt>
      <trkpt lat="47.5655" lon="-0.73507">
        <ele>88.58</ele>
        <time>2011-11-13T08:21:52Z</time>
      </trkpt>
      <trkpt lat="47.56558" lon="-0.73561">
        <ele>89.54</ele>
        <time>2011-11-13T08:22:00Z</time>
      </trkpt>
      <trkpt lat="47.56559" lon="-0.73581">
        <ele>89.54</ele>
        <time>2011-11-13T08:22:03Z</time>
      </trkpt>
      <trkpt lat="47.5656" lon="-0.73597">
        <ele>89.54</ele>
        <time>2011-11-13T08:22:05Z</time>
      </trkpt>
      <trkpt lat="47.56569" lon="-0.73631">
        <ele>90.02</ele>
        <time>2011-11-13T08:22:10Z</time>
      </trkpt>
      <trkpt lat="47.5657" lon="-0.73637">
        <ele>90.02</ele>
        <time>2011-11-13T08:22:11Z</time>
      </trkpt>
      <trkpt lat="47.56575" lon="-0.73656">
        <ele>90.02</ele>
        <time>2011-11-13T08:22:14Z</time>
      </trkpt>
      <trkpt lat="47.56582" lon="-0.73669">
        <ele>90.02</ele>
        <time>2011-11-13T08:22:16Z</time>
      </trkpt>
      <trkpt lat="47.56599" lon="-0.73699">
        <ele>89.06</ele>
        <time>2011-11-13T08:22:21Z</time>
      </trkpt>
      <trkpt lat="47.56603" lon="-0.73706">
        <ele>89.54</ele>
        <time>2011-11-13T08:22:22Z</time>
      </trkpt>
      <trkpt lat="47.56629" lon="-0.73747">
        <ele>89.54</ele>
        <time>2011-11-13T08:22:29Z</time>
      </trkpt>
      <trkpt lat="47.56656" lon="-0.73783">
        <ele>88.58</ele>
        <time>2011-11-13T08:22:35Z</time>
      </trkpt>
      <trkpt lat="47.56661" lon="-0.73789">
        <ele>89.06</ele>
        <time>2011-11-13T08:22:36Z</time>
      </trkpt>
      <trkpt lat="47.56674" lon="-0.73812">
        <ele>88.58</ele>
        <time>2011-11-13T08:22:39Z</time>
      </trkpt>
      <trkpt lat="47.56689" lon="-0.73829">
        <ele>88.58</ele>
        <time>2011-11-13T08:22:42Z</time>
      </trkpt>
      <trkpt lat="47.56706" lon="-0.73855">
        <ele>87.62</ele>
        <time>2011-11-13T08:22:46Z</time>
      </trkpt>
      <trkpt lat="47.56716" lon="-0.73873">
        <ele>86.18</ele>
        <time>2011-11-13T08:22:49Z</time>
      </trkpt>
      <trkpt lat="47.56735" lon="-0.73905">
        <ele>86.18</ele>
        <time>2011-11-13T08:22:55Z</time>
      </trkpt>
      <trkpt lat="47.56738" lon="-0.7391">
        <ele>86.66</ele>
        <time>2011-11-13T08:22:56Z</time>
      </trkpt>
      <trkpt lat="47.56755" lon="-0.73948">
        <ele>88.1</ele>
        <time>2011-11-13T08:23:02Z</time>
      </trkpt>
      <trkpt lat="47.56769" lon="-0.73992">
        <ele>88.1</ele>
        <time>2011-11-13T08:23:09Z</time>
      </trkpt>
      <trkpt lat="47.56773" lon="-0.74005">
        <ele>88.1</ele>
        <time>2011-11-13T08:23:11Z</time>
      </trkpt>
      <trkpt lat="47.56778" lon="-0.7402">
        <ele>89.06</ele>
        <time>2011-11-13T08:23:13Z</time>
      </trkpt>
      <trkpt lat="47.56783" lon="-0.74035">
        <ele>89.06</ele>
        <time>2011-11-13T08:23:15Z</time>
      </trkpt>
      <trkpt lat="47.56781" lon="-0.74063">
        <ele>89.06</ele>
        <time>2011-11-13T08:23:19Z</time>
      </trkpt>
      <trkpt lat="47.56763" lon="-0.74113">
        <ele>89.54</ele>
        <time>2011-11-13T08:23:26Z</time>
      </trkpt>
      <trkpt lat="47.56756" lon="-0.74136">
        <ele>89.54</ele>
        <time>2011-11-13T08:23:29Z</time>
      </trkpt>
      <trkpt lat="47.56749" lon="-0.74175">
        <ele>89.54</ele>
        <time>2011-11-13T08:23:34Z</time>
      </trkpt>
      <trkpt lat="47.56749" lon="-0.7419">
        <ele>90.02</ele>
        <time>2011-11-13T08:23:36Z</time>
      </trkpt>
      <trkpt lat="47.56751" lon="-0.74217">
        <ele>90.5</ele>
        <time>2011-11-13T08:23:40Z</time>
      </trkpt>
      <trkpt lat="47.56755" lon="-0.74241">
        <ele>90.5</ele>
        <time>2011-11-13T08:23:43Z</time>
      </trkpt>
      <trkpt lat="47.56763" lon="-0.74279">
        <ele>90.5</ele>
        <time>2011-11-13T08:23:49Z</time>
      </trkpt>
      <trkpt lat="47.56778" lon="-0.74311">
        <ele>90.5</ele>
        <time>2011-11-13T08:23:54Z</time>
      </trkpt>
      <trkpt lat="47.56792" lon="-0.74339">
        <ele>90.5</ele>
        <time>2011-11-13T08:23:59Z</time>
      </trkpt>
      <trkpt lat="47.5681" lon="-0.74365">
        <ele>90.5</ele>
        <time>2011-11-13T08:24:04Z</time>
      </trkpt>
      <trkpt lat="47.56824" lon="-0.74379">
        <ele>90.5</ele>
        <time>2011-11-13T08:24:07Z</time>
      </trkpt>
      <trkpt lat="47.56836" lon="-0.74393">
        <ele>90.5</ele>
        <time>2011-11-13T08:24:10Z</time>
      </trkpt>
      <trkpt lat="47.5685" lon="-0.74408">
        <ele>90.5</ele>
        <time>2011-11-13T08:24:13Z</time>
      </trkpt>
      <trkpt lat="47.56863" lon="-0.74423">
        <ele>90.5</ele>
        <time>2011-11-13T08:24:16Z</time>
      </trkpt>
      <trkpt lat="47.56878" lon="-0.74447">
        <ele>90.02</ele>
        <time>2011-11-13T08:24:21Z</time>
      </trkpt>
      <trkpt lat="47.56874" lon="-0.74463">
        <ele>90.5</ele>
        <time>2011-11-13T08:24:24Z</time>
      </trkpt>
      <trkpt lat="47.56861" lon="-0.74488">
        <ele>90.98</ele>
        <time>2011-11-13T08:24:29Z</time>
      </trkpt>
      <trkpt lat="47.56862" lon="-0.74506">
        <ele>91.94</ele>
        <time>2011-11-13T08:24:35Z</time>
      </trkpt>
      <trkpt lat="47.56861" lon="-0.74514">
        <ele>91.94</ele>
        <time>2011-11-13T08:24:37Z</time>
      </trkpt>
      <trkpt lat="47.56866" lon="-0.74546">
        <ele>92.42</ele>
        <time>2011-11-13T08:24:44Z</time>
      </trkpt>
      <trkpt lat="47.56868" lon="-0.7456">
        <ele>92.42</ele>
        <time>2011-11-13T08:24:47Z</time>
      </trkpt>
      <trkpt lat="47.56874" lon="-0.74594">
        <ele>92.9</ele>
        <time>2011-11-13T08:24:54Z</time>
      </trkpt>
      <trkpt lat="47.5688" lon="-0.74627">
        <ele>93.87</ele>
        <time>2011-11-13T08:25:00Z</time>
      </trkpt>
      <trkpt lat="47.56884" lon="-0.74641">
        <ele>93.39</ele>
        <time>2011-11-13T08:25:03Z</time>
      </trkpt>
      <trkpt lat="47.56888" lon="-0.74689">
        <ele>94.35</ele>
        <time>2011-11-13T08:25:10Z</time>
      </trkpt>
      <trkpt lat="47.56898" lon="-0.74732">
        <ele>94.83</ele>
        <time>2011-11-13T08:25:17Z</time>
      </trkpt>
      <trkpt lat="47.5691" lon="-0.74757">
        <ele>94.35</ele>
        <time>2011-11-13T08:25:22Z</time>
      </trkpt>
      <trkpt lat="47.56918" lon="-0.74778">
        <ele>95.31</ele>
        <time>2011-11-13T08:25:26Z</time>
      </trkpt>
      <trkpt lat="47.56921" lon="-0.74801">
        <ele>94.83</ele>
        <time>2011-11-13T08:25:30Z</time>
      </trkpt>
      <trkpt lat="47.56925" lon="-0.74856">
        <ele>94.83</ele>
        <time>2011-11-13T08:25:35Z</time>
      </trkpt>
      <trkpt lat="47.56934" lon="-0.74895">
        <ele>94.83</ele>
        <time>2011-11-13T08:25:41Z</time>
      </trkpt>
      <trkpt lat="47.56942" lon="-0.74928">
        <ele>94.35</ele>
        <time>2011-11-13T08:25:46Z</time>
      </trkpt>
      <trkpt lat="47.56943" lon="-0.74934">
        <ele>94.35</ele>
        <time>2011-11-13T08:25:47Z</time>
      </trkpt>
      <trkpt lat="47.56953" lon="-0.74983">
        <ele>94.35</ele>
        <time>2011-11-13T08:25:54Z</time>
      </trkpt>
      <trkpt lat="47.56958" lon="-0.75004">
        <ele>93.39</ele>
        <time>2011-11-13T08:25:57Z</time>
      </trkpt>
      <trkpt lat="47.56968" lon="-0.75031">
        <ele>92.9</ele>
        <time>2011-11-13T08:26:02Z</time>
      </trkpt>
      <trkpt lat="47.56972" lon="-0.75062">
        <ele>92.42</ele>
        <time>2011-11-13T08:26:06Z</time>
      </trkpt>
      <trkpt lat="47.56974" lon="-0.75083">
        <ele>92.42</ele>
        <time>2011-11-13T08:26:09Z</time>
      </trkpt>
      <trkpt lat="47.56976" lon="-0.75096">
        <ele>92.42</ele>
        <time>2011-11-13T08:26:10Z</time>
      </trkpt>
      <trkpt lat="47.56978" lon="-0.75131">
        <ele>92.42</ele>
        <time>2011-11-13T08:26:13Z</time>
      </trkpt>
      <trkpt lat="47.5698" lon="-0.75147">
        <ele>91.94</ele>
        <time>2011-11-13T08:26:15Z</time>
      </trkpt>
      <trkpt lat="47.56987" lon="-0.75183">
        <ele>92.42</ele>
        <time>2011-11-13T08:26:20Z</time>
      </trkpt>
      <trkpt lat="47.56994" lon="-0.75226">
        <ele>91.94</ele>
        <time>2011-11-13T08:26:27Z</time>
      </trkpt>
      <trkpt lat="47.57" lon="-0.7526">
        <ele>91.94</ele>
        <time>2011-11-13T08:26:32Z</time>
      </trkpt>
      <trkpt lat="47.5701" lon="-0.75292">
        <ele>91.94</ele>
        <time>2011-11-13T08:26:38Z</time>
      </trkpt>
      <trkpt lat="47.57015" lon="-0.75326">
        <ele>91.94</ele>
        <time>2011-11-13T08:26:43Z</time>
      </trkpt>
      <trkpt lat="47.57021" lon="-0.75358">
        <ele>91.46</ele>
        <time>2011-11-13T08:26:48Z</time>
      </trkpt>
      <trkpt lat="47.57022" lon="-0.75365">
        <ele>91.46</ele>
        <time>2011-11-13T08:26:49Z</time>
      </trkpt>
      <trkpt lat="47.57025" lon="-0.75379">
        <ele>91.94</ele>
        <time>2011-11-13T08:26:51Z</time>
      </trkpt>
      <trkpt lat="47.57036" lon="-0.75413">
        <ele>91.46</ele>
        <time>2011-11-13T08:26:56Z</time>
      </trkpt>
      <trkpt lat="47.5704" lon="-0.75436">
        <ele>91.46</ele>
        <time>2011-11-13T08:26:59Z</time>
      </trkpt>
      <trkpt lat="47.57047" lon="-0.75476">
        <ele>90.02</ele>
        <time>2011-11-13T08:27:05Z</time>
      </trkpt>
      <trkpt lat="47.57049" lon="-0.75484">
        <ele>90.5</ele>
        <time>2011-11-13T08:27:06Z</time>
      </trkpt>
      <trkpt lat="47.57052" lon="-0.75501">
        <ele>90.02</ele>
        <time>2011-11-13T08:27:08Z</time>
      </trkpt>
      <trkpt lat="47.57058" lon="-0.75546">
        <ele>89.54</ele>
        <time>2011-11-13T08:27:13Z</time>
      </trkpt>
      <trkpt lat="47.57065" lon="-0.7559">
        <ele>89.06</ele>
        <time>2011-11-13T08:27:18Z</time>
      </trkpt>
      <trkpt lat="47.57069" lon="-0.75615">
        <ele>89.06</ele>
        <time>2011-11-13T08:27:21Z</time>
      </trkpt>
      <trkpt lat="47.57077" lon="-0.75647">
        <ele>88.1</ele>
        <time>2011-11-13T08:27:25Z</time>
      </trkpt>
      <trkpt lat="47.57083" lon="-0.75685">
        <ele>87.14</ele>
        <time>2011-11-13T08:27:29Z</time>
      </trkpt>
      <trkpt lat="47.57089" lon="-0.75712">
        <ele>85.69</ele>
        <time>2011-11-13T08:27:32Z</time>
      </trkpt>
      <trkpt lat="47.5709" lon="-0.75721">
        <ele>85.69</ele>
        <time>2011-11-13T08:27:33Z</time>
      </trkpt>
      <trkpt lat="47.57096" lon="-0.75754">
        <ele>86.18</ele>
        <time>2011-11-13T08:27:37Z</time>
      </trkpt>
      <trkpt lat="47.57103" lon="-0.75783">
        <ele>87.14</ele>
        <time>2011-11-13T08:27:41Z</time>
      </trkpt>
      <trkpt lat="47.5711" lon="-0.75821">
        <ele>88.58</ele>
        <time>2011-11-13T08:27:47Z</time>
      </trkpt>
      <trkpt lat="47.57117" lon="-0.75861">
        <ele>88.58</ele>
        <time>2011-11-13T08:27:53Z</time>
      </trkpt>
      <trkpt lat="47.57121" lon="-0.75882">
        <ele>88.58</ele>
        <time>2011-11-13T08:27:58Z</time>
      </trkpt>
      <trkpt lat="47.57121" lon="-0.75884">
        <ele>89.06</ele>
        <time>2011-11-13T08:27:59Z</time>
      </trkpt>
      <trkpt lat="47.57128" lon="-0.75911">
        <ele>89.06</ele>
        <time>2011-11-13T08:28:06Z</time>
      </trkpt>
      <trkpt lat="47.57138" lon="-0.75939">
        <ele>89.06</ele>
        <time>2011-11-13T08:28:10Z</time>
      </trkpt>
      <trkpt lat="47.57133" lon="-0.75976">
        <ele>89.54</ele>
        <time>2011-11-13T08:28:16Z</time>
      </trkpt>
      <trkpt lat="47.5713" lon="-0.75987">
        <ele>90.02</ele>
        <time>2011-11-13T08:28:18Z</time>
      </trkpt>
      <trkpt lat="47.57116" lon="-0.76011">
        <ele>90.02</ele>
        <time>2011-11-13T08:28:24Z</time>
      </trkpt>
      <trkpt lat="47.57115" lon="-0.76019">
        <ele>90.02</ele>
        <time>2011-11-13T08:28:26Z</time>
      </trkpt>
      <trkpt lat="47.57118" lon="-0.76032">
        <ele>90.02</ele>
        <time>2011-11-13T08:28:29Z</time>
      </trkpt>
      <trkpt lat="47.5711" lon="-0.76061">
        <ele>90.02</ele>
        <time>2011-11-13T08:28:34Z</time>
      </trkpt>
      <trkpt lat="47.57091" lon="-0.76081">
        <ele>90.5</ele>
        <time>2011-11-13T08:28:39Z</time>
      </trkpt>
      <trkpt lat="47.57088" lon="-0.76086">
        <ele>90.02</ele>
        <time>2011-11-13T08:28:40Z</time>
      </trkpt>
      <trkpt lat="47.57081" lon="-0.76095">
        <ele>90.02</ele>
        <time>2011-11-13T08:28:42Z</time>
      </trkpt>
      <trkpt lat="47.57068" lon="-0.76103">
        <ele>90.5</ele>
        <time>2011-11-13T08:28:45Z</time>
      </trkpt>
      <trkpt lat="47.57056" lon="-0.7613">
        <ele>90.5</ele>
        <time>2011-11-13T08:28:50Z</time>
      </trkpt>
      <trkpt lat="47.57062" lon="-0.76152">
        <ele>90.5</ele>
        <time>2011-11-13T08:28:54Z</time>
      </trkpt>
      <trkpt lat="47.57066" lon="-0.76162">
        <ele>90.98</ele>
        <time>2011-11-13T08:28:56Z</time>
      </trkpt>
      <trkpt lat="47.5708" lon="-0.76194">
        <ele>90.5</ele>
        <time>2011-11-13T08:29:02Z</time>
      </trkpt>
      <trkpt lat="47.57092" lon="-0.76215">
        <ele>90.5</ele>
        <time>2011-11-13T08:29:06Z</time>
      </trkpt>
      <trkpt lat="47.57111" lon="-0.76242">
        <ele>89.54</ele>
        <time>2011-11-13T08:29:12Z</time>
      </trkpt>
      <trkpt lat="47.57131" lon="-0.76268">
        <ele>89.54</ele>
        <time>2011-11-13T08:29:19Z</time>
      </trkpt>
      <trkpt lat="47.5714" lon="-0.76288">
        <ele>90.02</ele>
        <time>2011-11-13T08:29:23Z</time>
      </trkpt>
      <trkpt lat="47.57134" lon="-0.7632">
        <ele>90.02</ele>
        <time>2011-11-13T08:29:29Z</time>
      </trkpt>
      <trkpt lat="47.57126" lon="-0.76346">
        <ele>90.02</ele>
        <time>2011-11-13T08:29:34Z</time>
      </trkpt>
      <trkpt lat="47.57123" lon="-0.76351">
        <ele>90.02</ele>
        <time>2011-11-13T08:29:35Z</time>
      </trkpt>
      <trkpt lat="47.57106" lon="-0.76366">
        <ele>90.5</ele>
        <time>2011-11-13T08:29:40Z</time>
      </trkpt>
      <trkpt lat="47.57088" lon="-0.76377">
        <ele>90.5</ele>
        <time>2011-11-13T08:29:45Z</time>
      </trkpt>
      <trkpt lat="47.57066" lon="-0.76396">
        <ele>91.46</ele>
        <time>2011-11-13T08:29:51Z</time>
      </trkpt>
      <trkpt lat="47.5706" lon="-0.76404">
        <ele>91.46</ele>
        <time>2011-11-13T08:29:53Z</time>
      </trkpt>
      <trkpt lat="47.57043" lon="-0.76423">
        <ele>91.46</ele>
        <time>2011-11-13T08:29:59Z</time>
      </trkpt>
      <trkpt lat="47.57039" lon="-0.76426">
        <ele>91.94</ele>
        <time>2011-11-13T08:30:00Z</time>
      </trkpt>
      <trkpt lat="47.57014" lon="-0.76426">
        <ele>91.94</ele>
        <time>2011-11-13T08:30:06Z</time>
      </trkpt>
      <trkpt lat="47.5701" lon="-0.76424">
        <ele>92.42</ele>
        <time>2011-11-13T08:30:07Z</time>
      </trkpt>
      <trkpt lat="47.56993" lon="-0.76417">
        <ele>92.42</ele>
        <time>2011-11-13T08:30:11Z</time>
      </trkpt>
      <trkpt lat="47.56975" lon="-0.7641">
        <ele>92.9</ele>
        <time>2011-11-13T08:30:16Z</time>
      </trkpt>
      <trkpt lat="47.56958" lon="-0.76404">
        <ele>92.9</ele>
        <time>2011-11-13T08:30:21Z</time>
      </trkpt>
      <trkpt lat="47.56953" lon="-0.76401">
        <ele>92.9</ele>
        <time>2011-11-13T08:30:22Z</time>
      </trkpt>
      <trkpt lat="47.56933" lon="-0.7639">
        <ele>92.42</ele>
        <time>2011-11-13T08:30:26Z</time>
      </trkpt>
      <trkpt lat="47.56921" lon="-0.76395">
        <ele>92.42</ele>
        <time>2011-11-13T08:30:30Z</time>
      </trkpt>
      <trkpt lat="47.56921" lon="-0.764">
        <ele>92.42</ele>
        <time>2011-11-13T08:30:31Z</time>
      </trkpt>
      <trkpt lat="47.5692" lon="-0.76419">
        <ele>91.94</ele>
        <time>2011-11-13T08:30:34Z</time>
      </trkpt>
      <trkpt lat="47.5691" lon="-0.76457">
        <ele>91.94</ele>
        <time>2011-11-13T08:30:40Z</time>
      </trkpt>
      <trkpt lat="47.56907" lon="-0.76484">
        <ele>92.42</ele>
        <time>2011-11-13T08:30:44Z</time>
      </trkpt>
      <trkpt lat="47.56905" lon="-0.7651">
        <ele>92.42</ele>
        <time>2011-11-13T08:30:48Z</time>
      </trkpt>
      <trkpt lat="47.56901" lon="-0.7654">
        <ele>91.94</ele>
        <time>2011-11-13T08:30:52Z</time>
      </trkpt>
      <trkpt lat="47.56899" lon="-0.7656">
        <ele>92.42</ele>
        <time>2011-11-13T08:30:55Z</time>
      </trkpt>
      <trkpt lat="47.56892" lon="-0.76605">
        <ele>92.42</ele>
        <time>2011-11-13T08:31:01Z</time>
      </trkpt>
      <trkpt lat="47.5689" lon="-0.76627">
        <ele>91.94</ele>
        <time>2011-11-13T08:31:04Z</time>
      </trkpt>
      <trkpt lat="47.56889" lon="-0.76656">
        <ele>91.94</ele>
        <time>2011-11-13T08:31:09Z</time>
      </trkpt>
      <trkpt lat="47.56903" lon="-0.76656">
        <ele>91.94</ele>
        <time>2011-11-13T08:31:13Z</time>
      </trkpt>
      <trkpt lat="47.56942" lon="-0.76649">
        <ele>91.94</ele>
        <time>2011-11-13T08:31:22Z</time>
      </trkpt>
      <trkpt lat="47.56951" lon="-0.76649">
        <ele>91.94</ele>
        <time>2011-11-13T08:31:24Z</time>
      </trkpt>
      <trkpt lat="47.56968" lon="-0.76662">
        <ele>90.98</ele>
        <time>2011-11-13T08:31:28Z</time>
      </trkpt>
      <trkpt lat="47.56974" lon="-0.76674">
        <ele>91.46</ele>
        <time>2011-11-13T08:31:30Z</time>
      </trkpt>
      <trkpt lat="47.56988" lon="-0.76699">
        <ele>91.46</ele>
        <time>2011-11-13T08:31:34Z</time>
      </trkpt>
      <trkpt lat="47.56996" lon="-0.76712">
        <ele>91.46</ele>
        <time>2011-11-13T08:31:36Z</time>
      </trkpt>
      <trkpt lat="47.57006" lon="-0.76732">
        <ele>91.46</ele>
        <time>2011-11-13T08:31:39Z</time>
      </trkpt>
      <trkpt lat="47.57018" lon="-0.7675">
        <ele>91.94</ele>
        <time>2011-11-13T08:31:42Z</time>
      </trkpt>
      <trkpt lat="47.57035" lon="-0.76782">
        <ele>91.46</ele>
        <time>2011-11-13T08:31:47Z</time>
      </trkpt>
      <trkpt lat="47.57055" lon="-0.76823">
        <ele>91.46</ele>
        <time>2011-11-13T08:31:54Z</time>
      </trkpt>
      <trkpt lat="47.5707" lon="-0.76844">
        <ele>90.98</ele>
        <time>2011-11-13T08:31:58Z</time>
      </trkpt>
      <trkpt lat="47.57102" lon="-0.76894">
        <ele>90.5</ele>
        <time>2011-11-13T08:32:07Z</time>
      </trkpt>
      <trkpt lat="47.57115" lon="-0.76913">
        <ele>90.98</ele>
        <time>2011-11-13T08:32:11Z</time>
      </trkpt>
      <trkpt lat="47.5714" lon="-0.76949">
        <ele>90.98</ele>
        <time>2011-11-13T08:32:18Z</time>
      </trkpt>
      <trkpt lat="47.57166" lon="-0.76981">
        <ele>90.5</ele>
        <time>2011-11-13T08:32:24Z</time>
      </trkpt>
      <trkpt lat="47.57183" lon="-0.77007">
        <ele>91.46</ele>
        <time>2011-11-13T08:32:28Z</time>
      </trkpt>
      <trkpt lat="47.57189" lon="-0.77047">
        <ele>90.98</ele>
        <time>2011-11-13T08:32:33Z</time>
      </trkpt>
      <trkpt lat="47.5716" lon="-0.7714">
        <ele>90.02</ele>
        <time>2011-11-13T08:32:43Z</time>
      </trkpt>
      <trkpt lat="47.57142" lon="-0.77196">
        <ele>87.62</ele>
        <time>2011-11-13T08:32:49Z</time>
      </trkpt>
      <trkpt lat="47.57134" lon="-0.77218">
        <ele>86.18</ele>
        <time>2011-11-13T08:32:52Z</time>
      </trkpt>
      <trkpt lat="47.57139" lon="-0.77235">
        <ele>86.66</ele>
        <time>2011-11-13T08:32:55Z</time>
      </trkpt>
      <trkpt lat="47.57141" lon="-0.77241">
        <ele>86.66</ele>
        <time>2011-11-13T08:32:56Z</time>
      </trkpt>
      <trkpt lat="47.57166" lon="-0.77304">
        <ele>86.18</ele>
        <time>2011-11-13T08:33:05Z</time>
      </trkpt>
      <trkpt lat="47.57174" lon="-0.77336">
        <ele>86.18</ele>
        <time>2011-11-13T08:33:09Z</time>
      </trkpt>
      <trkpt lat="47.57181" lon="-0.77365">
        <ele>85.69</ele>
        <time>2011-11-13T08:33:13Z</time>
      </trkpt>
      <trkpt lat="47.57194" lon="-0.7739">
        <ele>85.21</ele>
        <time>2011-11-13T08:33:17Z</time>
      </trkpt>
      <trkpt lat="47.57202" lon="-0.7741">
        <ele>84.73</ele>
        <time>2011-11-13T08:33:20Z</time>
      </trkpt>
      <trkpt lat="47.57218" lon="-0.77433">
        <ele>84.25</ele>
        <time>2011-11-13T08:33:25Z</time>
      </trkpt>
      <trkpt lat="47.57226" lon="-0.77444">
        <ele>84.25</ele>
        <time>2011-11-13T08:33:27Z</time>
      </trkpt>
      <trkpt lat="47.57254" lon="-0.77484">
        <ele>83.77</ele>
        <time>2011-11-13T08:33:34Z</time>
      </trkpt>
      <trkpt lat="47.57266" lon="-0.77502">
        <ele>83.77</ele>
        <time>2011-11-13T08:33:37Z</time>
      </trkpt>
      <trkpt lat="47.57288" lon="-0.77552">
        <ele>83.77</ele>
        <time>2011-11-13T08:33:44Z</time>
      </trkpt>
      <trkpt lat="47.57305" lon="-0.77578">
        <ele>82.81</ele>
        <time>2011-11-13T08:33:48Z</time>
      </trkpt>
      <trkpt lat="47.57321" lon="-0.7761">
        <ele>82.81</ele>
        <time>2011-11-13T08:33:53Z</time>
      </trkpt>
      <trkpt lat="47.57329" lon="-0.77625">
        <ele>82.33</ele>
        <time>2011-11-13T08:33:56Z</time>
      </trkpt>
      <trkpt lat="47.57352" lon="-0.77646">
        <ele>81.85</ele>
        <time>2011-11-13T08:34:01Z</time>
      </trkpt>
      <trkpt lat="47.57366" lon="-0.7767">
        <ele>82.33</ele>
        <time>2011-11-13T08:34:05Z</time>
      </trkpt>
      <trkpt lat="47.57372" lon="-0.77684">
        <ele>81.37</ele>
        <time>2011-11-13T08:34:07Z</time>
      </trkpt>
      <trkpt lat="47.5738" lon="-0.77709">
        <ele>80.89</ele>
        <time>2011-11-13T08:34:11Z</time>
      </trkpt>
      <trkpt lat="47.57382" lon="-0.77726">
        <ele>81.37</ele>
        <time>2011-11-13T08:34:18Z</time>
      </trkpt>
      <trkpt lat="47.57382" lon="-0.77726">
        <ele>80.89</ele>
        <time>2011-11-13T08:34:20Z</time>
      </trkpt>
      <trkpt lat="47.57377" lon="-0.77727">
        <ele>81.37</ele>
        <time>2011-11-13T08:34:26Z</time>
      </trkpt>
      <trkpt lat="47.57363" lon="-0.77734">
        <ele>81.85</ele>
        <time>2011-11-13T08:34:32Z</time>
      </trkpt>
      <trkpt lat="47.57346" lon="-0.77743">
        <ele>82.81</ele>
        <time>2011-11-13T08:34:38Z</time>
      </trkpt>
      <trkpt lat="47.57326" lon="-0.7775">
        <ele>83.29</ele>
        <time>2011-11-13T08:34:44Z</time>
      </trkpt>
      <trkpt lat="47.57319" lon="-0.77754">
        <ele>83.77</ele>
        <time>2011-11-13T08:34:46Z</time>
      </trkpt>
      <trkpt lat="47.57304" lon="-0.77762">
        <ele>83.77</ele>
        <time>2011-11-13T08:34:50Z</time>
      </trkpt>
      <trkpt lat="47.57281" lon="-0.77774">
        <ele>84.73</ele>
        <time>2011-11-13T08:34:56Z</time>
      </trkpt>
      <trkpt lat="47.57261" lon="-0.77785">
        <ele>85.21</ele>
        <time>2011-11-13T08:35:02Z</time>
      </trkpt>
      <trkpt lat="47.57255" lon="-0.77787">
        <ele>84.73</ele>
        <time>2011-11-13T08:35:04Z</time>
      </trkpt>
      <trkpt lat="47.57233" lon="-0.77793">
        <ele>85.21</ele>
        <time>2011-11-13T08:35:11Z</time>
      </trkpt>
      <trkpt lat="47.5722" lon="-0.778">
        <ele>85.21</ele>
        <time>2011-11-13T08:35:18Z</time>
      </trkpt>
      <trkpt lat="47.57206" lon="-0.77807">
        <ele>85.21</ele>
        <time>2011-11-13T08:35:22Z</time>
      </trkpt>
      <trkpt lat="47.57198" lon="-0.7781">
        <ele>86.18</ele>
        <time>2011-11-13T08:35:24Z</time>
      </trkpt>
      <trkpt lat="47.57175" lon="-0.77822">
        <ele>86.66</ele>
        <time>2011-11-13T08:35:29Z</time>
      </trkpt>
      <trkpt lat="47.57152" lon="-0.77838">
        <ele>87.14</ele>
        <time>2011-11-13T08:35:36Z</time>
      </trkpt>
      <trkpt lat="47.57158" lon="-0.7787">
        <ele>87.62</ele>
        <time>2011-11-13T08:35:42Z</time>
      </trkpt>
      <trkpt lat="47.57165" lon="-0.77896">
        <ele>87.14</ele>
        <time>2011-11-13T08:35:47Z</time>
      </trkpt>
      <trkpt lat="47.57175" lon="-0.77941">
        <ele>86.18</ele>
        <time>2011-11-13T08:35:53Z</time>
      </trkpt>
      <trkpt lat="47.57177" lon="-0.77958">
        <ele>86.18</ele>
        <time>2011-11-13T08:35:55Z</time>
      </trkpt>
      <trkpt lat="47.57184" lon="-0.77994">
        <ele>86.18</ele>
        <time>2011-11-13T08:35:59Z</time>
      </trkpt>
      <trkpt lat="47.57189" lon="-0.78022">
        <ele>85.69</ele>
        <time>2011-11-13T08:36:02Z</time>
      </trkpt>
      <trkpt lat="47.57197" lon="-0.78056">
        <ele>84.73</ele>
        <time>2011-11-13T08:36:06Z</time>
      </trkpt>
      <trkpt lat="47.57209" lon="-0.78117">
        <ele>84.73</ele>
        <time>2011-11-13T08:36:13Z</time>
      </trkpt>
      <trkpt lat="47.57218" lon="-0.78163">
        <ele>83.29</ele>
        <time>2011-11-13T08:36:18Z</time>
      </trkpt>
      <trkpt lat="47.57223" lon="-0.78204">
        <ele>83.77</ele>
        <time>2011-11-13T08:36:22Z</time>
      </trkpt>
      <trkpt lat="47.57238" lon="-0.78288">
        <ele>83.29</ele>
        <time>2011-11-13T08:36:30Z</time>
      </trkpt>
      <trkpt lat="47.57245" lon="-0.78327">
        <ele>82.81</ele>
        <time>2011-11-13T08:36:34Z</time>
      </trkpt>
      <trkpt lat="47.57254" lon="-0.78377">
        <ele>82.81</ele>
        <time>2011-11-13T08:36:39Z</time>
      </trkpt>
      <trkpt lat="47.57262" lon="-0.78415">
        <ele>81.85</ele>
        <time>2011-11-13T08:36:43Z</time>
      </trkpt>
      <trkpt lat="47.57273" lon="-0.78468">
        <ele>81.85</ele>
        <time>2011-11-13T08:36:49Z</time>
      </trkpt>
      <trkpt lat="47.57279" lon="-0.78494">
        <ele>81.85</ele>
        <time>2011-11-13T08:36:53Z</time>
      </trkpt>
      <trkpt lat="47.57278" lon="-0.78517">
        <ele>81.85</ele>
        <time>2011-11-13T08:36:57Z</time>
      </trkpt>
      <trkpt lat="47.57265" lon="-0.78529">
        <ele>82.33</ele>
        <time>2011-11-13T08:37:02Z</time>
      </trkpt>
      <trkpt lat="47.57242" lon="-0.78542">
        <ele>82.81</ele>
        <time>2011-11-13T08:37:10Z</time>
      </trkpt>
      <trkpt lat="47.57219" lon="-0.78551">
        <ele>83.29</ele>
        <time>2011-11-13T08:37:17Z</time>
      </trkpt>
      <trkpt lat="47.57195" lon="-0.78558">
        <ele>84.73</ele>
        <time>2011-11-13T08:37:23Z</time>
      </trkpt>
      <trkpt lat="47.57183" lon="-0.78561">
        <ele>84.73</ele>
        <time>2011-11-13T08:37:26Z</time>
      </trkpt>
      <trkpt lat="47.57155" lon="-0.78566">
        <ele>85.21</ele>
        <time>2011-11-13T08:37:32Z</time>
      </trkpt>
      <trkpt lat="47.57131" lon="-0.78573">
        <ele>85.69</ele>
        <time>2011-11-13T08:37:37Z</time>
      </trkpt>
      <trkpt lat="47.57112" lon="-0.78576">
        <ele>86.18</ele>
        <time>2011-11-13T08:37:41Z</time>
      </trkpt>
      <trkpt lat="47.57102" lon="-0.78574">
        <ele>85.69</ele>
        <time>2011-11-13T08:37:43Z</time>
      </trkpt>
      <trkpt lat="47.57086" lon="-0.78564">
        <ele>85.69</ele>
        <time>2011-11-13T08:37:47Z</time>
      </trkpt>
      <trkpt lat="47.57069" lon="-0.78546">
        <ele>86.18</ele>
        <time>2011-11-13T08:37:52Z</time>
      </trkpt>
      <trkpt lat="47.57059" lon="-0.78523">
        <ele>86.18</ele>
        <time>2011-11-13T08:37:56Z</time>
      </trkpt>
      <trkpt lat="47.57051" lon="-0.78493">
        <ele>86.18</ele>
        <time>2011-11-13T08:38:01Z</time>
      </trkpt>
      <trkpt lat="47.57041" lon="-0.78437">
        <ele>87.14</ele>
        <time>2011-11-13T08:38:09Z</time>
      </trkpt>
      <trkpt lat="47.57034" lon="-0.7841">
        <ele>87.14</ele>
        <time>2011-11-13T08:38:13Z</time>
      </trkpt>
      <trkpt lat="47.5703" lon="-0.78389">
        <ele>87.14</ele>
        <time>2011-11-13T08:38:16Z</time>
      </trkpt>
      <trkpt lat="47.57025" lon="-0.78361">
        <ele>87.62</ele>
        <time>2011-11-13T08:38:20Z</time>
      </trkpt>
      <trkpt lat="47.57015" lon="-0.78305">
        <ele>88.1</ele>
        <time>2011-11-13T08:38:28Z</time>
      </trkpt>
      <trkpt lat="47.57013" lon="-0.78299">
        <ele>88.1</ele>
        <time>2011-11-13T08:38:29Z</time>
      </trkpt>
      <trkpt lat="47.57005" lon="-0.78263">
        <ele>88.58</ele>
        <time>2011-11-13T08:38:34Z</time>
      </trkpt>
      <trkpt lat="47.57001" lon="-0.78242">
        <ele>89.06</ele>
        <time>2011-11-13T08:38:37Z</time>
      </trkpt>
      <trkpt lat="47.56991" lon="-0.78194">
        <ele>90.98</ele>
        <time>2011-11-13T08:38:44Z</time>
      </trkpt>
      <trkpt lat="47.56986" lon="-0.78167">
        <ele>90.5</ele>
        <time>2011-11-13T08:38:48Z</time>
      </trkpt>
      <trkpt lat="47.56979" lon="-0.78125">
        <ele>90.98</ele>
        <time>2011-11-13T08:38:54Z</time>
      </trkpt>
      <trkpt lat="47.5697" lon="-0.78078">
        <ele>90.98</ele>
        <time>2011-11-13T08:39:01Z</time>
      </trkpt>
      <trkpt lat="47.56969" lon="-0.78071">
        <ele>91.46</ele>
        <time>2011-11-13T08:39:02Z</time>
      </trkpt>
      <trkpt lat="47.56966" lon="-0.78058">
        <ele>91.46</ele>
        <time>2011-11-13T08:39:04Z</time>
      </trkpt>
      <trkpt lat="47.5696" lon="-0.78019">
        <ele>91.94</ele>
        <time>2011-11-13T08:39:10Z</time>
      </trkpt>
      <trkpt lat="47.56952" lon="-0.77974">
        <ele>91.94</ele>
        <time>2011-11-13T08:39:16Z</time>
      </trkpt>
      <trkpt lat="47.56947" lon="-0.77952">
        <ele>91.94</ele>
        <time>2011-11-13T08:39:19Z</time>
      </trkpt>
      <trkpt lat="47.56935" lon="-0.77939">
        <ele>90.98</ele>
        <time>2011-11-13T08:39:23Z</time>
      </trkpt>
      <trkpt lat="47.56925" lon="-0.7795">
        <ele>90.5</ele>
        <time>2011-11-13T08:39:27Z</time>
      </trkpt>
      <trkpt lat="47.56924" lon="-0.77953">
        <ele>90.5</ele>
        <time>2011-11-13T08:39:28Z</time>
      </trkpt>
      <trkpt lat="47.56923" lon="-0.77963">
        <ele>90.5</ele>
        <time>2011-11-13T08:39:30Z</time>
      </trkpt>
      <trkpt lat="47.56925" lon="-0.77982">
        <ele>90.5</ele>
        <time>2011-11-13T08:39:34Z</time>
      </trkpt>
      <trkpt lat="47.56931" lon="-0.78001">
        <ele>90.5</ele>
        <time>2011-11-13T08:39:38Z</time>
      </trkpt>
      <trkpt lat="47.56933" lon="-0.78021">
        <ele>90.5</ele>
        <time>2011-11-13T08:39:41Z</time>
      </trkpt>
      <trkpt lat="47.56941" lon="-0.78066">
        <ele>90.5</ele>
        <time>2011-11-13T08:39:48Z</time>
      </trkpt>
      <trkpt lat="47.56948" lon="-0.78096">
        <ele>89.54</ele>
        <time>2011-11-13T08:39:53Z</time>
      </trkpt>
      <trkpt lat="47.56952" lon="-0.78124">
        <ele>89.54</ele>
        <time>2011-11-13T08:39:58Z</time>
      </trkpt>
      <trkpt lat="47.56951" lon="-0.78148">
        <ele>89.06</ele>
        <time>2011-11-13T08:40:03Z</time>
      </trkpt>
      <trkpt lat="47.56934" lon="-0.78172">
        <ele>88.1</ele>
        <time>2011-11-13T08:40:09Z</time>
      </trkpt>
      <trkpt lat="47.56921" lon="-0.78184">
        <ele>87.62</ele>
        <time>2011-11-13T08:40:13Z</time>
      </trkpt>
      <trkpt lat="47.56912" lon="-0.78191">
        <ele>88.1</ele>
        <time>2011-11-13T08:40:15Z</time>
      </trkpt>
      <trkpt lat="47.56878" lon="-0.78215">
        <ele>86.66</ele>
        <time>2011-11-13T08:40:22Z</time>
      </trkpt>
      <trkpt lat="47.5685" lon="-0.78231">
        <ele>86.18</ele>
        <time>2011-11-13T08:40:28Z</time>
      </trkpt>
      <trkpt lat="47.56833" lon="-0.78238">
        <ele>84.73</ele>
        <time>2011-11-13T08:40:31Z</time>
      </trkpt>
      <trkpt lat="47.5682" lon="-0.78226">
        <ele>84.25</ele>
        <time>2011-11-13T08:40:35Z</time>
      </trkpt>
      <trkpt lat="47.56819" lon="-0.78216">
        <ele>84.25</ele>
        <time>2011-11-13T08:40:38Z</time>
      </trkpt>
      <trkpt lat="47.56816" lon="-0.78209">
        <ele>84.25</ele>
        <time>2011-11-13T08:40:40Z</time>
      </trkpt>
      <trkpt lat="47.56804" lon="-0.78189">
        <ele>85.21</ele>
        <time>2011-11-13T08:40:45Z</time>
      </trkpt>
      <trkpt lat="47.56793" lon="-0.78151">
        <ele>85.69</ele>
        <time>2011-11-13T08:40:51Z</time>
      </trkpt>
      <trkpt lat="47.56792" lon="-0.78144">
        <ele>85.69</ele>
        <time>2011-11-13T08:40:52Z</time>
      </trkpt>
      <trkpt lat="47.56782" lon="-0.78102">
        <ele>85.69</ele>
        <time>2011-11-13T08:40:58Z</time>
      </trkpt>
      <trkpt lat="47.56779" lon="-0.78097">
        <ele>86.18</ele>
        <time>2011-11-13T08:40:59Z</time>
      </trkpt>
      <trkpt lat="47.56773" lon="-0.78078">
        <ele>86.18</ele>
        <time>2011-11-13T08:41:02Z</time>
      </trkpt>
      <trkpt lat="47.56763" lon="-0.78055">
        <ele>86.18</ele>
        <time>2011-11-13T08:41:06Z</time>
      </trkpt>
      <trkpt lat="47.56751" lon="-0.78017">
        <ele>86.18</ele>
        <time>2011-11-13T08:41:13Z</time>
      </trkpt>
      <trkpt lat="47.56749" lon="-0.78013">
        <ele>86.18</ele>
        <time>2011-11-13T08:41:14Z</time>
      </trkpt>
      <trkpt lat="47.56734" lon="-0.77997">
        <ele>86.18</ele>
        <time>2011-11-13T08:41:20Z</time>
      </trkpt>
      <trkpt lat="47.56726" lon="-0.77979">
        <ele>86.66</ele>
        <time>2011-11-13T08:41:23Z</time>
      </trkpt>
      <trkpt lat="47.56709" lon="-0.77932">
        <ele>86.66</ele>
        <time>2011-11-13T08:41:30Z</time>
      </trkpt>
      <trkpt lat="47.56701" lon="-0.77908">
        <ele>87.14</ele>
        <time>2011-11-13T08:41:34Z</time>
      </trkpt>
      <trkpt lat="47.56689" lon="-0.77879">
        <ele>87.14</ele>
        <time>2011-11-13T08:41:39Z</time>
      </trkpt>
      <trkpt lat="47.56677" lon="-0.77843">
        <ele>87.14</ele>
        <time>2011-11-13T08:41:45Z</time>
      </trkpt>
      <trkpt lat="47.56668" lon="-0.77818">
        <ele>87.14</ele>
        <time>2011-11-13T08:41:49Z</time>
      </trkpt>
      <trkpt lat="47.56661" lon="-0.77799">
        <ele>87.62</ele>
        <time>2011-11-13T08:41:52Z</time>
      </trkpt>
      <trkpt lat="47.56657" lon="-0.77786">
        <ele>87.62</ele>
        <time>2011-11-13T08:41:54Z</time>
      </trkpt>
      <trkpt lat="47.56638" lon="-0.77736">
        <ele>88.1</ele>
        <time>2011-11-13T08:42:02Z</time>
      </trkpt>
      <trkpt lat="47.56635" lon="-0.77729">
        <ele>88.58</ele>
        <time>2011-11-13T08:42:03Z</time>
      </trkpt>
      <trkpt lat="47.56626" lon="-0.77687">
        <ele>88.1</ele>
        <time>2011-11-13T08:42:09Z</time>
      </trkpt>
      <trkpt lat="47.56623" lon="-0.77675">
        <ele>88.1</ele>
        <time>2011-11-13T08:42:11Z</time>
      </trkpt>
      <trkpt lat="47.56618" lon="-0.77646">
        <ele>88.58</ele>
        <time>2011-11-13T08:42:15Z</time>
      </trkpt>
      <trkpt lat="47.56613" lon="-0.77604">
        <ele>88.58</ele>
        <time>2011-11-13T08:42:21Z</time>
      </trkpt>
      <trkpt lat="47.56609" lon="-0.77576">
        <ele>89.06</ele>
        <time>2011-11-13T08:42:26Z</time>
      </trkpt>
      <trkpt lat="47.56609" lon="-0.77569">
        <ele>89.54</ele>
        <time>2011-11-13T08:42:27Z</time>
      </trkpt>
      <trkpt lat="47.56607" lon="-0.7752">
        <ele>89.06</ele>
        <time>2011-11-13T08:42:34Z</time>
      </trkpt>
      <trkpt lat="47.56607" lon="-0.77513">
        <ele>89.06</ele>
        <time>2011-11-13T08:42:35Z</time>
      </trkpt>
      <trkpt lat="47.566" lon="-0.77485">
        <ele>89.54</ele>
        <time>2011-11-13T08:42:39Z</time>
      </trkpt>
      <trkpt lat="47.56582" lon="-0.77443">
        <ele>89.54</ele>
        <time>2011-11-13T08:42:46Z</time>
      </trkpt>
      <trkpt lat="47.56579" lon="-0.77438">
        <ele>89.54</ele>
        <time>2011-11-13T08:42:47Z</time>
      </trkpt>
      <trkpt lat="47.56566" lon="-0.77414">
        <ele>89.06</ele>
        <time>2011-11-13T08:42:51Z</time>
      </trkpt>
      <trkpt lat="47.56559" lon="-0.77393">
        <ele>89.54</ele>
        <time>2011-11-13T08:42:54Z</time>
      </trkpt>
      <trkpt lat="47.56546" lon="-0.77357">
        <ele>89.54</ele>
        <time>2011-11-13T08:42:59Z</time>
      </trkpt>
      <trkpt lat="47.56537" lon="-0.77325">
        <ele>90.02</ele>
        <time>2011-11-13T08:43:03Z</time>
      </trkpt>
      <trkpt lat="47.56534" lon="-0.77301">
        <ele>90.5</ele>
        <time>2011-11-13T08:43:06Z</time>
      </trkpt>
      <trkpt lat="47.56525" lon="-0.77267">
        <ele>90.02</ele>
        <time>2011-11-13T08:43:11Z</time>
      </trkpt>
      <trkpt lat="47.56521" lon="-0.77252">
        <ele>90.02</ele>
        <time>2011-11-13T08:43:13Z</time>
      </trkpt>
      <trkpt lat="47.56517" lon="-0.77227">
        <ele>90.5</ele>
        <time>2011-11-13T08:43:16Z</time>
      </trkpt>
      <trkpt lat="47.56512" lon="-0.77185">
        <ele>90.98</ele>
        <time>2011-11-13T08:43:21Z</time>
      </trkpt>
      <trkpt lat="47.56509" lon="-0.77162">
        <ele>91.46</ele>
        <time>2011-11-13T08:43:24Z</time>
      </trkpt>
      <trkpt lat="47.56503" lon="-0.77141">
        <ele>90.5</ele>
        <time>2011-11-13T08:43:27Z</time>
      </trkpt>
      <trkpt lat="47.56497" lon="-0.7712">
        <ele>90.98</ele>
        <time>2011-11-13T08:43:30Z</time>
      </trkpt>
      <trkpt lat="47.56489" lon="-0.77083">
        <ele>90.5</ele>
        <time>2011-11-13T08:43:35Z</time>
      </trkpt>
      <trkpt lat="47.56485" lon="-0.77068">
        <ele>90.98</ele>
        <time>2011-11-13T08:43:37Z</time>
      </trkpt>
      <trkpt lat="47.56475" lon="-0.77017">
        <ele>91.46</ele>
        <time>2011-11-13T08:43:43Z</time>
      </trkpt>
      <trkpt lat="47.56467" lon="-0.76971">
        <ele>91.94</ele>
        <time>2011-11-13T08:43:49Z</time>
      </trkpt>
      <trkpt lat="47.56466" lon="-0.76963">
        <ele>92.42</ele>
        <time>2011-11-13T08:43:50Z</time>
      </trkpt>
      <trkpt lat="47.56456" lon="-0.76913">
        <ele>92.42</ele>
        <time>2011-11-13T08:43:56Z</time>
      </trkpt>
      <trkpt lat="47.56454" lon="-0.76904">
        <ele>92.42</ele>
        <time>2011-11-13T08:43:57Z</time>
      </trkpt>
      <trkpt lat="47.56444" lon="-0.76858">
        <ele>92.42</ele>
        <time>2011-11-13T08:44:03Z</time>
      </trkpt>
      <trkpt lat="47.56438" lon="-0.76827">
        <ele>92.42</ele>
        <time>2011-11-13T08:44:07Z</time>
      </trkpt>
      <trkpt lat="47.56433" lon="-0.76805">
        <ele>92.9</ele>
        <time>2011-11-13T08:44:10Z</time>
      </trkpt>
      <trkpt lat="47.56431" lon="-0.7679">
        <ele>93.39</ele>
        <time>2011-11-13T08:44:12Z</time>
      </trkpt>
      <trkpt lat="47.56426" lon="-0.76757">
        <ele>93.39</ele>
        <time>2011-11-13T08:44:16Z</time>
      </trkpt>
      <trkpt lat="47.5642" lon="-0.76734">
        <ele>93.39</ele>
        <time>2011-11-13T08:44:19Z</time>
      </trkpt>
      <trkpt lat="47.56414" lon="-0.76703">
        <ele>93.87</ele>
        <time>2011-11-13T08:44:23Z</time>
      </trkpt>
      <trkpt lat="47.5641" lon="-0.76688">
        <ele>93.87</ele>
        <time>2011-11-13T08:44:25Z</time>
      </trkpt>
      <trkpt lat="47.56402" lon="-0.76638">
        <ele>94.35</ele>
        <time>2011-11-13T08:44:31Z</time>
      </trkpt>
      <trkpt lat="47.56395" lon="-0.76613">
        <ele>94.35</ele>
        <time>2011-11-13T08:44:34Z</time>
      </trkpt>
      <trkpt lat="47.56385" lon="-0.76564">
        <ele>94.83</ele>
        <time>2011-11-13T08:44:40Z</time>
      </trkpt>
      <trkpt lat="47.56379" lon="-0.76538">
        <ele>94.83</ele>
        <time>2011-11-13T08:44:43Z</time>
      </trkpt>
      <trkpt lat="47.56369" lon="-0.76496">
        <ele>95.79</ele>
        <time>2011-11-13T08:44:48Z</time>
      </trkpt>
      <trkpt lat="47.56366" lon="-0.76479">
        <ele>95.31</ele>
        <time>2011-11-13T08:44:50Z</time>
      </trkpt>
      <trkpt lat="47.56356" lon="-0.76436">
        <ele>95.31</ele>
        <time>2011-11-13T08:44:55Z</time>
      </trkpt>
      <trkpt lat="47.56346" lon="-0.76396">
        <ele>95.79</ele>
        <time>2011-11-13T08:45:00Z</time>
      </trkpt>
      <trkpt lat="47.56339" lon="-0.76358">
        <ele>96.27</ele>
        <time>2011-11-13T08:45:04Z</time>
      </trkpt>
      <trkpt lat="47.56336" lon="-0.76339">
        <ele>95.79</ele>
        <time>2011-11-13T08:45:06Z</time>
      </trkpt>
      <trkpt lat="47.5633" lon="-0.76301">
        <ele>96.27</ele>
        <time>2011-11-13T08:45:10Z</time>
      </trkpt>
      <trkpt lat="47.56323" lon="-0.76265">
        <ele>96.27</ele>
        <time>2011-11-13T08:45:14Z</time>
      </trkpt>
      <trkpt lat="47.56311" lon="-0.76207">
        <ele>96.27</ele>
        <time>2011-11-13T08:45:21Z</time>
      </trkpt>
      <trkpt lat="47.56301" lon="-0.76163">
        <ele>95.79</ele>
        <time>2011-11-13T08:45:27Z</time>
      </trkpt>
      <trkpt lat="47.5629" lon="-0.76112">
        <ele>96.27</ele>
        <time>2011-11-13T08:45:34Z</time>
      </trkpt>
      <trkpt lat="47.56283" lon="-0.76071">
        <ele>96.27</ele>
        <time>2011-11-13T08:45:39Z</time>
      </trkpt>
      <trkpt lat="47.56278" lon="-0.76048">
        <ele>95.79</ele>
        <time>2011-11-13T08:45:42Z</time>
      </trkpt>
      <trkpt lat="47.56265" lon="-0.75988">
        <ele>96.27</ele>
        <time>2011-11-13T08:45:49Z</time>
      </trkpt>
      <trkpt lat="47.56255" lon="-0.75933">
        <ele>96.75</ele>
        <time>2011-11-13T08:45:55Z</time>
      </trkpt>
      <trkpt lat="47.56242" lon="-0.75874">
        <ele>96.75</ele>
        <time>2011-11-13T08:46:01Z</time>
      </trkpt>
      <trkpt lat="47.56234" lon="-0.75832">
        <ele>97.23</ele>
        <time>2011-11-13T08:46:05Z</time>
      </trkpt>
      <trkpt lat="47.56227" lon="-0.75802">
        <ele>97.23</ele>
        <time>2011-11-13T08:46:08Z</time>
      </trkpt>
      <trkpt lat="47.56212" lon="-0.75715">
        <ele>97.71</ele>
        <time>2011-11-13T08:46:16Z</time>
      </trkpt>
      <trkpt lat="47.56208" lon="-0.75693">
        <ele>97.23</ele>
        <time>2011-11-13T08:46:18Z</time>
      </trkpt>
      <trkpt lat="47.56195" lon="-0.7563">
        <ele>97.23</ele>
        <time>2011-11-13T08:46:24Z</time>
      </trkpt>
      <trkpt lat="47.56187" lon="-0.75599">
        <ele>97.23</ele>
        <time>2011-11-13T08:46:27Z</time>
      </trkpt>
      <trkpt lat="47.56176" lon="-0.75537">
        <ele>97.23</ele>
        <time>2011-11-13T08:46:33Z</time>
      </trkpt>
      <trkpt lat="47.56166" lon="-0.75477">
        <ele>97.23</ele>
        <time>2011-11-13T08:46:39Z</time>
      </trkpt>
      <trkpt lat="47.56164" lon="-0.75466">
        <ele>97.23</ele>
        <time>2011-11-13T08:46:40Z</time>
      </trkpt>
      <trkpt lat="47.56157" lon="-0.75439">
        <ele>97.71</ele>
        <time>2011-11-13T08:46:43Z</time>
      </trkpt>
      <trkpt lat="47.56148" lon="-0.75404">
        <ele>97.71</ele>
        <time>2011-11-13T08:46:47Z</time>
      </trkpt>
      <trkpt lat="47.56138" lon="-0.75335">
        <ele>98.19</ele>
        <time>2011-11-13T08:46:54Z</time>
      </trkpt>
      <trkpt lat="47.56136" lon="-0.75325">
        <ele>97.71</ele>
        <time>2011-11-13T08:46:55Z</time>
      </trkpt>
      <trkpt lat="47.5613" lon="-0.75294">
        <ele>98.19</ele>
        <time>2011-11-13T08:46:59Z</time>
      </trkpt>
      <trkpt lat="47.56126" lon="-0.75279">
        <ele>97.71</ele>
        <time>2011-11-13T08:47:01Z</time>
      </trkpt>
      <trkpt lat="47.56118" lon="-0.75245">
        <ele>98.19</ele>
        <time>2011-11-13T08:47:06Z</time>
      </trkpt>
      <trkpt lat="47.56113" lon="-0.7522">
        <ele>97.23</ele>
        <time>2011-11-13T08:47:10Z</time>
      </trkpt>
      <trkpt lat="47.56108" lon="-0.75202">
        <ele>96.75</ele>
        <time>2011-11-13T08:47:16Z</time>
      </trkpt>
      <trkpt lat="47.56106" lon="-0.75202">
        <ele>96.75</ele>
        <time>2011-11-13T08:47:23Z</time>
      </trkpt>
      <trkpt lat="47.56106" lon="-0.75202">
        <ele>96.27</ele>
        <time>2011-11-13T08:47:37Z</time>
      </trkpt>
      <trkpt lat="47.56106" lon="-0.75202">
        <ele>97.23</ele>
        <time>2011-11-13T08:47:52Z</time>
      </trkpt>
      <trkpt lat="47.56106" lon="-0.75202">
        <ele>97.23</ele>
        <time>2011-11-13T08:48:05Z</time>
      </trkpt>
      <trkpt lat="47.56106" lon="-0.75202">
        <ele>97.71</ele>
        <time>2011-11-13T08:48:14Z</time>
      </trkpt>
      <trkpt lat="47.56106" lon="-0.75202">
        <ele>97.23</ele>
        <time>2011-11-13T08:48:31Z</time>
      </trkpt>
      <trkpt lat="47.56107" lon="-0.75202">
        <ele>97.23</ele>
        <time>2011-11-13T08:48:45Z</time>
      </trkpt>
      <trkpt lat="47.56107" lon="-0.75202">
        <ele>97.23</ele>
        <time>2011-11-13T08:48:56Z</time>
      </trkpt>
      <trkpt lat="47.56107" lon="-0.75202">
        <ele>97.71</ele>
        <time>2011-11-13T08:49:13Z</time>
      </trkpt>
      <trkpt lat="47.56107" lon="-0.75203">
        <ele>98.19</ele>
        <time>2011-11-13T08:49:25Z</time>
      </trkpt>
      <trkpt lat="47.56107" lon="-0.75203">
        <ele>98.19</ele>
        <time>2011-11-13T08:49:38Z</time>
      </trkpt>
      <trkpt lat="47.56107" lon="-0.75203">
        <ele>98.19</ele>
        <time>2011-11-13T08:49:54Z</time>
      </trkpt>
      <trkpt lat="47.56107" lon="-0.75203">
        <ele>96.27</ele>
        <time>2011-11-13T08:50:08Z</time>
      </trkpt>
      <trkpt lat="47.56107" lon="-0.75203">
        <ele>100.11</ele>
        <time>2011-11-13T08:50:10Z</time>
      </trkpt>
      <trkpt lat="47.56107" lon="-0.75203">
        <ele>95.79</ele>
        <time>2011-11-13T08:50:13Z</time>
      </trkpt>
      <trkpt lat="47.56107" lon="-0.75203">
        <ele>100.11</ele>
        <time>2011-11-13T08:50:14Z</time>
      </trkpt>
      <trkpt lat="47.56107" lon="-0.75203">
        <ele>96.75</ele>
        <time>2011-11-13T08:50:23Z</time>
      </trkpt>
      <trkpt lat="47.56107" lon="-0.75204">
        <ele>98.67</ele>
        <time>2011-11-13T08:50:40Z</time>
      </trkpt>
      <trkpt lat="47.56107" lon="-0.75204">
        <ele>98.67</ele>
        <time>2011-11-13T08:50:53Z</time>
      </trkpt>
      <trkpt lat="47.56107" lon="-0.75204">
        <ele>98.67</ele>
        <time>2011-11-13T08:51:06Z</time>
      </trkpt>
      <trkpt lat="47.56106" lon="-0.75204">
        <ele>98.67</ele>
        <time>2011-11-13T08:51:08Z</time>
      </trkpt>
      <trkpt lat="47.56099" lon="-0.75208">
        <ele>98.67</ele>
        <time>2011-11-13T08:51:12Z</time>
      </trkpt>
      <trkpt lat="47.56082" lon="-0.75212">
        <ele>99.15</ele>
        <time>2011-11-13T08:51:17Z</time>
      </trkpt>
      <trkpt lat="47.5607" lon="-0.75215">
        <ele>99.15</ele>
        <time>2011-11-13T08:51:20Z</time>
      </trkpt>
      <trkpt lat="47.56064" lon="-0.75197">
        <ele>100.11</ele>
        <time>2011-11-13T08:51:24Z</time>
      </trkpt>
      <trkpt lat="47.56068" lon="-0.75178">
        <ele>99.15</ele>
        <time>2011-11-13T08:51:27Z</time>
      </trkpt>
      <trkpt lat="47.56082" lon="-0.7512">
        <ele>98.19</ele>
        <time>2011-11-13T08:51:34Z</time>
      </trkpt>
      <trkpt lat="47.56088" lon="-0.75094">
        <ele>97.71</ele>
        <time>2011-11-13T08:51:37Z</time>
      </trkpt>
      <trkpt lat="47.56103" lon="-0.75036">
        <ele>97.71</ele>
        <time>2011-11-13T08:51:43Z</time>
      </trkpt>
      <trkpt lat="47.56125" lon="-0.74956">
        <ele>95.79</ele>
        <time>2011-11-13T08:51:51Z</time>
      </trkpt>
      <trkpt lat="47.56138" lon="-0.74909">
        <ele>95.31</ele>
        <time>2011-11-13T08:51:56Z</time>
      </trkpt>
      <trkpt lat="47.56145" lon="-0.74883">
        <ele>95.31</ele>
        <time>2011-11-13T08:51:59Z</time>
      </trkpt>
      <trkpt lat="47.5615" lon="-0.74868">
        <ele>95.31</ele>
        <time>2011-11-13T08:52:01Z</time>
      </trkpt>
      <trkpt lat="47.56156" lon="-0.74831">
        <ele>95.31</ele>
        <time>2011-11-13T08:52:07Z</time>
      </trkpt>
      <trkpt lat="47.56164" lon="-0.74816">
        <ele>94.83</ele>
        <time>2011-11-13T08:52:10Z</time>
      </trkpt>
      <trkpt lat="47.56168" lon="-0.74797">
        <ele>95.31</ele>
        <time>2011-11-13T08:52:13Z</time>
      </trkpt>
      <trkpt lat="47.56175" lon="-0.74779">
        <ele>95.31</ele>
        <time>2011-11-13T08:52:16Z</time>
      </trkpt>
      <trkpt lat="47.56178" lon="-0.74766">
        <ele>95.31</ele>
        <time>2011-11-13T08:52:18Z</time>
      </trkpt>
      <trkpt lat="47.56187" lon="-0.74738">
        <ele>95.31</ele>
        <time>2011-11-13T08:52:24Z</time>
      </trkpt>
      <trkpt lat="47.56189" lon="-0.74716">
        <ele>95.31</ele>
        <time>2011-11-13T08:52:28Z</time>
      </trkpt>
      <trkpt lat="47.5618" lon="-0.74711">
        <ele>94.83</ele>
        <time>2011-11-13T08:52:32Z</time>
      </trkpt>
      <trkpt lat="47.56176" lon="-0.74713">
        <ele>94.83</ele>
        <time>2011-11-13T08:52:33Z</time>
      </trkpt>
      <trkpt lat="47.56161" lon="-0.74718">
        <ele>94.83</ele>
        <time>2011-11-13T08:52:36Z</time>
      </trkpt>
      <trkpt lat="47.56131" lon="-0.74732">
        <ele>93.87</ele>
        <time>2011-11-13T08:52:42Z</time>
      </trkpt>
      <trkpt lat="47.56106" lon="-0.74742">
        <ele>93.87</ele>
        <time>2011-11-13T08:52:47Z</time>
      </trkpt>
      <trkpt lat="47.56101" lon="-0.74744">
        <ele>93.39</ele>
        <time>2011-11-13T08:52:48Z</time>
      </trkpt>
      <trkpt lat="47.56093" lon="-0.74747">
        <ele>93.39</ele>
        <time>2011-11-13T08:52:50Z</time>
      </trkpt>
      <trkpt lat="47.56084" lon="-0.74732">
        <ele>92.9</ele>
        <time>2011-11-13T08:52:54Z</time>
      </trkpt>
      <trkpt lat="47.56076" lon="-0.74695">
        <ele>92.9</ele>
        <time>2011-11-13T08:52:59Z</time>
      </trkpt>
      <trkpt lat="47.56075" lon="-0.74678">
        <ele>92.9</ele>
        <time>2011-11-13T08:53:01Z</time>
      </trkpt>
      <trkpt lat="47.56076" lon="-0.74655">
        <ele>92.9</ele>
        <time>2011-11-13T08:53:04Z</time>
      </trkpt>
      <trkpt lat="47.56086" lon="-0.74607">
        <ele>91.94</ele>
        <time>2011-11-13T08:53:11Z</time>
      </trkpt>
      <trkpt lat="47.56091" lon="-0.74594">
        <ele>93.39</ele>
        <time>2011-11-13T08:53:13Z</time>
      </trkpt>
      <trkpt lat="47.56104" lon="-0.7457">
        <ele>93.39</ele>
        <time>2011-11-13T08:53:17Z</time>
      </trkpt>
      <trkpt lat="47.56112" lon="-0.74551">
        <ele>92.9</ele>
        <time>2011-11-13T08:53:20Z</time>
      </trkpt>
      <trkpt lat="47.56116" lon="-0.74539">
        <ele>93.39</ele>
        <time>2011-11-13T08:53:22Z</time>
      </trkpt>
      <trkpt lat="47.56124" lon="-0.74516">
        <ele>94.35</ele>
        <time>2011-11-13T08:53:26Z</time>
      </trkpt>
      <trkpt lat="47.56141" lon="-0.74491">
        <ele>94.35</ele>
        <time>2011-11-13T08:53:32Z</time>
      </trkpt>
      <trkpt lat="47.56151" lon="-0.74484">
        <ele>94.83</ele>
        <time>2011-11-13T08:53:35Z</time>
      </trkpt>
      <trkpt lat="47.5615" lon="-0.74469">
        <ele>95.31</ele>
        <time>2011-11-13T08:53:39Z</time>
      </trkpt>
      <trkpt lat="47.56144" lon="-0.74456">
        <ele>94.83</ele>
        <time>2011-11-13T08:53:42Z</time>
      </trkpt>
      <trkpt lat="47.56133" lon="-0.74434">
        <ele>95.31</ele>
        <time>2011-11-13T08:53:46Z</time>
      </trkpt>
      <trkpt lat="47.56114" lon="-0.74417">
        <ele>94.83</ele>
        <time>2011-11-13T08:53:51Z</time>
      </trkpt>
      <trkpt lat="47.56092" lon="-0.74402">
        <ele>94.35</ele>
        <time>2011-11-13T08:53:56Z</time>
      </trkpt>
      <trkpt lat="47.56077" lon="-0.74407">
        <ele>92.9</ele>
        <time>2011-11-13T08:54:00Z</time>
      </trkpt>
      <trkpt lat="47.56067" lon="-0.74414">
        <ele>91.94</ele>
        <time>2011-11-13T08:54:03Z</time>
      </trkpt>
      <trkpt lat="47.5606" lon="-0.74406">
        <ele>92.42</ele>
        <time>2011-11-13T08:54:05Z</time>
      </trkpt>
      <trkpt lat="47.56039" lon="-0.74376">
        <ele>91.46</ele>
        <time>2011-11-13T08:54:11Z</time>
      </trkpt>
      <trkpt lat="47.56032" lon="-0.74364">
        <ele>90.98</ele>
        <time>2011-11-13T08:54:13Z</time>
      </trkpt>
      <trkpt lat="47.56021" lon="-0.74339">
        <ele>91.46</ele>
        <time>2011-11-13T08:54:17Z</time>
      </trkpt>
      <trkpt lat="47.56003" lon="-0.74294">
        <ele>90.98</ele>
        <time>2011-11-13T08:54:24Z</time>
      </trkpt>
      <trkpt lat="47.55989" lon="-0.74257">
        <ele>90.98</ele>
        <time>2011-11-13T08:54:30Z</time>
      </trkpt>
      <trkpt lat="47.55986" lon="-0.74245">
        <ele>90.98</ele>
        <time>2011-11-13T08:54:32Z</time>
      </trkpt>
      <trkpt lat="47.55979" lon="-0.74218">
        <ele>90.02</ele>
        <time>2011-11-13T08:54:38Z</time>
      </trkpt>
      <trkpt lat="47.55974" lon="-0.74188">
        <ele>90.02</ele>
        <time>2011-11-13T08:54:44Z</time>
      </trkpt>
      <trkpt lat="47.55971" lon="-0.74174">
        <ele>90.02</ele>
        <time>2011-11-13T08:54:48Z</time>
      </trkpt>
      <trkpt lat="47.55964" lon="-0.74141">
        <ele>90.98</ele>
        <time>2011-11-13T08:54:55Z</time>
      </trkpt>
      <trkpt lat="47.55962" lon="-0.74131">
        <ele>90.98</ele>
        <time>2011-11-13T08:54:57Z</time>
      </trkpt>
      <trkpt lat="47.55957" lon="-0.74104">
        <ele>90.98</ele>
        <time>2011-11-13T08:55:01Z</time>
      </trkpt>
      <trkpt lat="47.5595" lon="-0.74074">
        <ele>90.98</ele>
        <time>2011-11-13T08:55:06Z</time>
      </trkpt>
      <trkpt lat="47.55946" lon="-0.74062">
        <ele>90.98</ele>
        <time>2011-11-13T08:55:08Z</time>
      </trkpt>
      <trkpt lat="47.55938" lon="-0.74028">
        <ele>90.5</ele>
        <time>2011-11-13T08:55:13Z</time>
      </trkpt>
      <trkpt lat="47.55929" lon="-0.73984">
        <ele>90.98</ele>
        <time>2011-11-13T08:55:19Z</time>
      </trkpt>
      <trkpt lat="47.55924" lon="-0.73962">
        <ele>90.98</ele>
        <time>2011-11-13T08:55:22Z</time>
      </trkpt>
      <trkpt lat="47.55915" lon="-0.73937">
        <ele>90.5</ele>
        <time>2011-11-13T08:55:26Z</time>
      </trkpt>
      <trkpt lat="47.55901" lon="-0.73894">
        <ele>90.5</ele>
        <time>2011-11-13T08:55:33Z</time>
      </trkpt>
      <trkpt lat="47.55896" lon="-0.73876">
        <ele>90.98</ele>
        <time>2011-11-13T08:55:36Z</time>
      </trkpt>
      <trkpt lat="47.5589" lon="-0.73844">
        <ele>90.5</ele>
        <time>2011-11-13T08:55:42Z</time>
      </trkpt>
      <trkpt lat="47.55879" lon="-0.73819">
        <ele>90.98</ele>
        <time>2011-11-13T08:55:47Z</time>
      </trkpt>
      <trkpt lat="47.55869" lon="-0.73796">
        <ele>90.98</ele>
        <time>2011-11-13T08:55:52Z</time>
      </trkpt>
      <trkpt lat="47.55867" lon="-0.7379">
        <ele>90.98</ele>
        <time>2011-11-13T08:55:53Z</time>
      </trkpt>
      <trkpt lat="47.5586" lon="-0.73772">
        <ele>91.94</ele>
        <time>2011-11-13T08:55:56Z</time>
      </trkpt>
      <trkpt lat="47.55843" lon="-0.73723">
        <ele>91.46</ele>
        <time>2011-11-13T08:56:04Z</time>
      </trkpt>
      <trkpt lat="47.55835" lon="-0.73685">
        <ele>91.46</ele>
        <time>2011-11-13T08:56:10Z</time>
      </trkpt>
      <trkpt lat="47.55831" lon="-0.73675">
        <ele>91.94</ele>
        <time>2011-11-13T08:56:12Z</time>
      </trkpt>
      <trkpt lat="47.55817" lon="-0.73625">
        <ele>92.42</ele>
        <time>2011-11-13T08:56:20Z</time>
      </trkpt>
      <trkpt lat="47.55809" lon="-0.73588">
        <ele>92.9</ele>
        <time>2011-11-13T08:56:26Z</time>
      </trkpt>
      <trkpt lat="47.55803" lon="-0.73563">
        <ele>92.42</ele>
        <time>2011-11-13T08:56:30Z</time>
      </trkpt>
      <trkpt lat="47.55797" lon="-0.73545">
        <ele>92.9</ele>
        <time>2011-11-13T08:56:33Z</time>
      </trkpt>
      <trkpt lat="47.5579" lon="-0.73528">
        <ele>92.9</ele>
        <time>2011-11-13T08:56:36Z</time>
      </trkpt>
      <trkpt lat="47.55785" lon="-0.73517">
        <ele>92.42</ele>
        <time>2011-11-13T08:56:38Z</time>
      </trkpt>
      <trkpt lat="47.55774" lon="-0.73485">
        <ele>92.42</ele>
        <time>2011-11-13T08:56:43Z</time>
      </trkpt>
      <trkpt lat="47.5576" lon="-0.7344">
        <ele>92.42</ele>
        <time>2011-11-13T08:56:50Z</time>
      </trkpt>
      <trkpt lat="47.55756" lon="-0.73427">
        <ele>93.39</ele>
        <time>2011-11-13T08:56:52Z</time>
      </trkpt>
      <trkpt lat="47.55743" lon="-0.73387">
        <ele>92.42</ele>
        <time>2011-11-13T08:56:58Z</time>
      </trkpt>
      <trkpt lat="47.55741" lon="-0.73381">
        <ele>92.9</ele>
        <time>2011-11-13T08:56:59Z</time>
      </trkpt>
      <trkpt lat="47.55737" lon="-0.73351">
        <ele>92.42</ele>
        <time>2011-11-13T08:57:05Z</time>
      </trkpt>
      <trkpt lat="47.55735" lon="-0.73346">
        <ele>92.9</ele>
        <time>2011-11-13T08:57:06Z</time>
      </trkpt>
      <trkpt lat="47.55729" lon="-0.73335">
        <ele>91.94</ele>
        <time>2011-11-13T08:57:08Z</time>
      </trkpt>
      <trkpt lat="47.55718" lon="-0.73307">
        <ele>92.9</ele>
        <time>2011-11-13T08:57:12Z</time>
      </trkpt>
      <trkpt lat="47.55706" lon="-0.73272">
        <ele>91.94</ele>
        <time>2011-11-13T08:57:17Z</time>
      </trkpt>
      <trkpt lat="47.55697" lon="-0.73253">
        <ele>92.9</ele>
        <time>2011-11-13T08:57:20Z</time>
      </trkpt>
      <trkpt lat="47.55689" lon="-0.73232">
        <ele>92.42</ele>
        <time>2011-11-13T08:57:23Z</time>
      </trkpt>
      <trkpt lat="47.55674" lon="-0.73206">
        <ele>91.94</ele>
        <time>2011-11-13T08:57:27Z</time>
      </trkpt>
      <trkpt lat="47.55664" lon="-0.73188">
        <ele>91.94</ele>
        <time>2011-11-13T08:57:30Z</time>
      </trkpt>
      <trkpt lat="47.55655" lon="-0.73169">
        <ele>91.94</ele>
        <time>2011-11-13T08:57:33Z</time>
      </trkpt>
      <trkpt lat="47.55646" lon="-0.7314">
        <ele>92.42</ele>
        <time>2011-11-13T08:57:37Z</time>
      </trkpt>
      <trkpt lat="47.55635" lon="-0.73104">
        <ele>91.94</ele>
        <time>2011-11-13T08:57:42Z</time>
      </trkpt>
      <trkpt lat="47.55629" lon="-0.73092">
        <ele>91.46</ele>
        <time>2011-11-13T08:57:44Z</time>
      </trkpt>
      <trkpt lat="47.55614" lon="-0.73054">
        <ele>91.46</ele>
        <time>2011-11-13T08:57:50Z</time>
      </trkpt>
      <trkpt lat="47.55612" lon="-0.73047">
        <ele>91.46</ele>
        <time>2011-11-13T08:57:51Z</time>
      </trkpt>
      <trkpt lat="47.55608" lon="-0.73032">
        <ele>91.46</ele>
        <time>2011-11-13T08:57:53Z</time>
      </trkpt>
      <trkpt lat="47.55593" lon="-0.72998">
        <ele>91.46</ele>
        <time>2011-11-13T08:57:58Z</time>
      </trkpt>
      <trkpt lat="47.55585" lon="-0.72985">
        <ele>90.5</ele>
        <time>2011-11-13T08:58:00Z</time>
      </trkpt>
      <trkpt lat="47.55574" lon="-0.72959">
        <ele>90.98</ele>
        <time>2011-11-13T08:58:04Z</time>
      </trkpt>
      <trkpt lat="47.55569" lon="-0.72934">
        <ele>90.02</ele>
        <time>2011-11-13T08:58:08Z</time>
      </trkpt>
      <trkpt lat="47.55561" lon="-0.72916">
        <ele>90.98</ele>
        <time>2011-11-13T08:58:11Z</time>
      </trkpt>
      <trkpt lat="47.55554" lon="-0.72899">
        <ele>91.46</ele>
        <time>2011-11-13T08:58:14Z</time>
      </trkpt>
      <trkpt lat="47.55547" lon="-0.72874">
        <ele>90.98</ele>
        <time>2011-11-13T08:58:18Z</time>
      </trkpt>
      <trkpt lat="47.55541" lon="-0.72842">
        <ele>90.02</ele>
        <time>2011-11-13T08:58:23Z</time>
      </trkpt>
      <trkpt lat="47.55534" lon="-0.7281">
        <ele>90.02</ele>
        <time>2011-11-13T08:58:28Z</time>
      </trkpt>
      <trkpt lat="47.55522" lon="-0.72758">
        <ele>90.02</ele>
        <time>2011-11-13T08:58:36Z</time>
      </trkpt>
      <trkpt lat="47.55518" lon="-0.72739">
        <ele>90.02</ele>
        <time>2011-11-13T08:58:39Z</time>
      </trkpt>
      <trkpt lat="47.55512" lon="-0.72719">
        <ele>89.06</ele>
        <time>2011-11-13T08:58:42Z</time>
      </trkpt>
      <trkpt lat="47.55502" lon="-0.72682">
        <ele>89.54</ele>
        <time>2011-11-13T08:58:48Z</time>
      </trkpt>
      <trkpt lat="47.55495" lon="-0.72651">
        <ele>89.54</ele>
        <time>2011-11-13T08:58:53Z</time>
      </trkpt>
      <trkpt lat="47.5549" lon="-0.72633">
        <ele>89.06</ele>
        <time>2011-11-13T08:58:56Z</time>
      </trkpt>
      <trkpt lat="47.55482" lon="-0.7261">
        <ele>89.06</ele>
        <time>2011-11-13T08:59:00Z</time>
      </trkpt>
      <trkpt lat="47.55479" lon="-0.7258">
        <ele>88.58</ele>
        <time>2011-11-13T08:59:05Z</time>
      </trkpt>
      <trkpt lat="47.55481" lon="-0.72577">
        <ele>89.06</ele>
        <time>2011-11-13T08:59:06Z</time>
      </trkpt>
      <trkpt lat="47.55488" lon="-0.72568">
        <ele>89.06</ele>
        <time>2011-11-13T08:59:09Z</time>
      </trkpt>
      <trkpt lat="47.55509" lon="-0.72557">
        <ele>90.02</ele>
        <time>2011-11-13T08:59:14Z</time>
      </trkpt>
      <trkpt lat="47.55517" lon="-0.72553">
        <ele>90.5</ele>
        <time>2011-11-13T08:59:16Z</time>
      </trkpt>
      <trkpt lat="47.55543" lon="-0.7254">
        <ele>90.98</ele>
        <time>2011-11-13T08:59:23Z</time>
      </trkpt>
      <trkpt lat="47.55567" lon="-0.72528">
        <ele>91.46</ele>
        <time>2011-11-13T08:59:29Z</time>
      </trkpt>
      <trkpt lat="47.55572" lon="-0.72525">
        <ele>91.46</ele>
        <time>2011-11-13T08:59:30Z</time>
      </trkpt>
      <trkpt lat="47.55597" lon="-0.72511">
        <ele>92.42</ele>
        <time>2011-11-13T08:59:37Z</time>
      </trkpt>
      <trkpt lat="47.55602" lon="-0.72506">
        <ele>92.42</ele>
        <time>2011-11-13T08:59:39Z</time>
      </trkpt>
      <trkpt lat="47.55608" lon="-0.72481">
        <ele>92.9</ele>
        <time>2011-11-13T08:59:44Z</time>
      </trkpt>
      <trkpt lat="47.55607" lon="-0.72467">
        <ele>93.39</ele>
        <time>2011-11-13T08:59:46Z</time>
      </trkpt>
      <trkpt lat="47.55603" lon="-0.7243">
        <ele>93.87</ele>
        <time>2011-11-13T08:59:52Z</time>
      </trkpt>
      <trkpt lat="47.55598" lon="-0.72392">
        <ele>94.83</ele>
        <time>2011-11-13T08:59:58Z</time>
      </trkpt>
      <trkpt lat="47.55604" lon="-0.7236">
        <ele>96.27</ele>
        <time>2011-11-13T09:00:04Z</time>
      </trkpt>
      <trkpt lat="47.55606" lon="-0.72355">
        <ele>96.27</ele>
        <time>2011-11-13T09:00:05Z</time>
      </trkpt>
      <trkpt lat="47.55612" lon="-0.72325">
        <ele>96.75</ele>
        <time>2011-11-13T09:00:11Z</time>
      </trkpt>
      <trkpt lat="47.55612" lon="-0.72312">
        <ele>96.75</ele>
        <time>2011-11-13T09:00:14Z</time>
      </trkpt>
      <trkpt lat="47.55597" lon="-0.72294">
        <ele>96.75</ele>
        <time>2011-11-13T09:00:21Z</time>
      </trkpt>
      <trkpt lat="47.55582" lon="-0.72284">
        <ele>96.75</ele>
        <time>2011-11-13T09:00:27Z</time>
      </trkpt>
      <trkpt lat="47.55578" lon="-0.72283">
        <ele>96.75</ele>
        <time>2011-11-13T09:00:28Z</time>
      </trkpt>
      <trkpt lat="47.55553" lon="-0.72273">
        <ele>96.27</ele>
        <time>2011-11-13T09:00:34Z</time>
      </trkpt>
      <trkpt lat="47.5555" lon="-0.72266">
        <ele>96.27</ele>
        <time>2011-11-13T09:00:36Z</time>
      </trkpt>
      <trkpt lat="47.55546" lon="-0.72236">
        <ele>97.23</ele>
        <time>2011-11-13T09:00:42Z</time>
      </trkpt>
      <trkpt lat="47.55541" lon="-0.72219">
        <ele>97.71</ele>
        <time>2011-11-13T09:00:45Z</time>
      </trkpt>
      <trkpt lat="47.55527" lon="-0.72156">
        <ele>97.23</ele>
        <time>2011-11-13T09:00:55Z</time>
      </trkpt>
      <trkpt lat="47.55518" lon="-0.72109">
        <ele>97.71</ele>
        <time>2011-11-13T09:01:02Z</time>
      </trkpt>
      <trkpt lat="47.5551" lon="-0.72068">
        <ele>97.71</ele>
        <time>2011-11-13T09:01:08Z</time>
      </trkpt>
      <trkpt lat="47.55506" lon="-0.72048">
        <ele>98.67</ele>
        <time>2011-11-13T09:01:11Z</time>
      </trkpt>
      <trkpt lat="47.55495" lon="-0.71992">
        <ele>98.67</ele>
        <time>2011-11-13T09:01:19Z</time>
      </trkpt>
      <trkpt lat="47.55484" lon="-0.71935">
        <ele>98.67</ele>
        <time>2011-11-13T09:01:27Z</time>
      </trkpt>
      <trkpt lat="47.55481" lon="-0.71921">
        <ele>99.15</ele>
        <time>2011-11-13T09:01:29Z</time>
      </trkpt>
      <trkpt lat="47.55472" lon="-0.71891">
        <ele>98.67</ele>
        <time>2011-11-13T09:01:34Z</time>
      </trkpt>
      <trkpt lat="47.55463" lon="-0.71889">
        <ele>99.15</ele>
        <time>2011-11-13T09:01:36Z</time>
      </trkpt>
      <trkpt lat="47.5542" lon="-0.71908">
        <ele>97.71</ele>
        <time>2011-11-13T09:01:45Z</time>
      </trkpt>
      <trkpt lat="47.55402" lon="-0.71916">
        <ele>96.27</ele>
        <time>2011-11-13T09:01:49Z</time>
      </trkpt>
      <trkpt lat="47.55396" lon="-0.71897">
        <ele>95.79</ele>
        <time>2011-11-13T09:01:55Z</time>
      </trkpt>
      <trkpt lat="47.55391" lon="-0.71863">
        <ele>96.27</ele>
        <time>2011-11-13T09:02:01Z</time>
      </trkpt>
      <trkpt lat="47.55389" lon="-0.71858">
        <ele>96.27</ele>
        <time>2011-11-13T09:02:02Z</time>
      </trkpt>
      <trkpt lat="47.5538" lon="-0.71825">
        <ele>95.79</ele>
        <time>2011-11-13T09:02:08Z</time>
      </trkpt>
      <trkpt lat="47.55378" lon="-0.71795">
        <ele>96.27</ele>
        <time>2011-11-13T09:02:13Z</time>
      </trkpt>
      <trkpt lat="47.55373" lon="-0.71767">
        <ele>96.27</ele>
        <time>2011-11-13T09:02:17Z</time>
      </trkpt>
      <trkpt lat="47.5537" lon="-0.71727">
        <ele>96.27</ele>
        <time>2011-11-13T09:02:22Z</time>
      </trkpt>
      <trkpt lat="47.5537" lon="-0.71699">
        <ele>96.27</ele>
        <time>2011-11-13T09:02:26Z</time>
      </trkpt>
      <trkpt lat="47.55369" lon="-0.71685">
        <ele>96.27</ele>
        <time>2011-11-13T09:02:28Z</time>
      </trkpt>
      <trkpt lat="47.55368" lon="-0.71664">
        <ele>96.27</ele>
        <time>2011-11-13T09:02:31Z</time>
      </trkpt>
      <trkpt lat="47.55364" lon="-0.71637">
        <ele>96.75</ele>
        <time>2011-11-13T09:02:35Z</time>
      </trkpt>
      <trkpt lat="47.5536" lon="-0.71608">
        <ele>97.23</ele>
        <time>2011-11-13T09:02:39Z</time>
      </trkpt>
      <trkpt lat="47.55355" lon="-0.71573">
        <ele>96.75</ele>
        <time>2011-11-13T09:02:44Z</time>
      </trkpt>
      <trkpt lat="47.55346" lon="-0.71544">
        <ele>97.23</ele>
        <time>2011-11-13T09:02:49Z</time>
      </trkpt>
      <trkpt lat="47.55339" lon="-0.71519">
        <ele>97.23</ele>
        <time>2011-11-13T09:02:53Z</time>
      </trkpt>
      <trkpt lat="47.5533" lon="-0.71492">
        <ele>97.23</ele>
        <time>2011-11-13T09:02:57Z</time>
      </trkpt>
      <trkpt lat="47.55316" lon="-0.71443">
        <ele>98.19</ele>
        <time>2011-11-13T09:03:04Z</time>
      </trkpt>
      <trkpt lat="47.55314" lon="-0.7143">
        <ele>98.67</ele>
        <time>2011-11-13T09:03:06Z</time>
      </trkpt>
      <trkpt lat="47.55307" lon="-0.71404">
        <ele>99.15</ele>
        <time>2011-11-13T09:03:10Z</time>
      </trkpt>
      <trkpt lat="47.55306" lon="-0.71361">
        <ele>99.15</ele>
        <time>2011-11-13T09:03:16Z</time>
      </trkpt>
      <trkpt lat="47.55306" lon="-0.71354">
        <ele>99.15</ele>
        <time>2011-11-13T09:03:17Z</time>
      </trkpt>
      <trkpt lat="47.55303" lon="-0.71316">
        <ele>99.63</ele>
        <time>2011-11-13T09:03:22Z</time>
      </trkpt>
      <trkpt lat="47.55299" lon="-0.71288">
        <ele>99.63</ele>
        <time>2011-11-13T09:03:26Z</time>
      </trkpt>
      <trkpt lat="47.55296" lon="-0.71248">
        <ele>99.63</ele>
        <time>2011-11-13T09:03:31Z</time>
      </trkpt>
      <trkpt lat="47.55307" lon="-0.7122">
        <ele>99.63</ele>
        <time>2011-11-13T09:03:35Z</time>
      </trkpt>
      <trkpt lat="47.55313" lon="-0.71207">
        <ele>99.63</ele>
        <time>2011-11-13T09:03:37Z</time>
      </trkpt>
      <trkpt lat="47.55325" lon="-0.71167">
        <ele>99.63</ele>
        <time>2011-11-13T09:03:43Z</time>
      </trkpt>
      <trkpt lat="47.55326" lon="-0.7116">
        <ele>100.11</ele>
        <time>2011-11-13T09:03:44Z</time>
      </trkpt>
      <trkpt lat="47.55332" lon="-0.71131">
        <ele>99.63</ele>
        <time>2011-11-13T09:03:48Z</time>
      </trkpt>
      <trkpt lat="47.55333" lon="-0.71114">
        <ele>100.11</ele>
        <time>2011-11-13T09:03:50Z</time>
      </trkpt>
      <trkpt lat="47.5533" lon="-0.71091">
        <ele>99.63</ele>
        <time>2011-11-13T09:03:53Z</time>
      </trkpt>
      <trkpt lat="47.55326" lon="-0.71058">
        <ele>99.15</ele>
        <time>2011-11-13T09:03:57Z</time>
      </trkpt>
      <trkpt lat="47.55311" lon="-0.7102">
        <ele>99.15</ele>
        <time>2011-11-13T09:04:03Z</time>
      </trkpt>
      <trkpt lat="47.55295" lon="-0.7098">
        <ele>98.19</ele>
        <time>2011-11-13T09:04:09Z</time>
      </trkpt>
      <trkpt lat="47.55284" lon="-0.70942">
        <ele>98.19</ele>
        <time>2011-11-13T09:04:14Z</time>
      </trkpt>
      <trkpt lat="47.55282" lon="-0.70922">
        <ele>98.19</ele>
        <time>2011-11-13T09:04:16Z</time>
      </trkpt>
      <trkpt lat="47.55273" lon="-0.70873">
        <ele>97.71</ele>
        <time>2011-11-13T09:04:22Z</time>
      </trkpt>
      <trkpt lat="47.5526" lon="-0.70843">
        <ele>97.71</ele>
        <time>2011-11-13T09:04:27Z</time>
      </trkpt>
      <trkpt lat="47.55239" lon="-0.70803">
        <ele>96.27</ele>
        <time>2011-11-13T09:04:34Z</time>
      </trkpt>
      <trkpt lat="47.55211" lon="-0.70755">
        <ele>96.75</ele>
        <time>2011-11-13T09:04:43Z</time>
      </trkpt>
      <trkpt lat="47.55189" lon="-0.70721">
        <ele>96.75</ele>
        <time>2011-11-13T09:04:50Z</time>
      </trkpt>
      <trkpt lat="47.55156" lon="-0.70677">
        <ele>96.75</ele>
        <time>2011-11-13T09:04:59Z</time>
      </trkpt>
      <trkpt lat="47.55152" lon="-0.70672">
        <ele>96.27</ele>
        <time>2011-11-13T09:05:00Z</time>
      </trkpt>
      <trkpt lat="47.55113" lon="-0.70641">
        <ele>95.79</ele>
        <time>2011-11-13T09:05:08Z</time>
      </trkpt>
      <trkpt lat="47.55081" lon="-0.70625">
        <ele>94.83</ele>
        <time>2011-11-13T09:05:14Z</time>
      </trkpt>
      <trkpt lat="47.55063" lon="-0.70597">
        <ele>94.35</ele>
        <time>2011-11-13T09:05:19Z</time>
      </trkpt>
      <trkpt lat="47.5506" lon="-0.70582">
        <ele>94.35</ele>
        <time>2011-11-13T09:05:21Z</time>
      </trkpt>
      <trkpt lat="47.55053" lon="-0.70539">
        <ele>94.83</ele>
        <time>2011-11-13T09:05:27Z</time>
      </trkpt>
      <trkpt lat="47.55044" lon="-0.70493">
        <ele>94.35</ele>
        <time>2011-11-13T09:05:34Z</time>
      </trkpt>
      <trkpt lat="47.55034" lon="-0.70438">
        <ele>94.35</ele>
        <time>2011-11-13T09:05:42Z</time>
      </trkpt>
      <trkpt lat="47.55023" lon="-0.7038">
        <ele>95.31</ele>
        <time>2011-11-13T09:05:50Z</time>
      </trkpt>
      <trkpt lat="47.55011" lon="-0.70327">
        <ele>95.79</ele>
        <time>2011-11-13T09:05:58Z</time>
      </trkpt>
      <trkpt lat="47.55003" lon="-0.70279">
        <ele>94.83</ele>
        <time>2011-11-13T09:06:05Z</time>
      </trkpt>
      <trkpt lat="47.55002" lon="-0.70271">
        <ele>94.83</ele>
        <time>2011-11-13T09:06:06Z</time>
      </trkpt>
      <trkpt lat="47.54998" lon="-0.70241">
        <ele>96.27</ele>
        <time>2011-11-13T09:06:10Z</time>
      </trkpt>
      <trkpt lat="47.54996" lon="-0.70169">
        <ele>96.27</ele>
        <time>2011-11-13T09:06:19Z</time>
      </trkpt>
      <trkpt lat="47.54998" lon="-0.70106">
        <ele>96.75</ele>
        <time>2011-11-13T09:06:27Z</time>
      </trkpt>
      <trkpt lat="47.54998" lon="-0.70082">
        <ele>95.79</ele>
        <time>2011-11-13T09:06:30Z</time>
      </trkpt>
      <trkpt lat="47.54999" lon="-0.70066">
        <ele>95.31</ele>
        <time>2011-11-13T09:06:32Z</time>
      </trkpt>
      <trkpt lat="47.54998" lon="-0.70042">
        <ele>95.79</ele>
        <time>2011-11-13T09:06:35Z</time>
      </trkpt>
      <trkpt lat="47.54988" lon="-0.70005">
        <ele>96.27</ele>
        <time>2011-11-13T09:06:40Z</time>
      </trkpt>
      <trkpt lat="47.54972" lon="-0.69974">
        <ele>94.83</ele>
        <time>2011-11-13T09:06:45Z</time>
      </trkpt>
      <trkpt lat="47.54938" lon="-0.69918">
        <ele>94.83</ele>
        <time>2011-11-13T09:06:54Z</time>
      </trkpt>
      <trkpt lat="47.54927" lon="-0.69899">
        <ele>95.31</ele>
        <time>2011-11-13T09:06:57Z</time>
      </trkpt>
      <trkpt lat="47.54887" lon="-0.69843">
        <ele>95.31</ele>
        <time>2011-11-13T09:07:07Z</time>
      </trkpt>
      <trkpt lat="47.54857" lon="-0.69798">
        <ele>94.35</ele>
        <time>2011-11-13T09:07:15Z</time>
      </trkpt>
      <trkpt lat="47.54829" lon="-0.6974">
        <ele>94.35</ele>
        <time>2011-11-13T09:07:24Z</time>
      </trkpt>
      <trkpt lat="47.54826" lon="-0.69734">
        <ele>94.35</ele>
        <time>2011-11-13T09:07:25Z</time>
      </trkpt>
      <trkpt lat="47.548" lon="-0.69674">
        <ele>93.87</ele>
        <time>2011-11-13T09:07:34Z</time>
      </trkpt>
      <trkpt lat="47.54768" lon="-0.69596">
        <ele>94.83</ele>
        <time>2011-11-13T09:07:45Z</time>
      </trkpt>
      <trkpt lat="47.54741" lon="-0.69533">
        <ele>93.87</ele>
        <time>2011-11-13T09:07:54Z</time>
      </trkpt>
      <trkpt lat="47.54715" lon="-0.69467">
        <ele>94.83</ele>
        <time>2011-11-13T09:08:03Z</time>
      </trkpt>
      <trkpt lat="47.54706" lon="-0.69436">
        <ele>94.83</ele>
        <time>2011-11-13T09:08:07Z</time>
      </trkpt>
      <trkpt lat="47.54693" lon="-0.6937">
        <ele>94.35</ele>
        <time>2011-11-13T09:08:15Z</time>
      </trkpt>
      <trkpt lat="47.54685" lon="-0.69292">
        <ele>94.83</ele>
        <time>2011-11-13T09:08:24Z</time>
      </trkpt>
      <trkpt lat="47.54675" lon="-0.69225">
        <ele>94.35</ele>
        <time>2011-11-13T09:08:32Z</time>
      </trkpt>
      <trkpt lat="47.54655" lon="-0.69153">
        <ele>94.35</ele>
        <time>2011-11-13T09:08:41Z</time>
      </trkpt>
      <trkpt lat="47.54636" lon="-0.69081">
        <ele>93.87</ele>
        <time>2011-11-13T09:08:50Z</time>
      </trkpt>
      <trkpt lat="47.54611" lon="-0.69001">
        <ele>94.83</ele>
        <time>2011-11-13T09:09:00Z</time>
      </trkpt>
      <trkpt lat="47.54583" lon="-0.6893">
        <ele>93.87</ele>
        <time>2011-11-13T09:09:09Z</time>
      </trkpt>
      <trkpt lat="47.5457" lon="-0.6885">
        <ele>93.39</ele>
        <time>2011-11-13T09:09:18Z</time>
      </trkpt>
      <trkpt lat="47.54556" lon="-0.68756">
        <ele>92.9</ele>
        <time>2011-11-13T09:09:28Z</time>
      </trkpt>
      <trkpt lat="47.5454" lon="-0.68704">
        <ele>92.9</ele>
        <time>2011-11-13T09:09:34Z</time>
      </trkpt>
      <trkpt lat="47.54509" lon="-0.68622">
        <ele>92.42</ele>
        <time>2011-11-13T09:09:44Z</time>
      </trkpt>
      <trkpt lat="47.54493" lon="-0.6858">
        <ele>92.42</ele>
        <time>2011-11-13T09:09:49Z</time>
      </trkpt>
      <trkpt lat="47.54486" lon="-0.68561">
        <ele>90.98</ele>
        <time>2011-11-13T09:09:51Z</time>
      </trkpt>
      <trkpt lat="47.54459" lon="-0.68494">
        <ele>92.42</ele>
        <time>2011-11-13T09:09:58Z</time>
      </trkpt>
      <trkpt lat="47.54436" lon="-0.68434">
        <ele>91.46</ele>
        <time>2011-11-13T09:10:05Z</time>
      </trkpt>
      <trkpt lat="47.54431" lon="-0.68417">
        <ele>91.46</ele>
        <time>2011-11-13T09:10:07Z</time>
      </trkpt>
      <trkpt lat="47.54419" lon="-0.68401">
        <ele>90.5</ele>
        <time>2011-11-13T09:10:11Z</time>
      </trkpt>
      <trkpt lat="47.54409" lon="-0.68407">
        <ele>90.02</ele>
        <time>2011-11-13T09:10:14Z</time>
      </trkpt>
      <trkpt lat="47.5439" lon="-0.6843">
        <ele>90.02</ele>
        <time>2011-11-13T09:10:19Z</time>
      </trkpt>
      <trkpt lat="47.5438" lon="-0.68441">
        <ele>90.02</ele>
        <time>2011-11-13T09:10:22Z</time>
      </trkpt>
      <trkpt lat="47.54363" lon="-0.68452">
        <ele>90.02</ele>
        <time>2011-11-13T09:10:26Z</time>
      </trkpt>
      <trkpt lat="47.54344" lon="-0.68461">
        <ele>89.06</ele>
        <time>2011-11-13T09:10:30Z</time>
      </trkpt>
      <trkpt lat="47.54335" lon="-0.68454">
        <ele>89.06</ele>
        <time>2011-11-13T09:10:34Z</time>
      </trkpt>
      <trkpt lat="47.54334" lon="-0.68445">
        <ele>88.1</ele>
        <time>2011-11-13T09:10:36Z</time>
      </trkpt>
      <trkpt lat="47.54321" lon="-0.68399">
        <ele>89.06</ele>
        <time>2011-11-13T09:10:44Z</time>
      </trkpt>
      <trkpt lat="47.54305" lon="-0.68391">
        <ele>87.14</ele>
        <time>2011-11-13T09:10:49Z</time>
      </trkpt>
      <trkpt lat="47.54297" lon="-0.68395">
        <ele>86.66</ele>
        <time>2011-11-13T09:10:51Z</time>
      </trkpt>
      <trkpt lat="47.54262" lon="-0.68413">
        <ele>85.69</ele>
        <time>2011-11-13T09:10:59Z</time>
      </trkpt>
      <trkpt lat="47.54227" lon="-0.68435">
        <ele>84.73</ele>
        <time>2011-11-13T09:11:06Z</time>
      </trkpt>
      <trkpt lat="47.54191" lon="-0.68462">
        <ele>82.81</ele>
        <time>2011-11-13T09:11:13Z</time>
      </trkpt>
      <trkpt lat="47.54149" lon="-0.68488">
        <ele>80.89</ele>
        <time>2011-11-13T09:11:20Z</time>
      </trkpt>
      <trkpt lat="47.54142" lon="-0.68491">
        <ele>80.41</ele>
        <time>2011-11-13T09:11:21Z</time>
      </trkpt>
      <trkpt lat="47.541" lon="-0.68534">
        <ele>78.48</ele>
        <time>2011-11-13T09:11:28Z</time>
      </trkpt>
      <trkpt lat="47.54089" lon="-0.68547">
        <ele>78.48</ele>
        <time>2011-11-13T09:11:30Z</time>
      </trkpt>
      <trkpt lat="47.54071" lon="-0.68565">
        <ele>76.56</ele>
        <time>2011-11-13T09:11:33Z</time>
      </trkpt>
      <trkpt lat="47.54067" lon="-0.68569">
        <ele>76.08</ele>
        <time>2011-11-13T09:11:34Z</time>
      </trkpt>
      <trkpt lat="47.54051" lon="-0.68568">
        <ele>76.56</ele>
        <time>2011-11-13T09:11:38Z</time>
      </trkpt>
      <trkpt lat="47.54049" lon="-0.68563">
        <ele>76.56</ele>
        <time>2011-11-13T09:11:39Z</time>
      </trkpt>
      <trkpt lat="47.54042" lon="-0.6854">
        <ele>77.04</ele>
        <time>2011-11-13T09:11:43Z</time>
      </trkpt>
      <trkpt lat="47.5404" lon="-0.68519">
        <ele>77.04</ele>
        <time>2011-11-13T09:11:46Z</time>
      </trkpt>
      <trkpt lat="47.54047" lon="-0.68461">
        <ele>78</ele>
        <time>2011-11-13T09:11:54Z</time>
      </trkpt>
      <trkpt lat="47.54049" lon="-0.68448">
        <ele>78</ele>
        <time>2011-11-13T09:11:56Z</time>
      </trkpt>
      <trkpt lat="47.54049" lon="-0.68429">
        <ele>78</ele>
        <time>2011-11-13T09:11:59Z</time>
      </trkpt>
      <trkpt lat="47.54047" lon="-0.68418">
        <ele>78.48</ele>
        <time>2011-11-13T09:12:01Z</time>
      </trkpt>
      <trkpt lat="47.54043" lon="-0.68393">
        <ele>78.97</ele>
        <time>2011-11-13T09:12:05Z</time>
      </trkpt>
      <trkpt lat="47.54031" lon="-0.68342">
        <ele>78.97</ele>
        <time>2011-11-13T09:12:14Z</time>
      </trkpt>
      <trkpt lat="47.5403" lon="-0.68336">
        <ele>79.45</ele>
        <time>2011-11-13T09:12:15Z</time>
      </trkpt>
      <trkpt lat="47.54022" lon="-0.68299">
        <ele>79.45</ele>
        <time>2011-11-13T09:12:21Z</time>
      </trkpt>
      <trkpt lat="47.54017" lon="-0.68282">
        <ele>78.97</ele>
        <time>2011-11-13T09:12:24Z</time>
      </trkpt>
      <trkpt lat="47.54002" lon="-0.68276">
        <ele>77.52</ele>
        <time>2011-11-13T09:12:28Z</time>
      </trkpt>
      <trkpt lat="47.5399" lon="-0.68274">
        <ele>77.52</ele>
        <time>2011-11-13T09:12:30Z</time>
      </trkpt>
      <trkpt lat="47.53974" lon="-0.68267">
        <ele>77.04</ele>
        <time>2011-11-13T09:12:33Z</time>
      </trkpt>
      <trkpt lat="47.53958" lon="-0.68259">
        <ele>76.56</ele>
        <time>2011-11-13T09:12:36Z</time>
      </trkpt>
      <trkpt lat="47.53938" lon="-0.68245">
        <ele>76.08</ele>
        <time>2011-11-13T09:12:40Z</time>
      </trkpt>
      <trkpt lat="47.53905" lon="-0.68237">
        <ele>74.16</ele>
        <time>2011-11-13T09:12:46Z</time>
      </trkpt>
      <trkpt lat="47.53855" lon="-0.68225">
        <ele>74.16</ele>
        <time>2011-11-13T09:12:54Z</time>
      </trkpt>
      <trkpt lat="47.53807" lon="-0.68208">
        <ele>73.2</ele>
        <time>2011-11-13T09:13:02Z</time>
      </trkpt>
      <trkpt lat="47.53775" lon="-0.68204">
        <ele>72.72</ele>
        <time>2011-11-13T09:13:09Z</time>
      </trkpt>
      <trkpt lat="47.53764" lon="-0.68204">
        <ele>72.72</ele>
        <time>2011-11-13T09:13:12Z</time>
      </trkpt>
      <trkpt lat="47.53753" lon="-0.68185">
        <ele>72.72</ele>
        <time>2011-11-13T09:13:18Z</time>
      </trkpt>
      <trkpt lat="47.53747" lon="-0.68156">
        <ele>73.68</ele>
        <time>2011-11-13T09:13:23Z</time>
      </trkpt>
      <trkpt lat="47.53745" lon="-0.68142">
        <ele>73.68</ele>
        <time>2011-11-13T09:13:25Z</time>
      </trkpt>
      <trkpt lat="47.53726" lon="-0.68078">
        <ele>72.72</ele>
        <time>2011-11-13T09:13:35Z</time>
      </trkpt>
      <trkpt lat="47.53707" lon="-0.6801">
        <ele>71.76</ele>
        <time>2011-11-13T09:13:45Z</time>
      </trkpt>
      <trkpt lat="47.53683" lon="-0.67931">
        <ele>69.83</ele>
        <time>2011-11-13T09:13:55Z</time>
      </trkpt>
      <trkpt lat="47.53652" lon="-0.67854">
        <ele>68.39</ele>
        <time>2011-11-13T09:14:05Z</time>
      </trkpt>
      <trkpt lat="47.53628" lon="-0.67809">
        <ele>68.87</ele>
        <time>2011-11-13T09:14:12Z</time>
      </trkpt>
      <trkpt lat="47.5361" lon="-0.67749">
        <ele>68.87</ele>
        <time>2011-11-13T09:14:20Z</time>
      </trkpt>
      <trkpt lat="47.53591" lon="-0.67678">
        <ele>69.83</ele>
        <time>2011-11-13T09:14:29Z</time>
      </trkpt>
      <trkpt lat="47.53569" lon="-0.676">
        <ele>69.35</ele>
        <time>2011-11-13T09:14:39Z</time>
      </trkpt>
      <trkpt lat="47.53549" lon="-0.67543">
        <ele>69.35</ele>
        <time>2011-11-13T09:14:47Z</time>
      </trkpt>
      <trkpt lat="47.53548" lon="-0.67537">
        <ele>68.39</ele>
        <time>2011-11-13T09:14:50Z</time>
      </trkpt>
      <trkpt lat="47.53547" lon="-0.67537">
        <ele>68.87</ele>
        <time>2011-11-13T09:14:53Z</time>
      </trkpt>
      <trkpt lat="47.53546" lon="-0.67535">
        <ele>68.87</ele>
        <time>2011-11-13T09:15:01Z</time>
      </trkpt>
      <trkpt lat="47.53546" lon="-0.67535">
        <ele>68.39</ele>
        <time>2011-11-13T09:15:16Z</time>
      </trkpt>
      <trkpt lat="47.53546" lon="-0.67535">
        <ele>68.87</ele>
        <time>2011-11-13T09:15:25Z</time>
      </trkpt>
      <trkpt lat="47.53547" lon="-0.67536">
        <ele>68.87</ele>
        <time>2011-11-13T09:15:41Z</time>
      </trkpt>
      <trkpt lat="47.53547" lon="-0.67536">
        <ele>68.87</ele>
        <time>2011-11-13T09:15:59Z</time>
      </trkpt>
      <trkpt lat="47.53547" lon="-0.67536">
        <ele>68.87</ele>
        <time>2011-11-13T09:16:13Z</time>
      </trkpt>
      <trkpt lat="47.53547" lon="-0.67536">
        <ele>69.35</ele>
        <time>2011-11-13T09:16:15Z</time>
      </trkpt>
      <trkpt lat="47.53541" lon="-0.67521">
        <ele>68.87</ele>
        <time>2011-11-13T09:16:22Z</time>
      </trkpt>
      <trkpt lat="47.53539" lon="-0.67513">
        <ele>69.35</ele>
        <time>2011-11-13T09:16:24Z</time>
      </trkpt>
      <trkpt lat="47.53532" lon="-0.67484">
        <ele>70.79</ele>
        <time>2011-11-13T09:16:29Z</time>
      </trkpt>
      <trkpt lat="47.53521" lon="-0.67436">
        <ele>68.87</ele>
        <time>2011-11-13T09:16:36Z</time>
      </trkpt>
      <trkpt lat="47.53517" lon="-0.67377">
        <ele>68.87</ele>
        <time>2011-11-13T09:16:44Z</time>
      </trkpt>
      <trkpt lat="47.53518" lon="-0.67363">
        <ele>69.35</ele>
        <time>2011-11-13T09:16:46Z</time>
      </trkpt>
      <trkpt lat="47.53532" lon="-0.67327">
        <ele>69.35</ele>
        <time>2011-11-13T09:16:52Z</time>
      </trkpt>
      <trkpt lat="47.53552" lon="-0.67293">
        <ele>67.91</ele>
        <time>2011-11-13T09:17:00Z</time>
      </trkpt>
      <trkpt lat="47.53553" lon="-0.67288">
        <ele>67.91</ele>
        <time>2011-11-13T09:17:04Z</time>
      </trkpt>
      <trkpt lat="47.53554" lon="-0.67288">
        <ele>67.91</ele>
        <time>2011-11-13T09:17:12Z</time>
      </trkpt>
      <trkpt lat="47.53554" lon="-0.67288">
        <ele>67.91</ele>
        <time>2011-11-13T09:17:21Z</time>
      </trkpt>
      <trkpt lat="47.53554" lon="-0.67288">
        <ele>67.91</ele>
        <time>2011-11-13T09:17:31Z</time>
      </trkpt>
      <trkpt lat="47.53554" lon="-0.67288">
        <ele>67.43</ele>
        <time>2011-11-13T09:17:44Z</time>
      </trkpt>
      <trkpt lat="47.53554" lon="-0.67288">
        <ele>67.91</ele>
        <time>2011-11-13T09:17:56Z</time>
      </trkpt>
      <trkpt lat="47.53554" lon="-0.67288">
        <ele>67.91</ele>
        <time>2011-11-13T09:18:15Z</time>
      </trkpt>
      <trkpt lat="47.53554" lon="-0.67288">
        <ele>67.91</ele>
        <time>2011-11-13T09:18:34Z</time>
      </trkpt>
      <trkpt lat="47.53554" lon="-0.67288">
        <ele>67.43</ele>
        <time>2011-11-13T09:18:47Z</time>
      </trkpt>
      <trkpt lat="47.53554" lon="-0.67288">
        <ele>67.43</ele>
        <time>2011-11-13T09:18:58Z</time>
      </trkpt>
      <trkpt lat="47.53554" lon="-0.67288">
        <ele>66.95</ele>
        <time>2011-11-13T09:18:59Z</time>
      </trkpt>
      <trkpt lat="47.53557" lon="-0.67271">
        <ele>67.91</ele>
        <time>2011-11-13T09:19:05Z</time>
      </trkpt>
      <trkpt lat="47.53559" lon="-0.67242">
        <ele>67.91</ele>
        <time>2011-11-13T09:19:10Z</time>
      </trkpt>
      <trkpt lat="47.53557" lon="-0.67175">
        <ele>66.95</ele>
        <time>2011-11-13T09:19:19Z</time>
      </trkpt>
      <trkpt lat="47.53553" lon="-0.6711">
        <ele>65.51</ele>
        <time>2011-11-13T09:19:27Z</time>
      </trkpt>
      <trkpt lat="47.53549" lon="-0.67022">
        <ele>64.07</ele>
        <time>2011-11-13T09:19:37Z</time>
      </trkpt>
      <trkpt lat="47.53542" lon="-0.66961">
        <ele>64.07</ele>
        <time>2011-11-13T09:19:45Z</time>
      </trkpt>
      <trkpt lat="47.53548" lon="-0.66927">
        <ele>63.1</ele>
        <time>2011-11-13T09:19:50Z</time>
      </trkpt>
      <trkpt lat="47.53551" lon="-0.66922">
        <ele>62.62</ele>
        <time>2011-11-13T09:19:51Z</time>
      </trkpt>
      <trkpt lat="47.53581" lon="-0.66878">
        <ele>63.58</ele>
        <time>2011-11-13T09:19:59Z</time>
      </trkpt>
      <trkpt lat="47.53592" lon="-0.66847">
        <ele>64.55</ele>
        <time>2011-11-13T09:20:04Z</time>
      </trkpt>
      <trkpt lat="47.53591" lon="-0.66834">
        <ele>64.07</ele>
        <time>2011-11-13T09:20:06Z</time>
      </trkpt>
      <trkpt lat="47.53585" lon="-0.66781">
        <ele>64.07</ele>
        <time>2011-11-13T09:20:13Z</time>
      </trkpt>
      <trkpt lat="47.53575" lon="-0.66712">
        <ele>64.07</ele>
        <time>2011-11-13T09:20:22Z</time>
      </trkpt>
      <trkpt lat="47.53578" lon="-0.66675">
        <ele>63.58</ele>
        <time>2011-11-13T09:20:27Z</time>
      </trkpt>
      <trkpt lat="47.53577" lon="-0.66636">
        <ele>63.58</ele>
        <time>2011-11-13T09:20:32Z</time>
      </trkpt>
      <trkpt lat="47.53575" lon="-0.6662">
        <ele>64.07</ele>
        <time>2011-11-13T09:20:34Z</time>
      </trkpt>
      <trkpt lat="47.53561" lon="-0.66571">
        <ele>63.58</ele>
        <time>2011-11-13T09:20:41Z</time>
      </trkpt>
      <trkpt lat="47.53555" lon="-0.66519">
        <ele>63.1</ele>
        <time>2011-11-13T09:20:48Z</time>
      </trkpt>
      <trkpt lat="47.53552" lon="-0.66466">
        <ele>63.58</ele>
        <time>2011-11-13T09:20:55Z</time>
      </trkpt>
      <trkpt lat="47.53549" lon="-0.6645">
        <ele>63.1</ele>
        <time>2011-11-13T09:20:57Z</time>
      </trkpt>
      <trkpt lat="47.53546" lon="-0.66418">
        <ele>62.14</ele>
        <time>2011-11-13T09:21:01Z</time>
      </trkpt>
      <trkpt lat="47.53556" lon="-0.66346">
        <ele>60.22</ele>
        <time>2011-11-13T09:21:10Z</time>
      </trkpt>
      <trkpt lat="47.53566" lon="-0.66309">
        <ele>60.22</ele>
        <time>2011-11-13T09:21:15Z</time>
      </trkpt>
      <trkpt lat="47.53577" lon="-0.66237">
        <ele>60.22</ele>
        <time>2011-11-13T09:21:25Z</time>
      </trkpt>
      <trkpt lat="47.53588" lon="-0.6616">
        <ele>60.7</ele>
        <time>2011-11-13T09:21:36Z</time>
      </trkpt>
      <trkpt lat="47.53597" lon="-0.66098">
        <ele>61.18</ele>
        <time>2011-11-13T09:21:45Z</time>
      </trkpt>
      <trkpt lat="47.53607" lon="-0.66037">
        <ele>61.66</ele>
        <time>2011-11-13T09:21:54Z</time>
      </trkpt>
      <trkpt lat="47.53616" lon="-0.65985">
        <ele>62.14</ele>
        <time>2011-11-13T09:22:02Z</time>
      </trkpt>
      <trkpt lat="47.53622" lon="-0.6595">
        <ele>62.14</ele>
        <time>2011-11-13T09:22:08Z</time>
      </trkpt>
      <trkpt lat="47.5362" lon="-0.65925">
        <ele>61.66</ele>
        <time>2011-11-13T09:22:12Z</time>
      </trkpt>
      <trkpt lat="47.5361" lon="-0.65907">
        <ele>57.82</ele>
        <time>2011-11-13T09:22:15Z</time>
      </trkpt>
      <trkpt lat="47.53607" lon="-0.65901">
        <ele>61.66</ele>
        <time>2011-11-13T09:22:16Z</time>
      </trkpt>
      <trkpt lat="47.53604" lon="-0.65895">
        <ele>61.18</ele>
        <time>2011-11-13T09:22:17Z</time>
      </trkpt>
      <trkpt lat="47.53593" lon="-0.65877">
        <ele>61.18</ele>
        <time>2011-11-13T09:22:20Z</time>
      </trkpt>
      <trkpt lat="47.53554" lon="-0.65816">
        <ele>60.7</ele>
        <time>2011-11-13T09:22:30Z</time>
      </trkpt>
      <trkpt lat="47.53521" lon="-0.65758">
        <ele>58.78</ele>
        <time>2011-11-13T09:22:39Z</time>
      </trkpt>
      <trkpt lat="47.53493" lon="-0.65709">
        <ele>58.78</ele>
        <time>2011-11-13T09:22:48Z</time>
      </trkpt>
      <trkpt lat="47.53487" lon="-0.657">
        <ele>58.78</ele>
        <time>2011-11-13T09:22:50Z</time>
      </trkpt>
      <trkpt lat="47.53488" lon="-0.65679">
        <ele>57.82</ele>
        <time>2011-11-13T09:22:54Z</time>
      </trkpt>
      <trkpt lat="47.53491" lon="-0.65676">
        <ele>57.82</ele>
        <time>2011-11-13T09:22:55Z</time>
      </trkpt>
      <trkpt lat="47.53499" lon="-0.65675">
        <ele>57.82</ele>
        <time>2011-11-13T09:22:57Z</time>
      </trkpt>
      <trkpt lat="47.53539" lon="-0.65657">
        <ele>58.78</ele>
        <time>2011-11-13T09:23:06Z</time>
      </trkpt>
      <trkpt lat="47.53574" lon="-0.65635">
        <ele>60.7</ele>
        <time>2011-11-13T09:23:14Z</time>
      </trkpt>
      <trkpt lat="47.53602" lon="-0.65619">
        <ele>62.14</ele>
        <time>2011-11-13T09:23:21Z</time>
      </trkpt>
      <trkpt lat="47.53604" lon="-0.65604">
        <ele>61.66</ele>
        <time>2011-11-13T09:23:25Z</time>
      </trkpt>
      <trkpt lat="47.53597" lon="-0.65596">
        <ele>61.66</ele>
        <time>2011-11-13T09:23:27Z</time>
      </trkpt>
      <trkpt lat="47.53563" lon="-0.65555">
        <ele>60.22</ele>
        <time>2011-11-13T09:23:36Z</time>
      </trkpt>
      <trkpt lat="47.53541" lon="-0.65527">
        <ele>59.74</ele>
        <time>2011-11-13T09:23:41Z</time>
      </trkpt>
      <trkpt lat="47.53535" lon="-0.65514">
        <ele>59.26</ele>
        <time>2011-11-13T09:23:43Z</time>
      </trkpt>
      <trkpt lat="47.53515" lon="-0.65457">
        <ele>57.82</ele>
        <time>2011-11-13T09:23:51Z</time>
      </trkpt>
      <trkpt lat="47.53499" lon="-0.65451">
        <ele>56.86</ele>
        <time>2011-11-13T09:23:55Z</time>
      </trkpt>
      <trkpt lat="47.53448" lon="-0.65478">
        <ele>55.89</ele>
        <time>2011-11-13T09:24:05Z</time>
      </trkpt>
      <trkpt lat="47.53424" lon="-0.65491">
        <ele>55.41</ele>
        <time>2011-11-13T09:24:10Z</time>
      </trkpt>
      <trkpt lat="47.53403" lon="-0.65487">
        <ele>55.41</ele>
        <time>2011-11-13T09:24:15Z</time>
      </trkpt>
      <trkpt lat="47.53395" lon="-0.65468">
        <ele>54.93</ele>
        <time>2011-11-13T09:24:18Z</time>
      </trkpt>
      <trkpt lat="47.53376" lon="-0.65422">
        <ele>54.93</ele>
        <time>2011-11-13T09:24:26Z</time>
      </trkpt>
      <trkpt lat="47.53369" lon="-0.65405">
        <ele>54.45</ele>
        <time>2011-11-13T09:24:29Z</time>
      </trkpt>
      <trkpt lat="47.53353" lon="-0.6536">
        <ele>53.97</ele>
        <time>2011-11-13T09:24:36Z</time>
      </trkpt>
      <trkpt lat="47.53346" lon="-0.65341">
        <ele>53.01</ele>
        <time>2011-11-13T09:24:39Z</time>
      </trkpt>
      <trkpt lat="47.5334" lon="-0.65323">
        <ele>52.53</ele>
        <time>2011-11-13T09:24:42Z</time>
      </trkpt>
      <trkpt lat="47.53333" lon="-0.65305">
        <ele>52.53</ele>
        <time>2011-11-13T09:24:45Z</time>
      </trkpt>
      <trkpt lat="47.53306" lon="-0.65257">
        <ele>50.61</ele>
        <time>2011-11-13T09:24:53Z</time>
      </trkpt>
      <trkpt lat="47.53283" lon="-0.6522">
        <ele>50.13</ele>
        <time>2011-11-13T09:24:59Z</time>
      </trkpt>
      <trkpt lat="47.53266" lon="-0.65182">
        <ele>50.13</ele>
        <time>2011-11-13T09:25:05Z</time>
      </trkpt>
      <trkpt lat="47.53263" lon="-0.65176">
        <ele>51.09</ele>
        <time>2011-11-13T09:25:06Z</time>
      </trkpt>
      <trkpt lat="47.53243" lon="-0.6515">
        <ele>50.13</ele>
        <time>2011-11-13T09:25:11Z</time>
      </trkpt>
      <trkpt lat="47.53224" lon="-0.65119">
        <ele>51.09</ele>
        <time>2011-11-13T09:25:17Z</time>
      </trkpt>
      <trkpt lat="47.53201" lon="-0.65077">
        <ele>52.53</ele>
        <time>2011-11-13T09:25:25Z</time>
      </trkpt>
      <trkpt lat="47.53184" lon="-0.65045">
        <ele>53.01</ele>
        <time>2011-11-13T09:25:32Z</time>
      </trkpt>
      <trkpt lat="47.53166" lon="-0.65006">
        <ele>53.01</ele>
        <time>2011-11-13T09:25:40Z</time>
      </trkpt>
      <trkpt lat="47.53161" lon="-0.64997">
        <ele>52.53</ele>
        <time>2011-11-13T09:25:42Z</time>
      </trkpt>
      <trkpt lat="47.53146" lon="-0.6497">
        <ele>52.53</ele>
        <time>2011-11-13T09:25:48Z</time>
      </trkpt>
      <trkpt lat="47.53131" lon="-0.64947">
        <ele>52.53</ele>
        <time>2011-11-13T09:25:54Z</time>
      </trkpt>
      <trkpt lat="47.53118" lon="-0.64958">
        <ele>52.05</ele>
        <time>2011-11-13T09:25:59Z</time>
      </trkpt>
      <trkpt lat="47.53115" lon="-0.64961">
        <ele>52.05</ele>
        <time>2011-11-13T09:26:00Z</time>
      </trkpt>
      <trkpt lat="47.53109" lon="-0.64966">
        <ele>51.57</ele>
        <time>2011-11-13T09:26:02Z</time>
      </trkpt>
      <trkpt lat="47.53102" lon="-0.64973">
        <ele>51.57</ele>
        <time>2011-11-13T09:26:04Z</time>
      </trkpt>
      <trkpt lat="47.53087" lon="-0.6499">
        <ele>51.57</ele>
        <time>2011-11-13T09:26:08Z</time>
      </trkpt>
      <trkpt lat="47.53079" lon="-0.65007">
        <ele>51.09</ele>
        <time>2011-11-13T09:26:11Z</time>
      </trkpt>
      <trkpt lat="47.53069" lon="-0.65025">
        <ele>51.57</ele>
        <time>2011-11-13T09:26:14Z</time>
      </trkpt>
      <trkpt lat="47.5303" lon="-0.65071">
        <ele>50.13</ele>
        <time>2011-11-13T09:26:23Z</time>
      </trkpt>
      <trkpt lat="47.53" lon="-0.65104">
        <ele>48.2</ele>
        <time>2011-11-13T09:26:29Z</time>
      </trkpt>
      <trkpt lat="47.52982" lon="-0.65106">
        <ele>48.2</ele>
        <time>2011-11-13T09:26:33Z</time>
      </trkpt>
      <trkpt lat="47.52949" lon="-0.65064">
        <ele>47.72</ele>
        <time>2011-11-13T09:26:41Z</time>
      </trkpt>
      <trkpt lat="47.52927" lon="-0.65037">
        <ele>46.28</ele>
        <time>2011-11-13T09:26:46Z</time>
      </trkpt>
      <trkpt lat="47.5291" lon="-0.64995">
        <ele>46.28</ele>
        <time>2011-11-13T09:26:52Z</time>
      </trkpt>
      <trkpt lat="47.52905" lon="-0.64979">
        <ele>46.28</ele>
        <time>2011-11-13T09:26:54Z</time>
      </trkpt>
      <trkpt lat="47.52902" lon="-0.64965">
        <ele>45.8</ele>
        <time>2011-11-13T09:26:56Z</time>
      </trkpt>
      <trkpt lat="47.52881" lon="-0.64922">
        <ele>44.84</ele>
        <time>2011-11-13T09:27:03Z</time>
      </trkpt>
      <trkpt lat="47.52852" lon="-0.64881">
        <ele>44.36</ele>
        <time>2011-11-13T09:27:11Z</time>
      </trkpt>
      <trkpt lat="47.52848" lon="-0.64877">
        <ele>43.88</ele>
        <time>2011-11-13T09:27:12Z</time>
      </trkpt>
      <trkpt lat="47.52834" lon="-0.64858">
        <ele>42.92</ele>
        <time>2011-11-13T09:27:17Z</time>
      </trkpt>
      <trkpt lat="47.5284" lon="-0.64846">
        <ele>41.95</ele>
        <time>2011-11-13T09:27:20Z</time>
      </trkpt>
      <trkpt lat="47.52843" lon="-0.64843">
        <ele>42.92</ele>
        <time>2011-11-13T09:27:21Z</time>
      </trkpt>
      <trkpt lat="47.52863" lon="-0.64821">
        <ele>44.36</ele>
        <time>2011-11-13T09:27:28Z</time>
      </trkpt>
      <trkpt lat="47.52885" lon="-0.64793">
        <ele>44.84</ele>
        <time>2011-11-13T09:27:35Z</time>
      </trkpt>
      <trkpt lat="47.529" lon="-0.64774">
        <ele>45.8</ele>
        <time>2011-11-13T09:27:39Z</time>
      </trkpt>
      <trkpt lat="47.52916" lon="-0.64756">
        <ele>47.24</ele>
        <time>2011-11-13T09:27:43Z</time>
      </trkpt>
      <trkpt lat="47.52958" lon="-0.64709">
        <ele>49.16</ele>
        <time>2011-11-13T09:27:54Z</time>
      </trkpt>
      <trkpt lat="47.52987" lon="-0.64671">
        <ele>50.61</ele>
        <time>2011-11-13T09:28:03Z</time>
      </trkpt>
      <trkpt lat="47.53016" lon="-0.64629">
        <ele>52.53</ele>
        <time>2011-11-13T09:28:13Z</time>
      </trkpt>
      <trkpt lat="47.53039" lon="-0.64595">
        <ele>53.97</ele>
        <time>2011-11-13T09:28:21Z</time>
      </trkpt>
      <trkpt lat="47.5307" lon="-0.64548">
        <ele>55.41</ele>
        <time>2011-11-13T09:28:32Z</time>
      </trkpt>
      <trkpt lat="47.53098" lon="-0.64513">
        <ele>56.86</ele>
        <time>2011-11-13T09:28:41Z</time>
      </trkpt>
      <trkpt lat="47.53125" lon="-0.64481">
        <ele>57.82</ele>
        <time>2011-11-13T09:28:50Z</time>
      </trkpt>
      <trkpt lat="47.5315" lon="-0.64453">
        <ele>57.82</ele>
        <time>2011-11-13T09:28:58Z</time>
      </trkpt>
      <trkpt lat="47.53172" lon="-0.6443">
        <ele>58.3</ele>
        <time>2011-11-13T09:29:05Z</time>
      </trkpt>
      <trkpt lat="47.53185" lon="-0.64415">
        <ele>58.3</ele>
        <time>2011-11-13T09:29:09Z</time>
      </trkpt>
      <trkpt lat="47.53223" lon="-0.64372">
        <ele>57.82</ele>
        <time>2011-11-13T09:29:19Z</time>
      </trkpt>
      <trkpt lat="47.53246" lon="-0.64348">
        <ele>57.34</ele>
        <time>2011-11-13T09:29:25Z</time>
      </trkpt>
      <trkpt lat="47.53264" lon="-0.64326">
        <ele>57.82</ele>
        <time>2011-11-13T09:29:30Z</time>
      </trkpt>
      <trkpt lat="47.53285" lon="-0.64307">
        <ele>57.34</ele>
        <time>2011-11-13T09:29:35Z</time>
      </trkpt>
      <trkpt lat="47.53322" lon="-0.64267">
        <ele>58.3</ele>
        <time>2011-11-13T09:29:44Z</time>
      </trkpt>
      <trkpt lat="47.53365" lon="-0.64229">
        <ele>58.3</ele>
        <time>2011-11-13T09:29:53Z</time>
      </trkpt>
      <trkpt lat="47.53386" lon="-0.64213">
        <ele>58.78</ele>
        <time>2011-11-13T09:29:58Z</time>
      </trkpt>
      <trkpt lat="47.53408" lon="-0.64198">
        <ele>58.78</ele>
        <time>2011-11-13T09:30:03Z</time>
      </trkpt>
      <trkpt lat="47.53446" lon="-0.64171">
        <ele>60.22</ele>
        <time>2011-11-13T09:30:11Z</time>
      </trkpt>
      <trkpt lat="47.53489" lon="-0.64145">
        <ele>61.18</ele>
        <time>2011-11-13T09:30:20Z</time>
      </trkpt>
      <trkpt lat="47.53525" lon="-0.64124">
        <ele>62.62</ele>
        <time>2011-11-13T09:30:28Z</time>
      </trkpt>
      <trkpt lat="47.53566" lon="-0.64101">
        <ele>67.43</ele>
        <time>2011-11-13T09:30:37Z</time>
      </trkpt>
      <trkpt lat="47.53571" lon="-0.64099">
        <ele>64.07</ele>
        <time>2011-11-13T09:30:38Z</time>
      </trkpt>
      <trkpt lat="47.53612" lon="-0.64073">
        <ele>65.03</ele>
        <time>2011-11-13T09:30:47Z</time>
      </trkpt>
      <trkpt lat="47.53648" lon="-0.64052">
        <ele>65.51</ele>
        <time>2011-11-13T09:30:55Z</time>
      </trkpt>
      <trkpt lat="47.53652" lon="-0.64049">
        <ele>65.51</ele>
        <time>2011-11-13T09:30:56Z</time>
      </trkpt>
      <trkpt lat="47.53676" lon="-0.64025">
        <ele>65.51</ele>
        <time>2011-11-13T09:31:02Z</time>
      </trkpt>
      <trkpt lat="47.53692" lon="-0.64001">
        <ele>66.95</ele>
        <time>2011-11-13T09:31:06Z</time>
      </trkpt>
      <trkpt lat="47.53739" lon="-0.63948">
        <ele>65.51</ele>
        <time>2011-11-13T09:31:16Z</time>
      </trkpt>
      <trkpt lat="47.53782" lon="-0.63899">
        <ele>64.07</ele>
        <time>2011-11-13T09:31:24Z</time>
      </trkpt>
      <trkpt lat="47.538" lon="-0.63866">
        <ele>62.62</ele>
        <time>2011-11-13T09:31:28Z</time>
      </trkpt>
      <trkpt lat="47.53811" lon="-0.63822">
        <ele>61.18</ele>
        <time>2011-11-13T09:31:34Z</time>
      </trkpt>
      <trkpt lat="47.53814" lon="-0.63818">
        <ele>60.22</ele>
        <time>2011-11-13T09:31:36Z</time>
      </trkpt>
      <trkpt lat="47.53826" lon="-0.63797">
        <ele>59.74</ele>
        <time>2011-11-13T09:31:42Z</time>
      </trkpt>
      <trkpt lat="47.53855" lon="-0.63785">
        <ele>59.74</ele>
        <time>2011-11-13T09:31:47Z</time>
      </trkpt>
      <trkpt lat="47.53869" lon="-0.63783">
        <ele>59.26</ele>
        <time>2011-11-13T09:31:49Z</time>
      </trkpt>
      <trkpt lat="47.53902" lon="-0.63765">
        <ele>57.82</ele>
        <time>2011-11-13T09:31:54Z</time>
      </trkpt>
      <trkpt lat="47.53968" lon="-0.6369">
        <ele>56.37</ele>
        <time>2011-11-13T09:32:06Z</time>
      </trkpt>
      <trkpt lat="47.54034" lon="-0.63612">
        <ele>55.41</ele>
        <time>2011-11-13T09:32:18Z</time>
      </trkpt>
      <trkpt lat="47.54074" lon="-0.63567">
        <ele>54.45</ele>
        <time>2011-11-13T09:32:25Z</time>
      </trkpt>
      <trkpt lat="47.54113" lon="-0.6352">
        <ele>53.97</ele>
        <time>2011-11-13T09:32:32Z</time>
      </trkpt>
      <trkpt lat="47.54173" lon="-0.63444">
        <ele>50.61</ele>
        <time>2011-11-13T09:32:42Z</time>
      </trkpt>
      <trkpt lat="47.54178" lon="-0.63434">
        <ele>50.13</ele>
        <time>2011-11-13T09:32:43Z</time>
      </trkpt>
      <trkpt lat="47.54183" lon="-0.63423">
        <ele>49.16</ele>
        <time>2011-11-13T09:32:44Z</time>
      </trkpt>
      <trkpt lat="47.5419" lon="-0.63399">
        <ele>48.68</ele>
        <time>2011-11-13T09:32:46Z</time>
      </trkpt>
      <trkpt lat="47.54197" lon="-0.6336">
        <ele>47.72</ele>
        <time>2011-11-13T09:32:49Z</time>
      </trkpt>
      <trkpt lat="47.54207" lon="-0.63304">
        <ele>45.8</ele>
        <time>2011-11-13T09:32:53Z</time>
      </trkpt>
      <trkpt lat="47.54215" lon="-0.63261">
        <ele>44.36</ele>
        <time>2011-11-13T09:32:56Z</time>
      </trkpt>
      <trkpt lat="47.54231" lon="-0.63177">
        <ele>41.47</ele>
        <time>2011-11-13T09:33:02Z</time>
      </trkpt>
      <trkpt lat="47.54249" lon="-0.6309">
        <ele>38.59</ele>
        <time>2011-11-13T09:33:08Z</time>
      </trkpt>
      <trkpt lat="47.54265" lon="-0.63016">
        <ele>35.71</ele>
        <time>2011-11-13T09:33:13Z</time>
      </trkpt>
      <trkpt lat="47.54294" lon="-0.6293">
        <ele>32.82</ele>
        <time>2011-11-13T09:33:19Z</time>
      </trkpt>
      <trkpt lat="47.54299" lon="-0.62917">
        <ele>32.34</ele>
        <time>2011-11-13T09:33:20Z</time>
      </trkpt>
      <trkpt lat="47.54348" lon="-0.62792">
        <ele>29.46</ele>
        <time>2011-11-13T09:33:30Z</time>
      </trkpt>
      <trkpt lat="47.54366" lon="-0.62743">
        <ele>28.98</ele>
        <time>2011-11-13T09:33:34Z</time>
      </trkpt>
      <trkpt lat="47.54378" lon="-0.62662">
        <ele>27.53</ele>
        <time>2011-11-13T09:33:40Z</time>
      </trkpt>
      <trkpt lat="47.5439" lon="-0.62556">
        <ele>24.65</ele>
        <time>2011-11-13T09:33:48Z</time>
      </trkpt>
      <trkpt lat="47.54388" lon="-0.62492">
        <ele>24.17</ele>
        <time>2011-11-13T09:33:53Z</time>
      </trkpt>
      <trkpt lat="47.54359" lon="-0.62367">
        <ele>21.77</ele>
        <time>2011-11-13T09:34:04Z</time>
      </trkpt>
      <trkpt lat="47.54357" lon="-0.62356">
        <ele>21.77</ele>
        <time>2011-11-13T09:34:05Z</time>
      </trkpt>
      <trkpt lat="47.54356" lon="-0.62325">
        <ele>21.77</ele>
        <time>2011-11-13T09:34:08Z</time>
      </trkpt>
      <trkpt lat="47.54342" lon="-0.62296">
        <ele>21.29</ele>
        <time>2011-11-13T09:34:12Z</time>
      </trkpt>
      <trkpt lat="47.5433" lon="-0.62293">
        <ele>21.29</ele>
        <time>2011-11-13T09:34:14Z</time>
      </trkpt>
      <trkpt lat="47.54296" lon="-0.62289">
        <ele>21.29</ele>
        <time>2011-11-13T09:34:19Z</time>
      </trkpt>
      <trkpt lat="47.54248" lon="-0.62282">
        <ele>22.25</ele>
        <time>2011-11-13T09:34:26Z</time>
      </trkpt>
      <trkpt lat="47.54203" lon="-0.62258">
        <ele>23.69</ele>
        <time>2011-11-13T09:34:33Z</time>
      </trkpt>
      <trkpt lat="47.54156" lon="-0.62232">
        <ele>26.09</ele>
        <time>2011-11-13T09:34:41Z</time>
      </trkpt>
      <trkpt lat="47.54111" lon="-0.62217">
        <ele>28.98</ele>
        <time>2011-11-13T09:34:49Z</time>
      </trkpt>
      <trkpt lat="47.54095" lon="-0.6221">
        <ele>30.42</ele>
        <time>2011-11-13T09:34:52Z</time>
      </trkpt>
      <trkpt lat="47.54068" lon="-0.62186">
        <ele>30.42</ele>
        <time>2011-11-13T09:34:59Z</time>
      </trkpt>
      <trkpt lat="47.54065" lon="-0.6218">
        <ele>30.9</ele>
        <time>2011-11-13T09:35:00Z</time>
      </trkpt>
      <trkpt lat="47.54037" lon="-0.6212">
        <ele>31.38</ele>
        <time>2011-11-13T09:35:10Z</time>
      </trkpt>
      <trkpt lat="47.54024" lon="-0.62093">
        <ele>32.34</ele>
        <time>2011-11-13T09:35:14Z</time>
      </trkpt>
      <trkpt lat="47.54017" lon="-0.6208">
        <ele>33.78</ele>
        <time>2011-11-13T09:35:16Z</time>
      </trkpt>
      <trkpt lat="47.5401" lon="-0.62071">
        <ele>34.74</ele>
        <time>2011-11-13T09:35:18Z</time>
      </trkpt>
      <trkpt lat="47.53996" lon="-0.62062">
        <ele>36.67</ele>
        <time>2011-11-13T09:35:22Z</time>
      </trkpt>
      <trkpt lat="47.53992" lon="-0.62062">
        <ele>36.67</ele>
        <time>2011-11-13T09:35:23Z</time>
      </trkpt>
      <trkpt lat="47.53965" lon="-0.62067">
        <ele>38.59</ele>
        <time>2011-11-13T09:35:31Z</time>
      </trkpt>
      <trkpt lat="47.53943" lon="-0.62072">
        <ele>39.07</ele>
        <time>2011-11-13T09:35:39Z</time>
      </trkpt>
      <trkpt lat="47.53922" lon="-0.62084">
        <ele>40.03</ele>
        <time>2011-11-13T09:35:47Z</time>
      </trkpt>
      <trkpt lat="47.53898" lon="-0.62108">
        <ele>40.51</ele>
        <time>2011-11-13T09:35:55Z</time>
      </trkpt>
      <trkpt lat="47.53868" lon="-0.62139">
        <ele>40.51</ele>
        <time>2011-11-13T09:36:04Z</time>
      </trkpt>
      <trkpt lat="47.53851" lon="-0.62157">
        <ele>40.51</ele>
        <time>2011-11-13T09:36:09Z</time>
      </trkpt>
      <trkpt lat="47.53818" lon="-0.62182">
        <ele>40.99</ele>
        <time>2011-11-13T09:36:18Z</time>
      </trkpt>
      <trkpt lat="47.53802" lon="-0.62175">
        <ele>41.95</ele>
        <time>2011-11-13T09:36:23Z</time>
      </trkpt>
      <trkpt lat="47.53789" lon="-0.62163">
        <ele>43.88</ele>
        <time>2011-11-13T09:36:28Z</time>
      </trkpt>
      <trkpt lat="47.53795" lon="-0.62148">
        <ele>44.36</ele>
        <time>2011-11-13T09:36:33Z</time>
      </trkpt>
      <trkpt lat="47.53803" lon="-0.62133">
        <ele>44.36</ele>
        <time>2011-11-13T09:36:39Z</time>
      </trkpt>
      <trkpt lat="47.53809" lon="-0.62121">
        <ele>43.4</ele>
        <time>2011-11-13T09:36:44Z</time>
      </trkpt>
      <trkpt lat="47.53826" lon="-0.62115">
        <ele>42.92</ele>
        <time>2011-11-13T09:36:51Z</time>
      </trkpt>
      <trkpt lat="47.53846" lon="-0.621">
        <ele>41.95</ele>
        <time>2011-11-13T09:36:57Z</time>
      </trkpt>
      <trkpt lat="47.53872" lon="-0.6207">
        <ele>42.44</ele>
        <time>2011-11-13T09:37:05Z</time>
      </trkpt>
      <trkpt lat="47.53876" lon="-0.62066">
        <ele>41.47</ele>
        <time>2011-11-13T09:37:08Z</time>
      </trkpt>
      <trkpt lat="47.53875" lon="-0.62066">
        <ele>41.95</ele>
        <time>2011-11-13T09:37:12Z</time>
      </trkpt>
      <trkpt lat="47.53872" lon="-0.62066">
        <ele>41.95</ele>
        <time>2011-11-13T09:37:18Z</time>
      </trkpt>
      <trkpt lat="47.53872" lon="-0.62067">
        <ele>42.44</ele>
        <time>2011-11-13T09:37:28Z</time>
      </trkpt>
      <trkpt lat="47.53872" lon="-0.62067">
        <ele>39.55</ele>
        <time>2011-11-13T09:37:37Z</time>
      </trkpt>
      <trkpt lat="47.53872" lon="-0.62067">
        <ele>42.44</ele>
        <time>2011-11-13T09:37:38Z</time>
      </trkpt>
      <trkpt lat="47.53872" lon="-0.62067">
        <ele>42.44</ele>
        <time>2011-11-13T09:37:52Z</time>
      </trkpt>
      <trkpt lat="47.53872" lon="-0.62067">
        <ele>41.95</ele>
        <time>2011-11-13T09:38:08Z</time>
      </trkpt>
    </trkseg>
  </trk>
</gpx>